<?xml version="1.0" encoding="UTF-8" standalone="no" ?>
<gpx xmlns="http://www.topografix.com/GPX/1/1" xmlns:xsi="http://www.w3.org/2001/XMLSchema-instance" xsi:schemaLocation="http://www.topografix.com/GPX/1/1 http://www.topografix.com/GPX/1/1/gpx.xsd" version="1.1" creator="VisuGPX - https://www.visugpx.com">
  <metadata>
    <name>Le Bois-Plage-en-Ré</name>
  </metadata>
  <trk>
    <name><![CDATA[Le Bois-Plage-en-Ré_1]]></name>
    <trkseg>
      <trkpt lat="46.18273" lon="-1.36912">
        <ele>9.6</ele>
        <time>2025-06-30T18:58:15Z</time>
      </trkpt>
      <trkpt lat="46.18275" lon="-1.36916">
        <ele>9.8</ele>
        <time>2025-06-30T18:58:20Z</time>
      </trkpt>
      <trkpt lat="46.18278" lon="-1.3692">
        <ele>9.8</ele>
        <time>2025-06-30T18:58:25Z</time>
      </trkpt>
      <trkpt lat="46.18278" lon="-1.36924">
        <ele>10</ele>
        <time>2025-06-30T18:58:31Z</time>
      </trkpt>
      <trkpt lat="46.18278" lon="-1.36927">
        <ele>10.2</ele>
        <time>2025-06-30T18:58:38Z</time>
      </trkpt>
      <trkpt lat="46.18278" lon="-1.36928">
        <ele>10.2</ele>
        <time>2025-06-30T18:58:39Z</time>
      </trkpt>
      <trkpt lat="46.18276" lon="-1.36931">
        <ele>10.4</ele>
        <time>2025-06-30T18:58:41Z</time>
      </trkpt>
      <trkpt lat="46.18271" lon="-1.36942">
        <ele>10.6</ele>
        <time>2025-06-30T18:58:48Z</time>
      </trkpt>
      <trkpt lat="46.18271" lon="-1.36943">
        <ele>10.8</ele>
        <time>2025-06-30T18:58:49Z</time>
      </trkpt>
      <trkpt lat="46.18271" lon="-1.36946">
        <ele>11</ele>
        <time>2025-06-30T18:58:51Z</time>
      </trkpt>
      <trkpt lat="46.1827" lon="-1.36951">
        <ele>10.8</ele>
        <time>2025-06-30T18:58:55Z</time>
      </trkpt>
      <trkpt lat="46.18267" lon="-1.3696">
        <ele>10.8</ele>
        <time>2025-06-30T18:59:00Z</time>
      </trkpt>
      <trkpt lat="46.18267" lon="-1.36962">
        <ele>11</ele>
        <time>2025-06-30T18:59:03Z</time>
      </trkpt>
      <trkpt lat="46.18267" lon="-1.36962">
        <ele>11</ele>
        <time>2025-06-30T18:59:04Z</time>
      </trkpt>
      <trkpt lat="46.18265" lon="-1.36961">
        <ele>11</ele>
        <time>2025-06-30T18:59:06Z</time>
      </trkpt>
      <trkpt lat="46.18263" lon="-1.3696">
        <ele>10.8</ele>
        <time>2025-06-30T18:59:08Z</time>
      </trkpt>
      <trkpt lat="46.18259" lon="-1.36955">
        <ele>10.6</ele>
        <time>2025-06-30T18:59:12Z</time>
      </trkpt>
      <trkpt lat="46.18255" lon="-1.36952">
        <ele>10.8</ele>
        <time>2025-06-30T18:59:16Z</time>
      </trkpt>
      <trkpt lat="46.18244" lon="-1.36952">
        <ele>10.8</ele>
        <time>2025-06-30T18:59:26Z</time>
      </trkpt>
      <trkpt lat="46.1824" lon="-1.36956">
        <ele>10.8</ele>
        <time>2025-06-30T18:59:31Z</time>
      </trkpt>
      <trkpt lat="46.18239" lon="-1.36959">
        <ele>11</ele>
        <time>2025-06-30T18:59:37Z</time>
      </trkpt>
      <trkpt lat="46.18238" lon="-1.3696">
        <ele>11.2</ele>
        <time>2025-06-30T18:59:42Z</time>
      </trkpt>
      <trkpt lat="46.18238" lon="-1.3696">
        <ele>11.2</ele>
        <time>2025-06-30T18:59:44Z</time>
      </trkpt>
      <trkpt lat="46.18237" lon="-1.36963">
        <ele>11.2</ele>
        <time>2025-06-30T18:59:48Z</time>
      </trkpt>
      <trkpt lat="46.18233" lon="-1.36968">
        <ele>11</ele>
        <time>2025-06-30T18:59:56Z</time>
      </trkpt>
      <trkpt lat="46.18233" lon="-1.36968">
        <ele>11</ele>
        <time>2025-06-30T18:59:57Z</time>
      </trkpt>
      <trkpt lat="46.18234" lon="-1.36967">
        <ele>11.2</ele>
        <time>2025-06-30T19:00:01Z</time>
      </trkpt>
      <trkpt lat="46.18233" lon="-1.36966">
        <ele>11.2</ele>
        <time>2025-06-30T19:00:08Z</time>
      </trkpt>
      <trkpt lat="46.18228" lon="-1.36974">
        <ele>11.4</ele>
        <time>2025-06-30T19:00:15Z</time>
      </trkpt>
      <trkpt lat="46.18228" lon="-1.36977">
        <ele>12</ele>
        <time>2025-06-30T19:00:17Z</time>
      </trkpt>
      <trkpt lat="46.18228" lon="-1.36989">
        <ele>12</ele>
        <time>2025-06-30T19:00:25Z</time>
      </trkpt>
      <trkpt lat="46.18229" lon="-1.36995">
        <ele>11.8</ele>
        <time>2025-06-30T19:00:28Z</time>
      </trkpt>
      <trkpt lat="46.18229" lon="-1.37">
        <ele>12</ele>
        <time>2025-06-30T19:00:31Z</time>
      </trkpt>
      <trkpt lat="46.18229" lon="-1.37001">
        <ele>12</ele>
        <time>2025-06-30T19:00:32Z</time>
      </trkpt>
      <trkpt lat="46.18225" lon="-1.37005">
        <ele>12</ele>
        <time>2025-06-30T19:00:36Z</time>
      </trkpt>
      <trkpt lat="46.18223" lon="-1.3701">
        <ele>12</ele>
        <time>2025-06-30T19:00:40Z</time>
      </trkpt>
      <trkpt lat="46.18215" lon="-1.37011">
        <ele>12.2</ele>
        <time>2025-06-30T19:00:48Z</time>
      </trkpt>
      <trkpt lat="46.18209" lon="-1.37008">
        <ele>12.2</ele>
        <time>2025-06-30T19:00:53Z</time>
      </trkpt>
      <trkpt lat="46.182" lon="-1.37003">
        <ele>12.4</ele>
        <time>2025-06-30T19:01:00Z</time>
      </trkpt>
      <trkpt lat="46.18194" lon="-1.37">
        <ele>12.4</ele>
        <time>2025-06-30T19:01:05Z</time>
      </trkpt>
      <trkpt lat="46.18184" lon="-1.36992">
        <ele>12.6</ele>
        <time>2025-06-30T19:01:14Z</time>
      </trkpt>
      <trkpt lat="46.18175" lon="-1.36984">
        <ele>12.4</ele>
        <time>2025-06-30T19:01:21Z</time>
      </trkpt>
      <trkpt lat="46.18166" lon="-1.36975">
        <ele>12.4</ele>
        <time>2025-06-30T19:01:29Z</time>
      </trkpt>
      <trkpt lat="46.18155" lon="-1.36968">
        <ele>12.2</ele>
        <time>2025-06-30T19:01:40Z</time>
      </trkpt>
      <trkpt lat="46.18145" lon="-1.36959">
        <ele>12.4</ele>
        <time>2025-06-30T19:01:50Z</time>
      </trkpt>
      <trkpt lat="46.18143" lon="-1.36957">
        <ele>12.4</ele>
        <time>2025-06-30T19:01:52Z</time>
      </trkpt>
      <trkpt lat="46.18138" lon="-1.36955">
        <ele>12.4</ele>
        <time>2025-06-30T19:01:56Z</time>
      </trkpt>
      <trkpt lat="46.1813" lon="-1.36951">
        <ele>12.6</ele>
        <time>2025-06-30T19:02:04Z</time>
      </trkpt>
      <trkpt lat="46.18126" lon="-1.36948">
        <ele>12.6</ele>
        <time>2025-06-30T19:02:08Z</time>
      </trkpt>
      <trkpt lat="46.18124" lon="-1.36946">
        <ele>12.6</ele>
        <time>2025-06-30T19:02:10Z</time>
      </trkpt>
      <trkpt lat="46.18114" lon="-1.36938">
        <ele>13</ele>
        <time>2025-06-30T19:02:19Z</time>
      </trkpt>
      <trkpt lat="46.18109" lon="-1.36936">
        <ele>13</ele>
        <time>2025-06-30T19:02:22Z</time>
      </trkpt>
      <trkpt lat="46.18102" lon="-1.36932">
        <ele>13.2</ele>
        <time>2025-06-30T19:02:28Z</time>
      </trkpt>
      <trkpt lat="46.18098" lon="-1.36932">
        <ele>13.4</ele>
        <time>2025-06-30T19:02:30Z</time>
      </trkpt>
      <trkpt lat="46.18096" lon="-1.36929">
        <ele>13.4</ele>
        <time>2025-06-30T19:02:32Z</time>
      </trkpt>
      <trkpt lat="46.18094" lon="-1.36927">
        <ele>13.4</ele>
        <time>2025-06-30T19:02:34Z</time>
      </trkpt>
      <trkpt lat="46.18091" lon="-1.36926">
        <ele>13.6</ele>
        <time>2025-06-30T19:02:36Z</time>
      </trkpt>
      <trkpt lat="46.1809" lon="-1.36926">
        <ele>13.6</ele>
        <time>2025-06-30T19:02:37Z</time>
      </trkpt>
      <trkpt lat="46.18086" lon="-1.36922">
        <ele>13.6</ele>
        <time>2025-06-30T19:02:41Z</time>
      </trkpt>
      <trkpt lat="46.18084" lon="-1.36917">
        <ele>13.6</ele>
        <time>2025-06-30T19:02:44Z</time>
      </trkpt>
      <trkpt lat="46.1808" lon="-1.36911">
        <ele>13.8</ele>
        <time>2025-06-30T19:02:49Z</time>
      </trkpt>
      <trkpt lat="46.18079" lon="-1.36908">
        <ele>13.8</ele>
        <time>2025-06-30T19:02:51Z</time>
      </trkpt>
      <trkpt lat="46.18077" lon="-1.36907">
        <ele>13.8</ele>
        <time>2025-06-30T19:02:52Z</time>
      </trkpt>
      <trkpt lat="46.18068" lon="-1.36901">
        <ele>14</ele>
        <time>2025-06-30T19:02:59Z</time>
      </trkpt>
      <trkpt lat="46.18065" lon="-1.36896">
        <ele>14</ele>
        <time>2025-06-30T19:03:04Z</time>
      </trkpt>
      <trkpt lat="46.18063" lon="-1.36894">
        <ele>14</ele>
        <time>2025-06-30T19:03:06Z</time>
      </trkpt>
      <trkpt lat="46.1806" lon="-1.36888">
        <ele>14.2</ele>
        <time>2025-06-30T19:03:10Z</time>
      </trkpt>
      <trkpt lat="46.18056" lon="-1.36884">
        <ele>14.2</ele>
        <time>2025-06-30T19:03:13Z</time>
      </trkpt>
      <trkpt lat="46.18053" lon="-1.36882">
        <ele>14.2</ele>
        <time>2025-06-30T19:03:15Z</time>
      </trkpt>
      <trkpt lat="46.18047" lon="-1.36881">
        <ele>14.2</ele>
        <time>2025-06-30T19:03:20Z</time>
      </trkpt>
      <trkpt lat="46.18044" lon="-1.36876">
        <ele>14.2</ele>
        <time>2025-06-30T19:03:24Z</time>
      </trkpt>
      <trkpt lat="46.18043" lon="-1.36875">
        <ele>14.2</ele>
        <time>2025-06-30T19:03:25Z</time>
      </trkpt>
      <trkpt lat="46.18041" lon="-1.36875">
        <ele>14.4</ele>
        <time>2025-06-30T19:03:27Z</time>
      </trkpt>
      <trkpt lat="46.18039" lon="-1.36874">
        <ele>14.4</ele>
        <time>2025-06-30T19:03:29Z</time>
      </trkpt>
      <trkpt lat="46.18037" lon="-1.36873">
        <ele>14.4</ele>
        <time>2025-06-30T19:03:30Z</time>
      </trkpt>
      <trkpt lat="46.18035" lon="-1.36865">
        <ele>14.4</ele>
        <time>2025-06-30T19:03:34Z</time>
      </trkpt>
      <trkpt lat="46.18032" lon="-1.36861">
        <ele>14.4</ele>
        <time>2025-06-30T19:03:38Z</time>
      </trkpt>
      <trkpt lat="46.18031" lon="-1.36858">
        <ele>14.2</ele>
        <time>2025-06-30T19:03:40Z</time>
      </trkpt>
      <trkpt lat="46.18031" lon="-1.36856">
        <ele>14.2</ele>
        <time>2025-06-30T19:03:42Z</time>
      </trkpt>
      <trkpt lat="46.18032" lon="-1.36855">
        <ele>14.2</ele>
        <time>2025-06-30T19:03:44Z</time>
      </trkpt>
      <trkpt lat="46.18031" lon="-1.36851">
        <ele>14.4</ele>
        <time>2025-06-30T19:03:46Z</time>
      </trkpt>
      <trkpt lat="46.1803" lon="-1.36849">
        <ele>14.4</ele>
        <time>2025-06-30T19:03:47Z</time>
      </trkpt>
      <trkpt lat="46.18028" lon="-1.36844">
        <ele>14.4</ele>
        <time>2025-06-30T19:03:50Z</time>
      </trkpt>
      <trkpt lat="46.18026" lon="-1.36841">
        <ele>14.4</ele>
        <time>2025-06-30T19:03:52Z</time>
      </trkpt>
      <trkpt lat="46.18022" lon="-1.36835">
        <ele>14.4</ele>
        <time>2025-06-30T19:03:58Z</time>
      </trkpt>
      <trkpt lat="46.18021" lon="-1.36833">
        <ele>14.4</ele>
        <time>2025-06-30T19:03:59Z</time>
      </trkpt>
      <trkpt lat="46.18014" lon="-1.36825">
        <ele>14.4</ele>
        <time>2025-06-30T19:04:05Z</time>
      </trkpt>
      <trkpt lat="46.18013" lon="-1.36823">
        <ele>14.4</ele>
        <time>2025-06-30T19:04:06Z</time>
      </trkpt>
      <trkpt lat="46.18012" lon="-1.3682">
        <ele>14.6</ele>
        <time>2025-06-30T19:04:08Z</time>
      </trkpt>
      <trkpt lat="46.18011" lon="-1.36819">
        <ele>14.6</ele>
        <time>2025-06-30T19:04:09Z</time>
      </trkpt>
      <trkpt lat="46.18009" lon="-1.36818">
        <ele>14.6</ele>
        <time>2025-06-30T19:04:10Z</time>
      </trkpt>
      <trkpt lat="46.18003" lon="-1.36806">
        <ele>15</ele>
        <time>2025-06-30T19:04:17Z</time>
      </trkpt>
      <trkpt lat="46.18002" lon="-1.36804">
        <ele>15</ele>
        <time>2025-06-30T19:04:18Z</time>
      </trkpt>
      <trkpt lat="46.17997" lon="-1.36793">
        <ele>15</ele>
        <time>2025-06-30T19:04:26Z</time>
      </trkpt>
      <trkpt lat="46.17996" lon="-1.36791">
        <ele>15.2</ele>
        <time>2025-06-30T19:04:27Z</time>
      </trkpt>
      <trkpt lat="46.17994" lon="-1.36787">
        <ele>15.2</ele>
        <time>2025-06-30T19:04:30Z</time>
      </trkpt>
      <trkpt lat="46.17992" lon="-1.36784">
        <ele>15.4</ele>
        <time>2025-06-30T19:04:34Z</time>
      </trkpt>
      <trkpt lat="46.17992" lon="-1.36775">
        <ele>15.2</ele>
        <time>2025-06-30T19:04:37Z</time>
      </trkpt>
      <trkpt lat="46.17991" lon="-1.3677">
        <ele>15.2</ele>
        <time>2025-06-30T19:04:40Z</time>
      </trkpt>
      <trkpt lat="46.1799" lon="-1.36764">
        <ele>15.2</ele>
        <time>2025-06-30T19:04:43Z</time>
      </trkpt>
      <trkpt lat="46.1799" lon="-1.3676">
        <ele>15.2</ele>
        <time>2025-06-30T19:04:45Z</time>
      </trkpt>
      <trkpt lat="46.17989" lon="-1.36753">
        <ele>15</ele>
        <time>2025-06-30T19:04:49Z</time>
      </trkpt>
      <trkpt lat="46.17989" lon="-1.3675">
        <ele>15</ele>
        <time>2025-06-30T19:04:51Z</time>
      </trkpt>
      <trkpt lat="46.17989" lon="-1.36743">
        <ele>15</ele>
        <time>2025-06-30T19:04:54Z</time>
      </trkpt>
      <trkpt lat="46.17991" lon="-1.36737">
        <ele>14.8</ele>
        <time>2025-06-30T19:04:57Z</time>
      </trkpt>
      <trkpt lat="46.17993" lon="-1.36717">
        <ele>14.8</ele>
        <time>2025-06-30T19:05:05Z</time>
      </trkpt>
      <trkpt lat="46.1799" lon="-1.36703">
        <ele>14.6</ele>
        <time>2025-06-30T19:05:12Z</time>
      </trkpt>
      <trkpt lat="46.17983" lon="-1.3669">
        <ele>14.8</ele>
        <time>2025-06-30T19:05:20Z</time>
      </trkpt>
      <trkpt lat="46.17981" lon="-1.36685">
        <ele>14.8</ele>
        <time>2025-06-30T19:05:23Z</time>
      </trkpt>
      <trkpt lat="46.1798" lon="-1.36682">
        <ele>15</ele>
        <time>2025-06-30T19:05:25Z</time>
      </trkpt>
      <trkpt lat="46.17979" lon="-1.3668">
        <ele>15</ele>
        <time>2025-06-30T19:05:26Z</time>
      </trkpt>
      <trkpt lat="46.17977" lon="-1.36676">
        <ele>15</ele>
        <time>2025-06-30T19:05:29Z</time>
      </trkpt>
      <trkpt lat="46.17977" lon="-1.36672">
        <ele>15</ele>
        <time>2025-06-30T19:05:31Z</time>
      </trkpt>
      <trkpt lat="46.17977" lon="-1.3667">
        <ele>14.8</ele>
        <time>2025-06-30T19:05:32Z</time>
      </trkpt>
      <trkpt lat="46.17975" lon="-1.36662">
        <ele>14.8</ele>
        <time>2025-06-30T19:05:37Z</time>
      </trkpt>
      <trkpt lat="46.17974" lon="-1.36659">
        <ele>14.8</ele>
        <time>2025-06-30T19:05:39Z</time>
      </trkpt>
      <trkpt lat="46.17973" lon="-1.36654">
        <ele>14.8</ele>
        <time>2025-06-30T19:05:42Z</time>
      </trkpt>
      <trkpt lat="46.1797" lon="-1.36645">
        <ele>14.8</ele>
        <time>2025-06-30T19:05:49Z</time>
      </trkpt>
      <trkpt lat="46.17967" lon="-1.36636">
        <ele>15.2</ele>
        <time>2025-06-30T19:05:54Z</time>
      </trkpt>
      <trkpt lat="46.17965" lon="-1.36632">
        <ele>15.2</ele>
        <time>2025-06-30T19:05:56Z</time>
      </trkpt>
      <trkpt lat="46.17959" lon="-1.36614">
        <ele>15</ele>
        <time>2025-06-30T19:06:06Z</time>
      </trkpt>
      <trkpt lat="46.17959" lon="-1.36613">
        <ele>15</ele>
        <time>2025-06-30T19:06:07Z</time>
      </trkpt>
      <trkpt lat="46.17955" lon="-1.36607">
        <ele>15.2</ele>
        <time>2025-06-30T19:06:11Z</time>
      </trkpt>
      <trkpt lat="46.17954" lon="-1.36598">
        <ele>15.4</ele>
        <time>2025-06-30T19:06:16Z</time>
      </trkpt>
      <trkpt lat="46.17955" lon="-1.36595">
        <ele>15.4</ele>
        <time>2025-06-30T19:06:18Z</time>
      </trkpt>
      <trkpt lat="46.17952" lon="-1.36587">
        <ele>15.6</ele>
        <time>2025-06-30T19:06:24Z</time>
      </trkpt>
      <trkpt lat="46.17951" lon="-1.36583">
        <ele>15.6</ele>
        <time>2025-06-30T19:06:26Z</time>
      </trkpt>
      <trkpt lat="46.1795" lon="-1.36571">
        <ele>16</ele>
        <time>2025-06-30T19:06:33Z</time>
      </trkpt>
      <trkpt lat="46.17949" lon="-1.36567">
        <ele>16</ele>
        <time>2025-06-30T19:06:35Z</time>
      </trkpt>
      <trkpt lat="46.17948" lon="-1.36564">
        <ele>16.2</ele>
        <time>2025-06-30T19:06:37Z</time>
      </trkpt>
      <trkpt lat="46.17947" lon="-1.36556">
        <ele>16.2</ele>
        <time>2025-06-30T19:06:40Z</time>
      </trkpt>
      <trkpt lat="46.17947" lon="-1.36548">
        <ele>16.4</ele>
        <time>2025-06-30T19:06:43Z</time>
      </trkpt>
      <trkpt lat="46.17947" lon="-1.36541">
        <ele>16.4</ele>
        <time>2025-06-30T19:06:46Z</time>
      </trkpt>
      <trkpt lat="46.17948" lon="-1.36531">
        <ele>16.2</ele>
        <time>2025-06-30T19:06:50Z</time>
      </trkpt>
      <trkpt lat="46.17948" lon="-1.36526">
        <ele>16.2</ele>
        <time>2025-06-30T19:06:53Z</time>
      </trkpt>
      <trkpt lat="46.17946" lon="-1.36513">
        <ele>16.2</ele>
        <time>2025-06-30T19:07:00Z</time>
      </trkpt>
      <trkpt lat="46.17947" lon="-1.36511">
        <ele>16.2</ele>
        <time>2025-06-30T19:07:01Z</time>
      </trkpt>
      <trkpt lat="46.17947" lon="-1.36509">
        <ele>16.2</ele>
        <time>2025-06-30T19:07:02Z</time>
      </trkpt>
      <trkpt lat="46.17946" lon="-1.36506">
        <ele>16.2</ele>
        <time>2025-06-30T19:07:04Z</time>
      </trkpt>
      <trkpt lat="46.17945" lon="-1.36504">
        <ele>16.2</ele>
        <time>2025-06-30T19:07:05Z</time>
      </trkpt>
      <trkpt lat="46.17946" lon="-1.36497">
        <ele>16.2</ele>
        <time>2025-06-30T19:07:09Z</time>
      </trkpt>
      <trkpt lat="46.17946" lon="-1.36493">
        <ele>16.2</ele>
        <time>2025-06-30T19:07:11Z</time>
      </trkpt>
      <trkpt lat="46.17946" lon="-1.36488">
        <ele>16</ele>
        <time>2025-06-30T19:07:14Z</time>
      </trkpt>
      <trkpt lat="46.17946" lon="-1.36484">
        <ele>16</ele>
        <time>2025-06-30T19:07:16Z</time>
      </trkpt>
      <trkpt lat="46.17947" lon="-1.36476">
        <ele>15.8</ele>
        <time>2025-06-30T19:07:20Z</time>
      </trkpt>
      <trkpt lat="46.17948" lon="-1.36473">
        <ele>15.8</ele>
        <time>2025-06-30T19:07:22Z</time>
      </trkpt>
      <trkpt lat="46.1795" lon="-1.36467">
        <ele>15.6</ele>
        <time>2025-06-30T19:07:25Z</time>
      </trkpt>
      <trkpt lat="46.1795" lon="-1.3646">
        <ele>15.6</ele>
        <time>2025-06-30T19:07:29Z</time>
      </trkpt>
      <trkpt lat="46.1795" lon="-1.36458">
        <ele>15.6</ele>
        <time>2025-06-30T19:07:30Z</time>
      </trkpt>
      <trkpt lat="46.17943" lon="-1.36449">
        <ele>15.6</ele>
        <time>2025-06-30T19:07:35Z</time>
      </trkpt>
      <trkpt lat="46.17942" lon="-1.36448">
        <ele>15.6</ele>
        <time>2025-06-30T19:07:36Z</time>
      </trkpt>
      <trkpt lat="46.17939" lon="-1.36447">
        <ele>15.8</ele>
        <time>2025-06-30T19:07:40Z</time>
      </trkpt>
      <trkpt lat="46.17937" lon="-1.36446">
        <ele>15.8</ele>
        <time>2025-06-30T19:07:42Z</time>
      </trkpt>
      <trkpt lat="46.17935" lon="-1.36443">
        <ele>15.8</ele>
        <time>2025-06-30T19:07:44Z</time>
      </trkpt>
      <trkpt lat="46.17926" lon="-1.36441">
        <ele>16.2</ele>
        <time>2025-06-30T19:07:49Z</time>
      </trkpt>
      <trkpt lat="46.17921" lon="-1.3644">
        <ele>16.4</ele>
        <time>2025-06-30T19:07:52Z</time>
      </trkpt>
      <trkpt lat="46.17917" lon="-1.36439">
        <ele>16.4</ele>
        <time>2025-06-30T19:07:56Z</time>
      </trkpt>
      <trkpt lat="46.17914" lon="-1.36439">
        <ele>16.6</ele>
        <time>2025-06-30T19:07:58Z</time>
      </trkpt>
      <trkpt lat="46.17913" lon="-1.36438">
        <ele>16.8</ele>
        <time>2025-06-30T19:08:00Z</time>
      </trkpt>
      <trkpt lat="46.17909" lon="-1.36438">
        <ele>17</ele>
        <time>2025-06-30T19:08:03Z</time>
      </trkpt>
      <trkpt lat="46.17902" lon="-1.36442">
        <ele>17.2</ele>
        <time>2025-06-30T19:08:07Z</time>
      </trkpt>
      <trkpt lat="46.17901" lon="-1.36442">
        <ele>17.4</ele>
        <time>2025-06-30T19:08:08Z</time>
      </trkpt>
      <trkpt lat="46.17898" lon="-1.36439">
        <ele>17.6</ele>
        <time>2025-06-30T19:08:13Z</time>
      </trkpt>
      <trkpt lat="46.17897" lon="-1.36438">
        <ele>17.6</ele>
        <time>2025-06-30T19:08:14Z</time>
      </trkpt>
      <trkpt lat="46.17895" lon="-1.36436">
        <ele>17.6</ele>
        <time>2025-06-30T19:08:16Z</time>
      </trkpt>
      <trkpt lat="46.17891" lon="-1.36434">
        <ele>18</ele>
        <time>2025-06-30T19:08:20Z</time>
      </trkpt>
      <trkpt lat="46.17887" lon="-1.36432">
        <ele>18.2</ele>
        <time>2025-06-30T19:08:23Z</time>
      </trkpt>
      <trkpt lat="46.17886" lon="-1.36432">
        <ele>18.2</ele>
        <time>2025-06-30T19:08:24Z</time>
      </trkpt>
      <trkpt lat="46.17881" lon="-1.36436">
        <ele>18.4</ele>
        <time>2025-06-30T19:08:27Z</time>
      </trkpt>
      <trkpt lat="46.17878" lon="-1.36437">
        <ele>18.4</ele>
        <time>2025-06-30T19:08:29Z</time>
      </trkpt>
      <trkpt lat="46.17873" lon="-1.36437">
        <ele>18.6</ele>
        <time>2025-06-30T19:08:32Z</time>
      </trkpt>
      <trkpt lat="46.17866" lon="-1.36429">
        <ele>18.2</ele>
        <time>2025-06-30T19:08:39Z</time>
      </trkpt>
      <trkpt lat="46.1786" lon="-1.36425">
        <ele>17.8</ele>
        <time>2025-06-30T19:08:45Z</time>
      </trkpt>
      <trkpt lat="46.17858" lon="-1.36425">
        <ele>17.8</ele>
        <time>2025-06-30T19:08:46Z</time>
      </trkpt>
      <trkpt lat="46.17851" lon="-1.36429">
        <ele>18.6</ele>
        <time>2025-06-30T19:08:54Z</time>
      </trkpt>
      <trkpt lat="46.1785" lon="-1.36429">
        <ele>18.6</ele>
        <time>2025-06-30T19:08:55Z</time>
      </trkpt>
      <trkpt lat="46.17845" lon="-1.36431">
        <ele>18.6</ele>
        <time>2025-06-30T19:08:59Z</time>
      </trkpt>
      <trkpt lat="46.17831" lon="-1.36435">
        <ele>19.2</ele>
        <time>2025-06-30T19:09:08Z</time>
      </trkpt>
      <trkpt lat="46.17829" lon="-1.36438">
        <ele>19.2</ele>
        <time>2025-06-30T19:09:10Z</time>
      </trkpt>
      <trkpt lat="46.17826" lon="-1.36442">
        <ele>19.6</ele>
        <time>2025-06-30T19:09:14Z</time>
      </trkpt>
      <trkpt lat="46.17824" lon="-1.36443">
        <ele>19.8</ele>
        <time>2025-06-30T19:09:15Z</time>
      </trkpt>
      <trkpt lat="46.17819" lon="-1.3645">
        <ele>20.4</ele>
        <time>2025-06-30T19:09:20Z</time>
      </trkpt>
      <trkpt lat="46.17817" lon="-1.3645">
        <ele>20.4</ele>
        <time>2025-06-30T19:09:22Z</time>
      </trkpt>
      <trkpt lat="46.17812" lon="-1.36451">
        <ele>20.4</ele>
        <time>2025-06-30T19:09:27Z</time>
      </trkpt>
      <trkpt lat="46.17811" lon="-1.3645">
        <ele>20.2</ele>
        <time>2025-06-30T19:09:28Z</time>
      </trkpt>
      <trkpt lat="46.17805" lon="-1.36445">
        <ele>19.4</ele>
        <time>2025-06-30T19:09:33Z</time>
      </trkpt>
      <trkpt lat="46.17799" lon="-1.36441">
        <ele>19</ele>
        <time>2025-06-30T19:09:37Z</time>
      </trkpt>
      <trkpt lat="46.17798" lon="-1.36441">
        <ele>19</ele>
        <time>2025-06-30T19:09:38Z</time>
      </trkpt>
      <trkpt lat="46.17796" lon="-1.3644">
        <ele>19</ele>
        <time>2025-06-30T19:09:40Z</time>
      </trkpt>
      <trkpt lat="46.17793" lon="-1.36439">
        <ele>18.4</ele>
        <time>2025-06-30T19:09:42Z</time>
      </trkpt>
      <trkpt lat="46.17791" lon="-1.36439">
        <ele>18.4</ele>
        <time>2025-06-30T19:09:43Z</time>
      </trkpt>
      <trkpt lat="46.1779" lon="-1.36438">
        <ele>18.2</ele>
        <time>2025-06-30T19:09:44Z</time>
      </trkpt>
      <trkpt lat="46.17787" lon="-1.36436">
        <ele>18.2</ele>
        <time>2025-06-30T19:09:46Z</time>
      </trkpt>
      <trkpt lat="46.17783" lon="-1.36435">
        <ele>17.6</ele>
        <time>2025-06-30T19:09:50Z</time>
      </trkpt>
      <trkpt lat="46.17783" lon="-1.36435">
        <ele>17.6</ele>
        <time>2025-06-30T19:09:51Z</time>
      </trkpt>
      <trkpt lat="46.17778" lon="-1.36433">
        <ele>17.2</ele>
        <time>2025-06-30T19:09:55Z</time>
      </trkpt>
      <trkpt lat="46.17776" lon="-1.36432">
        <ele>17.2</ele>
        <time>2025-06-30T19:09:56Z</time>
      </trkpt>
      <trkpt lat="46.1777" lon="-1.36429">
        <ele>16.6</ele>
        <time>2025-06-30T19:10:01Z</time>
      </trkpt>
      <trkpt lat="46.17757" lon="-1.36428">
        <ele>16.4</ele>
        <time>2025-06-30T19:10:09Z</time>
      </trkpt>
      <trkpt lat="46.17749" lon="-1.36429">
        <ele>16.8</ele>
        <time>2025-06-30T19:10:17Z</time>
      </trkpt>
      <trkpt lat="46.17742" lon="-1.36431">
        <ele>17.6</ele>
        <time>2025-06-30T19:10:24Z</time>
      </trkpt>
      <trkpt lat="46.17742" lon="-1.36433">
        <ele>17.8</ele>
        <time>2025-06-30T19:10:25Z</time>
      </trkpt>
      <trkpt lat="46.17741" lon="-1.36434">
        <ele>18</ele>
        <time>2025-06-30T19:10:26Z</time>
      </trkpt>
      <trkpt lat="46.1774" lon="-1.36437">
        <ele>18.2</ele>
        <time>2025-06-30T19:10:29Z</time>
      </trkpt>
      <trkpt lat="46.17738" lon="-1.36437">
        <ele>18.6</ele>
        <time>2025-06-30T19:10:31Z</time>
      </trkpt>
      <trkpt lat="46.17737" lon="-1.36438">
        <ele>19</ele>
        <time>2025-06-30T19:10:33Z</time>
      </trkpt>
      <trkpt lat="46.17736" lon="-1.36439">
        <ele>19.2</ele>
        <time>2025-06-30T19:10:34Z</time>
      </trkpt>
      <trkpt lat="46.17734" lon="-1.36439">
        <ele>19.4</ele>
        <time>2025-06-30T19:10:36Z</time>
      </trkpt>
      <trkpt lat="46.17731" lon="-1.36437">
        <ele>19.8</ele>
        <time>2025-06-30T19:10:39Z</time>
      </trkpt>
      <trkpt lat="46.17729" lon="-1.36439">
        <ele>20.4</ele>
        <time>2025-06-30T19:10:41Z</time>
      </trkpt>
      <trkpt lat="46.17726" lon="-1.3644">
        <ele>21</ele>
        <time>2025-06-30T19:10:44Z</time>
      </trkpt>
      <trkpt lat="46.17727" lon="-1.3644">
        <ele>21.2</ele>
        <time>2025-06-30T19:10:46Z</time>
      </trkpt>
      <trkpt lat="46.17726" lon="-1.3644">
        <ele>21.4</ele>
        <time>2025-06-30T19:10:47Z</time>
      </trkpt>
      <trkpt lat="46.17725" lon="-1.3644">
        <ele>21.6</ele>
        <time>2025-06-30T19:10:49Z</time>
      </trkpt>
      <trkpt lat="46.17722" lon="-1.36441">
        <ele>21.8</ele>
        <time>2025-06-30T19:10:51Z</time>
      </trkpt>
      <trkpt lat="46.1772" lon="-1.36442">
        <ele>21.6</ele>
        <time>2025-06-30T19:10:53Z</time>
      </trkpt>
      <trkpt lat="46.17718" lon="-1.36443">
        <ele>21.6</ele>
        <time>2025-06-30T19:10:55Z</time>
      </trkpt>
      <trkpt lat="46.17715" lon="-1.36443">
        <ele>21.2</ele>
        <time>2025-06-30T19:11:00Z</time>
      </trkpt>
      <trkpt lat="46.17712" lon="-1.36445">
        <ele>20.8</ele>
        <time>2025-06-30T19:11:03Z</time>
      </trkpt>
      <trkpt lat="46.1771" lon="-1.36445">
        <ele>20.4</ele>
        <time>2025-06-30T19:11:05Z</time>
      </trkpt>
      <trkpt lat="46.17708" lon="-1.36444">
        <ele>20.2</ele>
        <time>2025-06-30T19:11:07Z</time>
      </trkpt>
      <trkpt lat="46.17705" lon="-1.36443">
        <ele>19.8</ele>
        <time>2025-06-30T19:11:09Z</time>
      </trkpt>
      <trkpt lat="46.17703" lon="-1.36441">
        <ele>19.6</ele>
        <time>2025-06-30T19:11:11Z</time>
      </trkpt>
      <trkpt lat="46.17703" lon="-1.36439">
        <ele>19.4</ele>
        <time>2025-06-30T19:11:13Z</time>
      </trkpt>
      <trkpt lat="46.17702" lon="-1.36438">
        <ele>19.4</ele>
        <time>2025-06-30T19:11:14Z</time>
      </trkpt>
      <trkpt lat="46.17701" lon="-1.36436">
        <ele>19.2</ele>
        <time>2025-06-30T19:11:16Z</time>
      </trkpt>
      <trkpt lat="46.177" lon="-1.36435">
        <ele>19.2</ele>
        <time>2025-06-30T19:11:17Z</time>
      </trkpt>
      <trkpt lat="46.17698" lon="-1.36429">
        <ele>18.4</ele>
        <time>2025-06-30T19:11:59Z</time>
      </trkpt>
      <trkpt lat="46.17698" lon="-1.36429">
        <ele>18.2</ele>
        <time>2025-06-30T19:12:00Z</time>
      </trkpt>
      <trkpt lat="46.17696" lon="-1.36426">
        <ele>18.8</ele>
        <time>2025-06-30T19:12:07Z</time>
      </trkpt>
      <trkpt lat="46.17693" lon="-1.36424">
        <ele>19</ele>
        <time>2025-06-30T19:12:10Z</time>
      </trkpt>
      <trkpt lat="46.17686" lon="-1.36416">
        <ele>18.6</ele>
        <time>2025-06-30T19:12:16Z</time>
      </trkpt>
      <trkpt lat="46.17684" lon="-1.36416">
        <ele>18.2</ele>
        <time>2025-06-30T19:12:17Z</time>
      </trkpt>
      <trkpt lat="46.17681" lon="-1.36415">
        <ele>18</ele>
        <time>2025-06-30T19:12:19Z</time>
      </trkpt>
      <trkpt lat="46.17678" lon="-1.36414">
        <ele>17.8</ele>
        <time>2025-06-30T19:12:22Z</time>
      </trkpt>
      <trkpt lat="46.17674" lon="-1.36413">
        <ele>17.4</ele>
        <time>2025-06-30T19:12:25Z</time>
      </trkpt>
      <trkpt lat="46.17673" lon="-1.36413">
        <ele>17.2</ele>
        <time>2025-06-30T19:12:26Z</time>
      </trkpt>
      <trkpt lat="46.17671" lon="-1.36412">
        <ele>17</ele>
        <time>2025-06-30T19:12:27Z</time>
      </trkpt>
      <trkpt lat="46.17671" lon="-1.36411">
        <ele>16.8</ele>
        <time>2025-06-30T19:12:28Z</time>
      </trkpt>
      <trkpt lat="46.17665" lon="-1.36401">
        <ele>16.6</ele>
        <time>2025-06-30T19:12:35Z</time>
      </trkpt>
      <trkpt lat="46.17662" lon="-1.36397">
        <ele>16.6</ele>
        <time>2025-06-30T19:12:38Z</time>
      </trkpt>
      <trkpt lat="46.17659" lon="-1.36396">
        <ele>16.4</ele>
        <time>2025-06-30T19:12:41Z</time>
      </trkpt>
      <trkpt lat="46.17655" lon="-1.36394">
        <ele>16.4</ele>
        <time>2025-06-30T19:12:44Z</time>
      </trkpt>
      <trkpt lat="46.17651" lon="-1.36395">
        <ele>16.4</ele>
        <time>2025-06-30T19:12:46Z</time>
      </trkpt>
      <trkpt lat="46.1764" lon="-1.36397">
        <ele>16.2</ele>
        <time>2025-06-30T19:12:53Z</time>
      </trkpt>
      <trkpt lat="46.17631" lon="-1.36395">
        <ele>16.2</ele>
        <time>2025-06-30T19:13:00Z</time>
      </trkpt>
      <trkpt lat="46.17627" lon="-1.36392">
        <ele>16.2</ele>
        <time>2025-06-30T19:13:04Z</time>
      </trkpt>
      <trkpt lat="46.17623" lon="-1.36387">
        <ele>16</ele>
        <time>2025-06-30T19:13:08Z</time>
      </trkpt>
      <trkpt lat="46.17615" lon="-1.36376">
        <ele>15.8</ele>
        <time>2025-06-30T19:13:17Z</time>
      </trkpt>
      <trkpt lat="46.17614" lon="-1.36375">
        <ele>15.6</ele>
        <time>2025-06-30T19:13:21Z</time>
      </trkpt>
      <trkpt lat="46.17615" lon="-1.36375">
        <ele>15.8</ele>
        <time>2025-06-30T19:13:22Z</time>
      </trkpt>
      <trkpt lat="46.17605" lon="-1.36374">
        <ele>15.6</ele>
        <time>2025-06-30T19:13:38Z</time>
      </trkpt>
      <trkpt lat="46.17603" lon="-1.36371">
        <ele>15.6</ele>
        <time>2025-06-30T19:13:40Z</time>
      </trkpt>
      <trkpt lat="46.17602" lon="-1.36366">
        <ele>15.6</ele>
        <time>2025-06-30T19:13:43Z</time>
      </trkpt>
      <trkpt lat="46.17602" lon="-1.36362">
        <ele>15.8</ele>
        <time>2025-06-30T19:13:46Z</time>
      </trkpt>
      <trkpt lat="46.176" lon="-1.36359">
        <ele>16</ele>
        <time>2025-06-30T19:13:48Z</time>
      </trkpt>
      <trkpt lat="46.1759" lon="-1.36341">
        <ele>15.6</ele>
        <time>2025-06-30T19:14:00Z</time>
      </trkpt>
      <trkpt lat="46.17584" lon="-1.36336">
        <ele>15.4</ele>
        <time>2025-06-30T19:14:05Z</time>
      </trkpt>
      <trkpt lat="46.17582" lon="-1.36337">
        <ele>15.4</ele>
        <time>2025-06-30T19:14:07Z</time>
      </trkpt>
      <trkpt lat="46.17578" lon="-1.36339">
        <ele>15.6</ele>
        <time>2025-06-30T19:14:11Z</time>
      </trkpt>
      <trkpt lat="46.17573" lon="-1.36338">
        <ele>16</ele>
        <time>2025-06-30T19:14:16Z</time>
      </trkpt>
      <trkpt lat="46.17565" lon="-1.36337">
        <ele>16.4</ele>
        <time>2025-06-30T19:14:24Z</time>
      </trkpt>
      <trkpt lat="46.17564" lon="-1.36336">
        <ele>16.4</ele>
        <time>2025-06-30T19:14:25Z</time>
      </trkpt>
      <trkpt lat="46.17561" lon="-1.36336">
        <ele>16.6</ele>
        <time>2025-06-30T19:14:27Z</time>
      </trkpt>
      <trkpt lat="46.17556" lon="-1.36336">
        <ele>16.6</ele>
        <time>2025-06-30T19:14:30Z</time>
      </trkpt>
      <trkpt lat="46.17549" lon="-1.36334">
        <ele>16.8</ele>
        <time>2025-06-30T19:14:34Z</time>
      </trkpt>
      <trkpt lat="46.17547" lon="-1.36334">
        <ele>17</ele>
        <time>2025-06-30T19:14:37Z</time>
      </trkpt>
      <trkpt lat="46.17546" lon="-1.36334">
        <ele>17.2</ele>
        <time>2025-06-30T19:14:40Z</time>
      </trkpt>
      <trkpt lat="46.17545" lon="-1.36333">
        <ele>17.2</ele>
        <time>2025-06-30T19:14:41Z</time>
      </trkpt>
      <trkpt lat="46.17543" lon="-1.36332">
        <ele>17.4</ele>
        <time>2025-06-30T19:14:44Z</time>
      </trkpt>
      <trkpt lat="46.17538" lon="-1.36334">
        <ele>17.6</ele>
        <time>2025-06-30T19:14:47Z</time>
      </trkpt>
      <trkpt lat="46.17536" lon="-1.36336">
        <ele>17.6</ele>
        <time>2025-06-30T19:14:49Z</time>
      </trkpt>
      <trkpt lat="46.17533" lon="-1.36337">
        <ele>17.8</ele>
        <time>2025-06-30T19:14:53Z</time>
      </trkpt>
      <trkpt lat="46.17527" lon="-1.36342">
        <ele>18</ele>
        <time>2025-06-30T19:14:58Z</time>
      </trkpt>
      <trkpt lat="46.17523" lon="-1.36348">
        <ele>18.2</ele>
        <time>2025-06-30T19:15:04Z</time>
      </trkpt>
      <trkpt lat="46.17521" lon="-1.36349">
        <ele>18.2</ele>
        <time>2025-06-30T19:15:05Z</time>
      </trkpt>
      <trkpt lat="46.17513" lon="-1.36351">
        <ele>18.8</ele>
        <time>2025-06-30T19:15:11Z</time>
      </trkpt>
      <trkpt lat="46.17504" lon="-1.36353">
        <ele>19</ele>
        <time>2025-06-30T19:15:18Z</time>
      </trkpt>
      <trkpt lat="46.17502" lon="-1.36353">
        <ele>19</ele>
        <time>2025-06-30T19:15:20Z</time>
      </trkpt>
      <trkpt lat="46.17498" lon="-1.36354">
        <ele>18.8</ele>
        <time>2025-06-30T19:15:24Z</time>
      </trkpt>
      <trkpt lat="46.17495" lon="-1.36355">
        <ele>19</ele>
        <time>2025-06-30T19:15:27Z</time>
      </trkpt>
      <trkpt lat="46.17491" lon="-1.36359">
        <ele>19</ele>
        <time>2025-06-30T19:15:30Z</time>
      </trkpt>
      <trkpt lat="46.17487" lon="-1.36364">
        <ele>18.8</ele>
        <time>2025-06-30T19:15:36Z</time>
      </trkpt>
      <trkpt lat="46.17485" lon="-1.36365">
        <ele>18.8</ele>
        <time>2025-06-30T19:15:37Z</time>
      </trkpt>
      <trkpt lat="46.17482" lon="-1.3637">
        <ele>18.4</ele>
        <time>2025-06-30T19:15:41Z</time>
      </trkpt>
      <trkpt lat="46.17481" lon="-1.36372">
        <ele>18.4</ele>
        <time>2025-06-30T19:15:42Z</time>
      </trkpt>
      <trkpt lat="46.17476" lon="-1.3638">
        <ele>18.2</ele>
        <time>2025-06-30T19:15:48Z</time>
      </trkpt>
      <trkpt lat="46.17476" lon="-1.36382">
        <ele>18.2</ele>
        <time>2025-06-30T19:15:49Z</time>
      </trkpt>
      <trkpt lat="46.1747" lon="-1.3639">
        <ele>17.8</ele>
        <time>2025-06-30T19:15:56Z</time>
      </trkpt>
      <trkpt lat="46.17469" lon="-1.36391">
        <ele>17.6</ele>
        <time>2025-06-30T19:15:57Z</time>
      </trkpt>
      <trkpt lat="46.17463" lon="-1.36402">
        <ele>17.4</ele>
        <time>2025-06-30T19:16:05Z</time>
      </trkpt>
      <trkpt lat="46.1746" lon="-1.36407">
        <ele>17.2</ele>
        <time>2025-06-30T19:16:09Z</time>
      </trkpt>
      <trkpt lat="46.17459" lon="-1.36409">
        <ele>17</ele>
        <time>2025-06-30T19:16:11Z</time>
      </trkpt>
      <trkpt lat="46.17456" lon="-1.36411">
        <ele>16.6</ele>
        <time>2025-06-30T19:16:15Z</time>
      </trkpt>
      <trkpt lat="46.17447" lon="-1.36417">
        <ele>16.4</ele>
        <time>2025-06-30T19:16:20Z</time>
      </trkpt>
      <trkpt lat="46.17443" lon="-1.36425">
        <ele>16.2</ele>
        <time>2025-06-30T19:16:24Z</time>
      </trkpt>
      <trkpt lat="46.17439" lon="-1.36429">
        <ele>16</ele>
        <time>2025-06-30T19:16:29Z</time>
      </trkpt>
      <trkpt lat="46.17433" lon="-1.36442">
        <ele>16</ele>
        <time>2025-06-30T19:16:35Z</time>
      </trkpt>
      <trkpt lat="46.17427" lon="-1.36458">
        <ele>16.2</ele>
        <time>2025-06-30T19:16:43Z</time>
      </trkpt>
      <trkpt lat="46.17417" lon="-1.36473">
        <ele>16</ele>
        <time>2025-06-30T19:16:52Z</time>
      </trkpt>
      <trkpt lat="46.17409" lon="-1.36487">
        <ele>16</ele>
        <time>2025-06-30T19:17:00Z</time>
      </trkpt>
      <trkpt lat="46.17402" lon="-1.36497">
        <ele>16.2</ele>
        <time>2025-06-30T19:17:06Z</time>
      </trkpt>
      <trkpt lat="46.17397" lon="-1.36505">
        <ele>16.4</ele>
        <time>2025-06-30T19:17:12Z</time>
      </trkpt>
      <trkpt lat="46.17397" lon="-1.36506">
        <ele>16.4</ele>
        <time>2025-06-30T19:17:13Z</time>
      </trkpt>
      <trkpt lat="46.17395" lon="-1.36512">
        <ele>16.4</ele>
        <time>2025-06-30T19:17:16Z</time>
      </trkpt>
      <trkpt lat="46.17391" lon="-1.36517">
        <ele>16.6</ele>
        <time>2025-06-30T19:17:19Z</time>
      </trkpt>
      <trkpt lat="46.17387" lon="-1.36529">
        <ele>16.4</ele>
        <time>2025-06-30T19:17:27Z</time>
      </trkpt>
      <trkpt lat="46.17385" lon="-1.36532">
        <ele>16.4</ele>
        <time>2025-06-30T19:17:30Z</time>
      </trkpt>
      <trkpt lat="46.17384" lon="-1.36532">
        <ele>16.4</ele>
        <time>2025-06-30T19:17:31Z</time>
      </trkpt>
      <trkpt lat="46.17382" lon="-1.36534">
        <ele>16.2</ele>
        <time>2025-06-30T19:17:33Z</time>
      </trkpt>
      <trkpt lat="46.17372" lon="-1.3654">
        <ele>15.8</ele>
        <time>2025-06-30T19:17:40Z</time>
      </trkpt>
      <trkpt lat="46.1737" lon="-1.36541">
        <ele>15.8</ele>
        <time>2025-06-30T19:17:41Z</time>
      </trkpt>
      <trkpt lat="46.17365" lon="-1.36547">
        <ele>15.4</ele>
        <time>2025-06-30T19:17:48Z</time>
      </trkpt>
      <trkpt lat="46.17364" lon="-1.36548">
        <ele>15.4</ele>
        <time>2025-06-30T19:17:49Z</time>
      </trkpt>
      <trkpt lat="46.1736" lon="-1.36551">
        <ele>15.2</ele>
        <time>2025-06-30T19:17:52Z</time>
      </trkpt>
      <trkpt lat="46.17353" lon="-1.36557">
        <ele>15</ele>
        <time>2025-06-30T19:17:57Z</time>
      </trkpt>
      <trkpt lat="46.17343" lon="-1.36564">
        <ele>15</ele>
        <time>2025-06-30T19:18:04Z</time>
      </trkpt>
      <trkpt lat="46.17336" lon="-1.36573">
        <ele>14.8</ele>
        <time>2025-06-30T19:18:11Z</time>
      </trkpt>
      <trkpt lat="46.17334" lon="-1.36572">
        <ele>14.8</ele>
        <time>2025-06-30T19:18:12Z</time>
      </trkpt>
      <trkpt lat="46.17326" lon="-1.36563">
        <ele>14.8</ele>
        <time>2025-06-30T19:18:19Z</time>
      </trkpt>
      <trkpt lat="46.17319" lon="-1.36555">
        <ele>14.6</ele>
        <time>2025-06-30T19:18:26Z</time>
      </trkpt>
      <trkpt lat="46.17318" lon="-1.36554">
        <ele>14.4</ele>
        <time>2025-06-30T19:18:27Z</time>
      </trkpt>
      <trkpt lat="46.17314" lon="-1.36549">
        <ele>14.4</ele>
        <time>2025-06-30T19:18:31Z</time>
      </trkpt>
      <trkpt lat="46.17304" lon="-1.36534">
        <ele>14.4</ele>
        <time>2025-06-30T19:18:42Z</time>
      </trkpt>
      <trkpt lat="46.17297" lon="-1.36526">
        <ele>14.2</ele>
        <time>2025-06-30T19:18:48Z</time>
      </trkpt>
      <trkpt lat="46.17294" lon="-1.36522">
        <ele>14</ele>
        <time>2025-06-30T19:18:51Z</time>
      </trkpt>
      <trkpt lat="46.17292" lon="-1.36519">
        <ele>14.2</ele>
        <time>2025-06-30T19:18:54Z</time>
      </trkpt>
      <trkpt lat="46.17287" lon="-1.36517">
        <ele>14</ele>
        <time>2025-06-30T19:18:57Z</time>
      </trkpt>
      <trkpt lat="46.17286" lon="-1.36515">
        <ele>14</ele>
        <time>2025-06-30T19:18:58Z</time>
      </trkpt>
      <trkpt lat="46.1728" lon="-1.3651">
        <ele>14</ele>
        <time>2025-06-30T19:19:02Z</time>
      </trkpt>
      <trkpt lat="46.17275" lon="-1.36507">
        <ele>13.8</ele>
        <time>2025-06-30T19:19:06Z</time>
      </trkpt>
      <trkpt lat="46.17264" lon="-1.3649">
        <ele>13.8</ele>
        <time>2025-06-30T19:19:16Z</time>
      </trkpt>
      <trkpt lat="46.17256" lon="-1.36489">
        <ele>13.2</ele>
        <time>2025-06-30T19:19:23Z</time>
      </trkpt>
      <trkpt lat="46.1725" lon="-1.36494">
        <ele>13</ele>
        <time>2025-06-30T19:19:29Z</time>
      </trkpt>
      <trkpt lat="46.17248" lon="-1.36497">
        <ele>13.2</ele>
        <time>2025-06-30T19:19:31Z</time>
      </trkpt>
      <trkpt lat="46.17242" lon="-1.36511">
        <ele>13</ele>
        <time>2025-06-30T19:19:39Z</time>
      </trkpt>
      <trkpt lat="46.17242" lon="-1.36512">
        <ele>13.2</ele>
        <time>2025-06-30T19:19:40Z</time>
      </trkpt>
      <trkpt lat="46.17239" lon="-1.36519">
        <ele>12.6</ele>
        <time>2025-06-30T19:19:45Z</time>
      </trkpt>
      <trkpt lat="46.17239" lon="-1.36522">
        <ele>12.6</ele>
        <time>2025-06-30T19:19:47Z</time>
      </trkpt>
      <trkpt lat="46.17234" lon="-1.36541">
        <ele>12.6</ele>
        <time>2025-06-30T19:19:56Z</time>
      </trkpt>
      <trkpt lat="46.1723" lon="-1.36546">
        <ele>12.6</ele>
        <time>2025-06-30T19:20:01Z</time>
      </trkpt>
      <trkpt lat="46.17229" lon="-1.36546">
        <ele>12.6</ele>
        <time>2025-06-30T19:20:02Z</time>
      </trkpt>
      <trkpt lat="46.17224" lon="-1.36562">
        <ele>12.6</ele>
        <time>2025-06-30T19:20:10Z</time>
      </trkpt>
      <trkpt lat="46.17223" lon="-1.36567">
        <ele>12.6</ele>
        <time>2025-06-30T19:20:13Z</time>
      </trkpt>
      <trkpt lat="46.17221" lon="-1.36573">
        <ele>12.4</ele>
        <time>2025-06-30T19:20:16Z</time>
      </trkpt>
      <trkpt lat="46.17216" lon="-1.36587">
        <ele>12.4</ele>
        <time>2025-06-30T19:20:23Z</time>
      </trkpt>
      <trkpt lat="46.17213" lon="-1.36595">
        <ele>12</ele>
        <time>2025-06-30T19:20:28Z</time>
      </trkpt>
      <trkpt lat="46.1721" lon="-1.36602">
        <ele>12</ele>
        <time>2025-06-30T19:20:33Z</time>
      </trkpt>
      <trkpt lat="46.17206" lon="-1.36619">
        <ele>11.6</ele>
        <time>2025-06-30T19:20:42Z</time>
      </trkpt>
      <trkpt lat="46.17201" lon="-1.36633">
        <ele>11.4</ele>
        <time>2025-06-30T19:20:49Z</time>
      </trkpt>
      <trkpt lat="46.17198" lon="-1.3664">
        <ele>11.4</ele>
        <time>2025-06-30T19:20:53Z</time>
      </trkpt>
      <trkpt lat="46.17198" lon="-1.36645">
        <ele>11.4</ele>
        <time>2025-06-30T19:20:55Z</time>
      </trkpt>
      <trkpt lat="46.17195" lon="-1.36656">
        <ele>11</ele>
        <time>2025-06-30T19:21:00Z</time>
      </trkpt>
      <trkpt lat="46.17193" lon="-1.36661">
        <ele>11</ele>
        <time>2025-06-30T19:21:03Z</time>
      </trkpt>
      <trkpt lat="46.17191" lon="-1.36666">
        <ele>11</ele>
        <time>2025-06-30T19:21:06Z</time>
      </trkpt>
      <trkpt lat="46.17191" lon="-1.36668">
        <ele>11</ele>
        <time>2025-06-30T19:21:07Z</time>
      </trkpt>
      <trkpt lat="46.17189" lon="-1.36674">
        <ele>10.8</ele>
        <time>2025-06-30T19:21:10Z</time>
      </trkpt>
      <trkpt lat="46.17185" lon="-1.36684">
        <ele>10.8</ele>
        <time>2025-06-30T19:21:15Z</time>
      </trkpt>
      <trkpt lat="46.17185" lon="-1.36689">
        <ele>10.6</ele>
        <time>2025-06-30T19:21:17Z</time>
      </trkpt>
      <trkpt lat="46.17182" lon="-1.36694">
        <ele>10.6</ele>
        <time>2025-06-30T19:21:21Z</time>
      </trkpt>
      <trkpt lat="46.1718" lon="-1.36699">
        <ele>10.6</ele>
        <time>2025-06-30T19:21:24Z</time>
      </trkpt>
      <trkpt lat="46.17174" lon="-1.36716">
        <ele>10.6</ele>
        <time>2025-06-30T19:21:33Z</time>
      </trkpt>
      <trkpt lat="46.17173" lon="-1.36717">
        <ele>10.6</ele>
        <time>2025-06-30T19:21:34Z</time>
      </trkpt>
      <trkpt lat="46.17169" lon="-1.36733">
        <ele>11</ele>
        <time>2025-06-30T19:21:43Z</time>
      </trkpt>
      <trkpt lat="46.17168" lon="-1.36735">
        <ele>10.8</ele>
        <time>2025-06-30T19:21:44Z</time>
      </trkpt>
      <trkpt lat="46.17166" lon="-1.36746">
        <ele>11</ele>
        <time>2025-06-30T19:21:51Z</time>
      </trkpt>
      <trkpt lat="46.1716" lon="-1.36761">
        <ele>11</ele>
        <time>2025-06-30T19:21:58Z</time>
      </trkpt>
      <trkpt lat="46.17159" lon="-1.36762">
        <ele>11</ele>
        <time>2025-06-30T19:21:59Z</time>
      </trkpt>
      <trkpt lat="46.17157" lon="-1.36773">
        <ele>11</ele>
        <time>2025-06-30T19:22:05Z</time>
      </trkpt>
      <trkpt lat="46.17154" lon="-1.36779">
        <ele>11.2</ele>
        <time>2025-06-30T19:22:10Z</time>
      </trkpt>
      <trkpt lat="46.17153" lon="-1.36781">
        <ele>11.2</ele>
        <time>2025-06-30T19:22:11Z</time>
      </trkpt>
      <trkpt lat="46.17147" lon="-1.36793">
        <ele>11.4</ele>
        <time>2025-06-30T19:22:18Z</time>
      </trkpt>
      <trkpt lat="46.17143" lon="-1.36799">
        <ele>11.4</ele>
        <time>2025-06-30T19:22:22Z</time>
      </trkpt>
      <trkpt lat="46.1714" lon="-1.36804">
        <ele>11.4</ele>
        <time>2025-06-30T19:22:25Z</time>
      </trkpt>
      <trkpt lat="46.17131" lon="-1.36814">
        <ele>11.4</ele>
        <time>2025-06-30T19:22:33Z</time>
      </trkpt>
      <trkpt lat="46.17121" lon="-1.36823">
        <ele>11.4</ele>
        <time>2025-06-30T19:22:41Z</time>
      </trkpt>
      <trkpt lat="46.17112" lon="-1.3683">
        <ele>11.2</ele>
        <time>2025-06-30T19:22:48Z</time>
      </trkpt>
      <trkpt lat="46.17105" lon="-1.36835">
        <ele>10.8</ele>
        <time>2025-06-30T19:22:53Z</time>
      </trkpt>
      <trkpt lat="46.17104" lon="-1.36836">
        <ele>10.8</ele>
        <time>2025-06-30T19:22:54Z</time>
      </trkpt>
      <trkpt lat="46.17095" lon="-1.36844">
        <ele>10.6</ele>
        <time>2025-06-30T19:23:01Z</time>
      </trkpt>
      <trkpt lat="46.17085" lon="-1.36855">
        <ele>10.6</ele>
        <time>2025-06-30T19:23:10Z</time>
      </trkpt>
      <trkpt lat="46.17083" lon="-1.36859">
        <ele>10.4</ele>
        <time>2025-06-30T19:23:13Z</time>
      </trkpt>
      <trkpt lat="46.17078" lon="-1.36863">
        <ele>10.4</ele>
        <time>2025-06-30T19:23:17Z</time>
      </trkpt>
      <trkpt lat="46.17074" lon="-1.36868">
        <ele>10.4</ele>
        <time>2025-06-30T19:23:21Z</time>
      </trkpt>
      <trkpt lat="46.17073" lon="-1.36869">
        <ele>10.2</ele>
        <time>2025-06-30T19:23:22Z</time>
      </trkpt>
      <trkpt lat="46.17066" lon="-1.36875">
        <ele>10</ele>
        <time>2025-06-30T19:23:29Z</time>
      </trkpt>
      <trkpt lat="46.17065" lon="-1.36876">
        <ele>10</ele>
        <time>2025-06-30T19:23:30Z</time>
      </trkpt>
      <trkpt lat="46.17064" lon="-1.36877">
        <ele>9.8</ele>
        <time>2025-06-30T19:23:31Z</time>
      </trkpt>
      <trkpt lat="46.17061" lon="-1.3688">
        <ele>9.8</ele>
        <time>2025-06-30T19:23:34Z</time>
      </trkpt>
      <trkpt lat="46.17061" lon="-1.36882">
        <ele>9.8</ele>
        <time>2025-06-30T19:23:35Z</time>
      </trkpt>
      <trkpt lat="46.17061" lon="-1.36883">
        <ele>9.8</ele>
        <time>2025-06-30T19:23:36Z</time>
      </trkpt>
      <trkpt lat="46.17053" lon="-1.36891">
        <ele>9.6</ele>
        <time>2025-06-30T19:23:41Z</time>
      </trkpt>
      <trkpt lat="46.17048" lon="-1.36892">
        <ele>9.6</ele>
        <time>2025-06-30T19:23:45Z</time>
      </trkpt>
      <trkpt lat="46.17047" lon="-1.36893">
        <ele>9.6</ele>
        <time>2025-06-30T19:23:46Z</time>
      </trkpt>
      <trkpt lat="46.17046" lon="-1.36896">
        <ele>9.6</ele>
        <time>2025-06-30T19:23:48Z</time>
      </trkpt>
      <trkpt lat="46.17045" lon="-1.369">
        <ele>9.6</ele>
        <time>2025-06-30T19:23:50Z</time>
      </trkpt>
      <trkpt lat="46.17044" lon="-1.36902">
        <ele>9.4</ele>
        <time>2025-06-30T19:23:51Z</time>
      </trkpt>
      <trkpt lat="46.17037" lon="-1.36907">
        <ele>9.4</ele>
        <time>2025-06-30T19:23:56Z</time>
      </trkpt>
      <trkpt lat="46.17028" lon="-1.3691">
        <ele>9.6</ele>
        <time>2025-06-30T19:24:02Z</time>
      </trkpt>
      <trkpt lat="46.17025" lon="-1.36911">
        <ele>9.6</ele>
        <time>2025-06-30T19:24:04Z</time>
      </trkpt>
      <trkpt lat="46.17016" lon="-1.36914">
        <ele>9.4</ele>
        <time>2025-06-30T19:24:11Z</time>
      </trkpt>
      <trkpt lat="46.17009" lon="-1.36919">
        <ele>9.4</ele>
        <time>2025-06-30T19:24:17Z</time>
      </trkpt>
      <trkpt lat="46.17007" lon="-1.36921">
        <ele>9.4</ele>
        <time>2025-06-30T19:24:18Z</time>
      </trkpt>
      <trkpt lat="46.17002" lon="-1.36924">
        <ele>9.4</ele>
        <time>2025-06-30T19:24:23Z</time>
      </trkpt>
      <trkpt lat="46.16998" lon="-1.36923">
        <ele>9.6</ele>
        <time>2025-06-30T19:24:25Z</time>
      </trkpt>
      <trkpt lat="46.16988" lon="-1.36924">
        <ele>9.8</ele>
        <time>2025-06-30T19:24:32Z</time>
      </trkpt>
      <trkpt lat="46.16986" lon="-1.36926">
        <ele>9.8</ele>
        <time>2025-06-30T19:24:34Z</time>
      </trkpt>
      <trkpt lat="46.16981" lon="-1.36929">
        <ele>9.8</ele>
        <time>2025-06-30T19:24:38Z</time>
      </trkpt>
      <trkpt lat="46.16971" lon="-1.36932">
        <ele>10</ele>
        <time>2025-06-30T19:24:45Z</time>
      </trkpt>
      <trkpt lat="46.1697" lon="-1.36932">
        <ele>10</ele>
        <time>2025-06-30T19:24:46Z</time>
      </trkpt>
      <trkpt lat="46.16965" lon="-1.36932">
        <ele>10</ele>
        <time>2025-06-30T19:24:49Z</time>
      </trkpt>
      <trkpt lat="46.16961" lon="-1.36934">
        <ele>10.2</ele>
        <time>2025-06-30T19:24:52Z</time>
      </trkpt>
      <trkpt lat="46.16952" lon="-1.36932">
        <ele>10</ele>
        <time>2025-06-30T19:24:57Z</time>
      </trkpt>
      <trkpt lat="46.16945" lon="-1.36932">
        <ele>10</ele>
        <time>2025-06-30T19:25:02Z</time>
      </trkpt>
      <trkpt lat="46.16938" lon="-1.36934">
        <ele>9.8</ele>
        <time>2025-06-30T19:25:08Z</time>
      </trkpt>
      <trkpt lat="46.16937" lon="-1.36934">
        <ele>10</ele>
        <time>2025-06-30T19:25:09Z</time>
      </trkpt>
      <trkpt lat="46.16934" lon="-1.36937">
        <ele>10</ele>
        <time>2025-06-30T19:25:13Z</time>
      </trkpt>
      <trkpt lat="46.16933" lon="-1.36938">
        <ele>10</ele>
        <time>2025-06-30T19:25:15Z</time>
      </trkpt>
      <trkpt lat="46.16931" lon="-1.3694">
        <ele>10.4</ele>
        <time>2025-06-30T19:25:17Z</time>
      </trkpt>
      <trkpt lat="46.16926" lon="-1.36939">
        <ele>10.6</ele>
        <time>2025-06-30T19:25:21Z</time>
      </trkpt>
      <trkpt lat="46.1692" lon="-1.3694">
        <ele>11</ele>
        <time>2025-06-30T19:25:26Z</time>
      </trkpt>
      <trkpt lat="46.16918" lon="-1.3694">
        <ele>11.2</ele>
        <time>2025-06-30T19:25:28Z</time>
      </trkpt>
      <trkpt lat="46.16917" lon="-1.3694">
        <ele>11.4</ele>
        <time>2025-06-30T19:25:29Z</time>
      </trkpt>
      <trkpt lat="46.16916" lon="-1.36939">
        <ele>11.4</ele>
        <time>2025-06-30T19:25:30Z</time>
      </trkpt>
      <trkpt lat="46.16915" lon="-1.36938">
        <ele>11.4</ele>
        <time>2025-06-30T19:25:31Z</time>
      </trkpt>
      <trkpt lat="46.16909" lon="-1.36937">
        <ele>11.8</ele>
        <time>2025-06-30T19:25:36Z</time>
      </trkpt>
      <trkpt lat="46.16902" lon="-1.36934">
        <ele>12.2</ele>
        <time>2025-06-30T19:25:41Z</time>
      </trkpt>
      <trkpt lat="46.16898" lon="-1.3693">
        <ele>12.4</ele>
        <time>2025-06-30T19:25:45Z</time>
      </trkpt>
      <trkpt lat="46.16896" lon="-1.36927">
        <ele>12.2</ele>
        <time>2025-06-30T19:25:47Z</time>
      </trkpt>
      <trkpt lat="46.16894" lon="-1.36924">
        <ele>12.2</ele>
        <time>2025-06-30T19:25:49Z</time>
      </trkpt>
      <trkpt lat="46.16892" lon="-1.36923">
        <ele>12.2</ele>
        <time>2025-06-30T19:25:50Z</time>
      </trkpt>
      <trkpt lat="46.16878" lon="-1.36917">
        <ele>11.8</ele>
        <time>2025-06-30T19:25:59Z</time>
      </trkpt>
      <trkpt lat="46.16866" lon="-1.36912">
        <ele>11.8</ele>
        <time>2025-06-30T19:26:08Z</time>
      </trkpt>
      <trkpt lat="46.16861" lon="-1.36908">
        <ele>11.8</ele>
        <time>2025-06-30T19:26:13Z</time>
      </trkpt>
      <trkpt lat="46.16855" lon="-1.36905">
        <ele>11.8</ele>
        <time>2025-06-30T19:26:17Z</time>
      </trkpt>
      <trkpt lat="46.16851" lon="-1.36903">
        <ele>12</ele>
        <time>2025-06-30T19:26:20Z</time>
      </trkpt>
      <trkpt lat="46.16848" lon="-1.36901">
        <ele>12</ele>
        <time>2025-06-30T19:26:22Z</time>
      </trkpt>
      <trkpt lat="46.16845" lon="-1.369">
        <ele>12</ele>
        <time>2025-06-30T19:26:24Z</time>
      </trkpt>
      <trkpt lat="46.16842" lon="-1.36898">
        <ele>12</ele>
        <time>2025-06-30T19:26:27Z</time>
      </trkpt>
      <trkpt lat="46.16832" lon="-1.36893">
        <ele>12.4</ele>
        <time>2025-06-30T19:26:36Z</time>
      </trkpt>
      <trkpt lat="46.1682" lon="-1.36886">
        <ele>12.4</ele>
        <time>2025-06-30T19:26:46Z</time>
      </trkpt>
      <trkpt lat="46.16808" lon="-1.36881">
        <ele>12.4</ele>
        <time>2025-06-30T19:26:56Z</time>
      </trkpt>
      <trkpt lat="46.16795" lon="-1.36875">
        <ele>12.4</ele>
        <time>2025-06-30T19:27:06Z</time>
      </trkpt>
      <trkpt lat="46.16787" lon="-1.3687">
        <ele>13</ele>
        <time>2025-06-30T19:27:14Z</time>
      </trkpt>
      <trkpt lat="46.16786" lon="-1.36869">
        <ele>13</ele>
        <time>2025-06-30T19:27:15Z</time>
      </trkpt>
      <trkpt lat="46.16786" lon="-1.36866">
        <ele>13.2</ele>
        <time>2025-06-30T19:27:17Z</time>
      </trkpt>
      <trkpt lat="46.16779" lon="-1.36861">
        <ele>14</ele>
        <time>2025-06-30T19:27:24Z</time>
      </trkpt>
      <trkpt lat="46.16777" lon="-1.36859">
        <ele>14.2</ele>
        <time>2025-06-30T19:27:26Z</time>
      </trkpt>
      <trkpt lat="46.16775" lon="-1.3686">
        <ele>14.2</ele>
        <time>2025-06-30T19:27:28Z</time>
      </trkpt>
      <trkpt lat="46.16772" lon="-1.36862">
        <ele>14.6</ele>
        <time>2025-06-30T19:27:31Z</time>
      </trkpt>
      <trkpt lat="46.16771" lon="-1.36863">
        <ele>14.8</ele>
        <time>2025-06-30T19:27:32Z</time>
      </trkpt>
      <trkpt lat="46.16769" lon="-1.36865">
        <ele>15</ele>
        <time>2025-06-30T19:27:34Z</time>
      </trkpt>
      <trkpt lat="46.16768" lon="-1.36865">
        <ele>15</ele>
        <time>2025-06-30T19:27:36Z</time>
      </trkpt>
      <trkpt lat="46.16768" lon="-1.36866">
        <ele>15.2</ele>
        <time>2025-06-30T19:27:37Z</time>
      </trkpt>
      <trkpt lat="46.16765" lon="-1.36872">
        <ele>15.4</ele>
        <time>2025-06-30T19:27:41Z</time>
      </trkpt>
      <trkpt lat="46.16763" lon="-1.36873">
        <ele>15.8</ele>
        <time>2025-06-30T19:27:44Z</time>
      </trkpt>
      <trkpt lat="46.1676" lon="-1.36874">
        <ele>16.4</ele>
        <time>2025-06-30T19:27:47Z</time>
      </trkpt>
      <trkpt lat="46.1676" lon="-1.36874">
        <ele>16.4</ele>
        <time>2025-06-30T19:27:48Z</time>
      </trkpt>
      <trkpt lat="46.16758" lon="-1.36873">
        <ele>16.8</ele>
        <time>2025-06-30T19:27:51Z</time>
      </trkpt>
      <trkpt lat="46.16757" lon="-1.36873">
        <ele>16.8</ele>
        <time>2025-06-30T19:27:52Z</time>
      </trkpt>
      <trkpt lat="46.16753" lon="-1.36876">
        <ele>17</ele>
        <time>2025-06-30T19:27:57Z</time>
      </trkpt>
      <trkpt lat="46.16748" lon="-1.36876">
        <ele>17.6</ele>
        <time>2025-06-30T19:28:03Z</time>
      </trkpt>
      <trkpt lat="46.16744" lon="-1.36876">
        <ele>17.8</ele>
        <time>2025-06-30T19:28:06Z</time>
      </trkpt>
      <trkpt lat="46.1674" lon="-1.36875">
        <ele>17.8</ele>
        <time>2025-06-30T19:28:10Z</time>
      </trkpt>
      <trkpt lat="46.16734" lon="-1.3687">
        <ele>17.6</ele>
        <time>2025-06-30T19:28:16Z</time>
      </trkpt>
      <trkpt lat="46.16728" lon="-1.36865">
        <ele>17.6</ele>
        <time>2025-06-30T19:28:23Z</time>
      </trkpt>
      <trkpt lat="46.16727" lon="-1.36865">
        <ele>17.6</ele>
        <time>2025-06-30T19:28:24Z</time>
      </trkpt>
      <trkpt lat="46.16727" lon="-1.36867">
        <ele>17.6</ele>
        <time>2025-06-30T19:28:25Z</time>
      </trkpt>
      <trkpt lat="46.16729" lon="-1.36874">
        <ele>17.8</ele>
        <time>2025-06-30T19:28:29Z</time>
      </trkpt>
      <trkpt lat="46.16734" lon="-1.36885">
        <ele>18</ele>
        <time>2025-06-30T19:28:37Z</time>
      </trkpt>
      <trkpt lat="46.16735" lon="-1.36888">
        <ele>18.2</ele>
        <time>2025-06-30T19:28:39Z</time>
      </trkpt>
      <trkpt lat="46.16742" lon="-1.36901">
        <ele>18.2</ele>
        <time>2025-06-30T19:28:48Z</time>
      </trkpt>
      <trkpt lat="46.16748" lon="-1.36912">
        <ele>18.6</ele>
        <time>2025-06-30T19:28:56Z</time>
      </trkpt>
      <trkpt lat="46.16749" lon="-1.36915">
        <ele>18.6</ele>
        <time>2025-06-30T19:28:58Z</time>
      </trkpt>
      <trkpt lat="46.16756" lon="-1.3693">
        <ele>18.6</ele>
        <time>2025-06-30T19:29:09Z</time>
      </trkpt>
      <trkpt lat="46.1676" lon="-1.3694">
        <ele>19</ele>
        <time>2025-06-30T19:29:16Z</time>
      </trkpt>
      <trkpt lat="46.16761" lon="-1.36942">
        <ele>19.2</ele>
        <time>2025-06-30T19:29:18Z</time>
      </trkpt>
      <trkpt lat="46.16764" lon="-1.36949">
        <ele>19.4</ele>
        <time>2025-06-30T19:29:23Z</time>
      </trkpt>
      <trkpt lat="46.16765" lon="-1.36951">
        <ele>19.4</ele>
        <time>2025-06-30T19:29:25Z</time>
      </trkpt>
      <trkpt lat="46.16767" lon="-1.36954">
        <ele>19.6</ele>
        <time>2025-06-30T19:29:27Z</time>
      </trkpt>
      <trkpt lat="46.16768" lon="-1.36955">
        <ele>19.6</ele>
        <time>2025-06-30T19:29:28Z</time>
      </trkpt>
      <trkpt lat="46.16775" lon="-1.36971">
        <ele>19.6</ele>
        <time>2025-06-30T19:29:38Z</time>
      </trkpt>
      <trkpt lat="46.16778" lon="-1.36985">
        <ele>18.8</ele>
        <time>2025-06-30T19:29:46Z</time>
      </trkpt>
      <trkpt lat="46.16779" lon="-1.36986">
        <ele>18.6</ele>
        <time>2025-06-30T19:29:47Z</time>
      </trkpt>
      <trkpt lat="46.16779" lon="-1.36988">
        <ele>18.4</ele>
        <time>2025-06-30T19:29:48Z</time>
      </trkpt>
      <trkpt lat="46.16783" lon="-1.36997">
        <ele>17.8</ele>
        <time>2025-06-30T19:29:54Z</time>
      </trkpt>
      <trkpt lat="46.16784" lon="-1.37">
        <ele>17.8</ele>
        <time>2025-06-30T19:29:56Z</time>
      </trkpt>
      <trkpt lat="46.16785" lon="-1.37002">
        <ele>17.6</ele>
        <time>2025-06-30T19:29:57Z</time>
      </trkpt>
      <trkpt lat="46.16785" lon="-1.37003">
        <ele>17.4</ele>
        <time>2025-06-30T19:29:58Z</time>
      </trkpt>
      <trkpt lat="46.16786" lon="-1.37005">
        <ele>17.4</ele>
        <time>2025-06-30T19:29:59Z</time>
      </trkpt>
      <trkpt lat="46.1679" lon="-1.37016">
        <ele>17.2</ele>
        <time>2025-06-30T19:30:06Z</time>
      </trkpt>
      <trkpt lat="46.16794" lon="-1.37028">
        <ele>16.6</ele>
        <time>2025-06-30T19:30:14Z</time>
      </trkpt>
      <trkpt lat="46.16795" lon="-1.3703">
        <ele>16.6</ele>
        <time>2025-06-30T19:30:16Z</time>
      </trkpt>
      <trkpt lat="46.16797" lon="-1.37039">
        <ele>16.2</ele>
        <time>2025-06-30T19:30:21Z</time>
      </trkpt>
      <trkpt lat="46.16802" lon="-1.37055">
        <ele>15.4</ele>
        <time>2025-06-30T19:30:31Z</time>
      </trkpt>
      <trkpt lat="46.16803" lon="-1.37057">
        <ele>15.4</ele>
        <time>2025-06-30T19:30:32Z</time>
      </trkpt>
      <trkpt lat="46.16808" lon="-1.37073">
        <ele>15</ele>
        <time>2025-06-30T19:30:43Z</time>
      </trkpt>
      <trkpt lat="46.16812" lon="-1.37087">
        <ele>14.4</ele>
        <time>2025-06-30T19:30:51Z</time>
      </trkpt>
      <trkpt lat="46.16814" lon="-1.37089">
        <ele>14</ele>
        <time>2025-06-30T19:30:53Z</time>
      </trkpt>
      <trkpt lat="46.16818" lon="-1.371">
        <ele>14</ele>
        <time>2025-06-30T19:31:01Z</time>
      </trkpt>
      <trkpt lat="46.1682" lon="-1.37105">
        <ele>14</ele>
        <time>2025-06-30T19:31:05Z</time>
      </trkpt>
      <trkpt lat="46.16822" lon="-1.37107">
        <ele>14.2</ele>
        <time>2025-06-30T19:31:08Z</time>
      </trkpt>
      <trkpt lat="46.16824" lon="-1.3711">
        <ele>14.4</ele>
        <time>2025-06-30T19:31:11Z</time>
      </trkpt>
      <trkpt lat="46.16827" lon="-1.37117">
        <ele>14.8</ele>
        <time>2025-06-30T19:31:17Z</time>
      </trkpt>
      <trkpt lat="46.16831" lon="-1.37128">
        <ele>14.4</ele>
        <time>2025-06-30T19:31:24Z</time>
      </trkpt>
      <trkpt lat="46.16836" lon="-1.37139">
        <ele>14.4</ele>
        <time>2025-06-30T19:31:33Z</time>
      </trkpt>
      <trkpt lat="46.16841" lon="-1.37149">
        <ele>14.8</ele>
        <time>2025-06-30T19:31:43Z</time>
      </trkpt>
      <trkpt lat="46.16843" lon="-1.37157">
        <ele>15.6</ele>
        <time>2025-06-30T19:31:49Z</time>
      </trkpt>
      <trkpt lat="46.16845" lon="-1.37162">
        <ele>15.8</ele>
        <time>2025-06-30T19:31:52Z</time>
      </trkpt>
      <trkpt lat="46.16848" lon="-1.3717">
        <ele>16.6</ele>
        <time>2025-06-30T19:31:59Z</time>
      </trkpt>
      <trkpt lat="46.16848" lon="-1.3717">
        <ele>16.6</ele>
        <time>2025-06-30T19:32:00Z</time>
      </trkpt>
      <trkpt lat="46.16851" lon="-1.37176">
        <ele>17.4</ele>
        <time>2025-06-30T19:32:06Z</time>
      </trkpt>
      <trkpt lat="46.16853" lon="-1.37182">
        <ele>17.4</ele>
        <time>2025-06-30T19:32:10Z</time>
      </trkpt>
      <trkpt lat="46.16854" lon="-1.37186">
        <ele>17.8</ele>
        <time>2025-06-30T19:32:13Z</time>
      </trkpt>
      <trkpt lat="46.16857" lon="-1.37192">
        <ele>18</ele>
        <time>2025-06-30T19:32:17Z</time>
      </trkpt>
      <trkpt lat="46.1686" lon="-1.37206">
        <ele>18</ele>
        <time>2025-06-30T19:32:26Z</time>
      </trkpt>
      <trkpt lat="46.1686" lon="-1.37214">
        <ele>18</ele>
        <time>2025-06-30T19:32:31Z</time>
      </trkpt>
      <trkpt lat="46.16862" lon="-1.3722">
        <ele>18.6</ele>
        <time>2025-06-30T19:32:36Z</time>
      </trkpt>
      <trkpt lat="46.16863" lon="-1.37227">
        <ele>18.8</ele>
        <time>2025-06-30T19:32:40Z</time>
      </trkpt>
      <trkpt lat="46.16864" lon="-1.37232">
        <ele>18.8</ele>
        <time>2025-06-30T19:32:43Z</time>
      </trkpt>
      <trkpt lat="46.16865" lon="-1.37242">
        <ele>19</ele>
        <time>2025-06-30T19:32:51Z</time>
      </trkpt>
      <trkpt lat="46.16868" lon="-1.37247">
        <ele>19</ele>
        <time>2025-06-30T19:32:56Z</time>
      </trkpt>
      <trkpt lat="46.16868" lon="-1.3725">
        <ele>19</ele>
        <time>2025-06-30T19:32:58Z</time>
      </trkpt>
      <trkpt lat="46.16869" lon="-1.37259">
        <ele>19</ele>
        <time>2025-06-30T19:33:03Z</time>
      </trkpt>
      <trkpt lat="46.1687" lon="-1.37263">
        <ele>19.2</ele>
        <time>2025-06-30T19:33:05Z</time>
      </trkpt>
      <trkpt lat="46.16875" lon="-1.37279">
        <ele>19</ele>
        <time>2025-06-30T19:33:15Z</time>
      </trkpt>
      <trkpt lat="46.16879" lon="-1.37295">
        <ele>19</ele>
        <time>2025-06-30T19:33:26Z</time>
      </trkpt>
      <trkpt lat="46.16879" lon="-1.37298">
        <ele>19</ele>
        <time>2025-06-30T19:33:28Z</time>
      </trkpt>
      <trkpt lat="46.16882" lon="-1.37308">
        <ele>19</ele>
        <time>2025-06-30T19:33:34Z</time>
      </trkpt>
      <trkpt lat="46.16884" lon="-1.37313">
        <ele>18.8</ele>
        <time>2025-06-30T19:33:38Z</time>
      </trkpt>
      <trkpt lat="46.16886" lon="-1.37314">
        <ele>18.8</ele>
        <time>2025-06-30T19:33:40Z</time>
      </trkpt>
      <trkpt lat="46.16887" lon="-1.37314">
        <ele>18.8</ele>
        <time>2025-06-30T19:33:41Z</time>
      </trkpt>
      <trkpt lat="46.16887" lon="-1.37312">
        <ele>18.2</ele>
        <time>2025-06-30T19:33:44Z</time>
      </trkpt>
      <trkpt lat="46.16889" lon="-1.37311">
        <ele>17.6</ele>
        <time>2025-06-30T19:33:47Z</time>
      </trkpt>
      <trkpt lat="46.16891" lon="-1.37311">
        <ele>17.2</ele>
        <time>2025-06-30T19:33:49Z</time>
      </trkpt>
      <trkpt lat="46.16897" lon="-1.37315">
        <ele>16.4</ele>
        <time>2025-06-30T19:33:55Z</time>
      </trkpt>
      <trkpt lat="46.16898" lon="-1.37317">
        <ele>16.4</ele>
        <time>2025-06-30T19:33:56Z</time>
      </trkpt>
      <trkpt lat="46.16903" lon="-1.37332">
        <ele>16.6</ele>
        <time>2025-06-30T19:34:05Z</time>
      </trkpt>
      <trkpt lat="46.16909" lon="-1.37352">
        <ele>16.4</ele>
        <time>2025-06-30T19:34:16Z</time>
      </trkpt>
      <trkpt lat="46.16913" lon="-1.37366">
        <ele>16.6</ele>
        <time>2025-06-30T19:34:25Z</time>
      </trkpt>
      <trkpt lat="46.16915" lon="-1.37374">
        <ele>16.6</ele>
        <time>2025-06-30T19:34:30Z</time>
      </trkpt>
      <trkpt lat="46.16916" lon="-1.37376">
        <ele>16.4</ele>
        <time>2025-06-30T19:34:31Z</time>
      </trkpt>
      <trkpt lat="46.16923" lon="-1.37383">
        <ele>15.8</ele>
        <time>2025-06-30T19:34:38Z</time>
      </trkpt>
      <trkpt lat="46.16927" lon="-1.37384">
        <ele>15.4</ele>
        <time>2025-06-30T19:34:41Z</time>
      </trkpt>
      <trkpt lat="46.16931" lon="-1.37387">
        <ele>15.2</ele>
        <time>2025-06-30T19:34:44Z</time>
      </trkpt>
      <trkpt lat="46.16933" lon="-1.3739">
        <ele>15</ele>
        <time>2025-06-30T19:34:47Z</time>
      </trkpt>
      <trkpt lat="46.16936" lon="-1.37398">
        <ele>14.2</ele>
        <time>2025-06-30T19:34:52Z</time>
      </trkpt>
      <trkpt lat="46.16936" lon="-1.374">
        <ele>14</ele>
        <time>2025-06-30T19:34:53Z</time>
      </trkpt>
      <trkpt lat="46.16935" lon="-1.37403">
        <ele>13.6</ele>
        <time>2025-06-30T19:34:55Z</time>
      </trkpt>
      <trkpt lat="46.16934" lon="-1.37405">
        <ele>13.6</ele>
        <time>2025-06-30T19:34:56Z</time>
      </trkpt>
      <trkpt lat="46.16932" lon="-1.37411">
        <ele>13.4</ele>
        <time>2025-06-30T19:35:02Z</time>
      </trkpt>
      <trkpt lat="46.16932" lon="-1.37412">
        <ele>13.2</ele>
        <time>2025-06-30T19:35:03Z</time>
      </trkpt>
      <trkpt lat="46.16933" lon="-1.37413">
        <ele>13.2</ele>
        <time>2025-06-30T19:35:04Z</time>
      </trkpt>
      <trkpt lat="46.16934" lon="-1.37418">
        <ele>13</ele>
        <time>2025-06-30T19:35:08Z</time>
      </trkpt>
      <trkpt lat="46.16937" lon="-1.37439">
        <ele>13</ele>
        <time>2025-06-30T19:35:19Z</time>
      </trkpt>
      <trkpt lat="46.16942" lon="-1.37456">
        <ele>13.4</ele>
        <time>2025-06-30T19:35:29Z</time>
      </trkpt>
      <trkpt lat="46.16944" lon="-1.37463">
        <ele>13.6</ele>
        <time>2025-06-30T19:35:33Z</time>
      </trkpt>
      <trkpt lat="46.16947" lon="-1.3747">
        <ele>13.8</ele>
        <time>2025-06-30T19:35:38Z</time>
      </trkpt>
      <trkpt lat="46.16949" lon="-1.37472">
        <ele>13.8</ele>
        <time>2025-06-30T19:35:40Z</time>
      </trkpt>
      <trkpt lat="46.16951" lon="-1.37478">
        <ele>14</ele>
        <time>2025-06-30T19:35:44Z</time>
      </trkpt>
      <trkpt lat="46.16955" lon="-1.3749">
        <ele>14</ele>
        <time>2025-06-30T19:35:51Z</time>
      </trkpt>
      <trkpt lat="46.16959" lon="-1.37502">
        <ele>12.8</ele>
        <time>2025-06-30T19:35:58Z</time>
      </trkpt>
      <trkpt lat="46.1696" lon="-1.37506">
        <ele>12.6</ele>
        <time>2025-06-30T19:36:00Z</time>
      </trkpt>
      <trkpt lat="46.16964" lon="-1.37517">
        <ele>12.2</ele>
        <time>2025-06-30T19:36:06Z</time>
      </trkpt>
      <trkpt lat="46.16967" lon="-1.37521">
        <ele>12.2</ele>
        <time>2025-06-30T19:36:09Z</time>
      </trkpt>
      <trkpt lat="46.16968" lon="-1.37523">
        <ele>12.2</ele>
        <time>2025-06-30T19:36:11Z</time>
      </trkpt>
      <trkpt lat="46.16977" lon="-1.37532">
        <ele>12.8</ele>
        <time>2025-06-30T19:36:19Z</time>
      </trkpt>
      <trkpt lat="46.16981" lon="-1.37542">
        <ele>13.2</ele>
        <time>2025-06-30T19:36:25Z</time>
      </trkpt>
      <trkpt lat="46.16983" lon="-1.37547">
        <ele>13.2</ele>
        <time>2025-06-30T19:36:28Z</time>
      </trkpt>
      <trkpt lat="46.16988" lon="-1.37563">
        <ele>13.4</ele>
        <time>2025-06-30T19:36:37Z</time>
      </trkpt>
      <trkpt lat="46.1699" lon="-1.37572">
        <ele>13.6</ele>
        <time>2025-06-30T19:36:42Z</time>
      </trkpt>
      <trkpt lat="46.16992" lon="-1.37574">
        <ele>13.6</ele>
        <time>2025-06-30T19:36:43Z</time>
      </trkpt>
      <trkpt lat="46.16994" lon="-1.37577">
        <ele>13.6</ele>
        <time>2025-06-30T19:36:45Z</time>
      </trkpt>
      <trkpt lat="46.17" lon="-1.3759">
        <ele>13.8</ele>
        <time>2025-06-30T19:36:53Z</time>
      </trkpt>
      <trkpt lat="46.17001" lon="-1.37596">
        <ele>13.6</ele>
        <time>2025-06-30T19:36:56Z</time>
      </trkpt>
      <trkpt lat="46.17004" lon="-1.37605">
        <ele>13.8</ele>
        <time>2025-06-30T19:37:01Z</time>
      </trkpt>
      <trkpt lat="46.17009" lon="-1.37624">
        <ele>14</ele>
        <time>2025-06-30T19:37:12Z</time>
      </trkpt>
      <trkpt lat="46.1701" lon="-1.37626">
        <ele>14.2</ele>
        <time>2025-06-30T19:37:13Z</time>
      </trkpt>
      <trkpt lat="46.17012" lon="-1.37636">
        <ele>14.2</ele>
        <time>2025-06-30T19:37:18Z</time>
      </trkpt>
      <trkpt lat="46.17015" lon="-1.37643">
        <ele>14.2</ele>
        <time>2025-06-30T19:37:23Z</time>
      </trkpt>
      <trkpt lat="46.17022" lon="-1.37656">
        <ele>14.6</ele>
        <time>2025-06-30T19:37:32Z</time>
      </trkpt>
      <trkpt lat="46.17027" lon="-1.37666">
        <ele>15.4</ele>
        <time>2025-06-30T19:37:39Z</time>
      </trkpt>
      <trkpt lat="46.17028" lon="-1.37669">
        <ele>15.4</ele>
        <time>2025-06-30T19:37:41Z</time>
      </trkpt>
      <trkpt lat="46.17036" lon="-1.37681">
        <ele>15.2</ele>
        <time>2025-06-30T19:37:50Z</time>
      </trkpt>
      <trkpt lat="46.17038" lon="-1.37692">
        <ele>15.4</ele>
        <time>2025-06-30T19:37:57Z</time>
      </trkpt>
      <trkpt lat="46.17042" lon="-1.37709">
        <ele>15.4</ele>
        <time>2025-06-30T19:38:06Z</time>
      </trkpt>
      <trkpt lat="46.17046" lon="-1.37719">
        <ele>15.2</ele>
        <time>2025-06-30T19:38:13Z</time>
      </trkpt>
      <trkpt lat="46.17049" lon="-1.37728">
        <ele>15.2</ele>
        <time>2025-06-30T19:38:18Z</time>
      </trkpt>
      <trkpt lat="46.17052" lon="-1.37731">
        <ele>14.8</ele>
        <time>2025-06-30T19:38:21Z</time>
      </trkpt>
      <trkpt lat="46.17053" lon="-1.37735">
        <ele>14.2</ele>
        <time>2025-06-30T19:38:24Z</time>
      </trkpt>
      <trkpt lat="46.17055" lon="-1.37737">
        <ele>14</ele>
        <time>2025-06-30T19:38:26Z</time>
      </trkpt>
      <trkpt lat="46.17058" lon="-1.37741">
        <ele>13</ele>
        <time>2025-06-30T19:38:30Z</time>
      </trkpt>
      <trkpt lat="46.17063" lon="-1.37742">
        <ele>12.4</ele>
        <time>2025-06-30T19:38:33Z</time>
      </trkpt>
      <trkpt lat="46.17068" lon="-1.37745">
        <ele>11.8</ele>
        <time>2025-06-30T19:38:37Z</time>
      </trkpt>
      <trkpt lat="46.17072" lon="-1.37749">
        <ele>10.6</ele>
        <time>2025-06-30T19:38:41Z</time>
      </trkpt>
      <trkpt lat="46.17073" lon="-1.37751">
        <ele>10.4</ele>
        <time>2025-06-30T19:38:43Z</time>
      </trkpt>
      <trkpt lat="46.17076" lon="-1.37754">
        <ele>10.2</ele>
        <time>2025-06-30T19:38:46Z</time>
      </trkpt>
      <trkpt lat="46.1708" lon="-1.37759">
        <ele>9.6</ele>
        <time>2025-06-30T19:38:50Z</time>
      </trkpt>
      <trkpt lat="46.17083" lon="-1.37767">
        <ele>9.6</ele>
        <time>2025-06-30T19:38:56Z</time>
      </trkpt>
      <trkpt lat="46.17087" lon="-1.37779">
        <ele>9.8</ele>
        <time>2025-06-30T19:39:03Z</time>
      </trkpt>
      <trkpt lat="46.17088" lon="-1.37781">
        <ele>10</ele>
        <time>2025-06-30T19:39:05Z</time>
      </trkpt>
      <trkpt lat="46.1709" lon="-1.37784">
        <ele>10</ele>
        <time>2025-06-30T19:39:08Z</time>
      </trkpt>
      <trkpt lat="46.17093" lon="-1.37789">
        <ele>9.8</ele>
        <time>2025-06-30T19:39:12Z</time>
      </trkpt>
      <trkpt lat="46.17099" lon="-1.37796">
        <ele>9.6</ele>
        <time>2025-06-30T19:39:18Z</time>
      </trkpt>
      <trkpt lat="46.171" lon="-1.37797">
        <ele>9.6</ele>
        <time>2025-06-30T19:39:20Z</time>
      </trkpt>
      <trkpt lat="46.17101" lon="-1.37797">
        <ele>9.4</ele>
        <time>2025-06-30T19:39:21Z</time>
      </trkpt>
      <trkpt lat="46.17103" lon="-1.37797">
        <ele>9.4</ele>
        <time>2025-06-30T19:39:22Z</time>
      </trkpt>
      <trkpt lat="46.17111" lon="-1.37802">
        <ele>10</ele>
        <time>2025-06-30T19:39:30Z</time>
      </trkpt>
      <trkpt lat="46.17115" lon="-1.37809">
        <ele>10.6</ele>
        <time>2025-06-30T19:39:36Z</time>
      </trkpt>
      <trkpt lat="46.17116" lon="-1.3781">
        <ele>10.8</ele>
        <time>2025-06-30T19:39:37Z</time>
      </trkpt>
      <trkpt lat="46.17119" lon="-1.37813">
        <ele>11.2</ele>
        <time>2025-06-30T19:39:40Z</time>
      </trkpt>
      <trkpt lat="46.17123" lon="-1.37818">
        <ele>11.6</ele>
        <time>2025-06-30T19:39:45Z</time>
      </trkpt>
      <trkpt lat="46.17126" lon="-1.3782">
        <ele>11.8</ele>
        <time>2025-06-30T19:39:48Z</time>
      </trkpt>
      <trkpt lat="46.17132" lon="-1.37822">
        <ele>12.2</ele>
        <time>2025-06-30T19:39:54Z</time>
      </trkpt>
      <trkpt lat="46.17134" lon="-1.37823">
        <ele>12</ele>
        <time>2025-06-30T19:39:56Z</time>
      </trkpt>
      <trkpt lat="46.17135" lon="-1.37827">
        <ele>11.8</ele>
        <time>2025-06-30T19:39:59Z</time>
      </trkpt>
      <trkpt lat="46.17136" lon="-1.3783">
        <ele>11.6</ele>
        <time>2025-06-30T19:40:01Z</time>
      </trkpt>
      <trkpt lat="46.1714" lon="-1.37837">
        <ele>12</ele>
        <time>2025-06-30T19:40:07Z</time>
      </trkpt>
      <trkpt lat="46.17145" lon="-1.37842">
        <ele>12.6</ele>
        <time>2025-06-30T19:40:14Z</time>
      </trkpt>
      <trkpt lat="46.17146" lon="-1.37844">
        <ele>13</ele>
        <time>2025-06-30T19:40:16Z</time>
      </trkpt>
      <trkpt lat="46.17149" lon="-1.37847">
        <ele>13.4</ele>
        <time>2025-06-30T19:40:19Z</time>
      </trkpt>
      <trkpt lat="46.1715" lon="-1.37848">
        <ele>13.6</ele>
        <time>2025-06-30T19:40:21Z</time>
      </trkpt>
      <trkpt lat="46.17153" lon="-1.37852">
        <ele>14</ele>
        <time>2025-06-30T19:40:25Z</time>
      </trkpt>
      <trkpt lat="46.17154" lon="-1.37855">
        <ele>14.6</ele>
        <time>2025-06-30T19:40:28Z</time>
      </trkpt>
      <trkpt lat="46.17158" lon="-1.37859">
        <ele>15.2</ele>
        <time>2025-06-30T19:40:32Z</time>
      </trkpt>
      <trkpt lat="46.17164" lon="-1.37861">
        <ele>15.6</ele>
        <time>2025-06-30T19:40:38Z</time>
      </trkpt>
      <trkpt lat="46.17169" lon="-1.37863">
        <ele>15.6</ele>
        <time>2025-06-30T19:40:42Z</time>
      </trkpt>
      <trkpt lat="46.17169" lon="-1.37866">
        <ele>15.6</ele>
        <time>2025-06-30T19:40:44Z</time>
      </trkpt>
      <trkpt lat="46.17172" lon="-1.37882">
        <ele>14.6</ele>
        <time>2025-06-30T19:40:53Z</time>
      </trkpt>
      <trkpt lat="46.17173" lon="-1.37884">
        <ele>14.6</ele>
        <time>2025-06-30T19:40:54Z</time>
      </trkpt>
      <trkpt lat="46.17173" lon="-1.37897">
        <ele>14.4</ele>
        <time>2025-06-30T19:41:02Z</time>
      </trkpt>
      <trkpt lat="46.17175" lon="-1.379">
        <ele>14.2</ele>
        <time>2025-06-30T19:41:04Z</time>
      </trkpt>
      <trkpt lat="46.17175" lon="-1.37901">
        <ele>14.2</ele>
        <time>2025-06-30T19:41:05Z</time>
      </trkpt>
      <trkpt lat="46.17179" lon="-1.37908">
        <ele>14.2</ele>
        <time>2025-06-30T19:41:10Z</time>
      </trkpt>
      <trkpt lat="46.1718" lon="-1.37909">
        <ele>14.2</ele>
        <time>2025-06-30T19:41:11Z</time>
      </trkpt>
      <trkpt lat="46.17185" lon="-1.37919">
        <ele>14.2</ele>
        <time>2025-06-30T19:41:19Z</time>
      </trkpt>
      <trkpt lat="46.17188" lon="-1.37922">
        <ele>14.2</ele>
        <time>2025-06-30T19:41:22Z</time>
      </trkpt>
      <trkpt lat="46.17196" lon="-1.37931">
        <ele>14</ele>
        <time>2025-06-30T19:41:31Z</time>
      </trkpt>
      <trkpt lat="46.17197" lon="-1.37932">
        <ele>13.8</ele>
        <time>2025-06-30T19:41:32Z</time>
      </trkpt>
      <trkpt lat="46.17201" lon="-1.37939">
        <ele>13</ele>
        <time>2025-06-30T19:41:37Z</time>
      </trkpt>
      <trkpt lat="46.17203" lon="-1.37949">
        <ele>12</ele>
        <time>2025-06-30T19:41:43Z</time>
      </trkpt>
      <trkpt lat="46.17204" lon="-1.37951">
        <ele>11.6</ele>
        <time>2025-06-30T19:41:44Z</time>
      </trkpt>
      <trkpt lat="46.17205" lon="-1.37954">
        <ele>11.2</ele>
        <time>2025-06-30T19:41:46Z</time>
      </trkpt>
      <trkpt lat="46.17207" lon="-1.37958">
        <ele>10.8</ele>
        <time>2025-06-30T19:41:49Z</time>
      </trkpt>
      <trkpt lat="46.17209" lon="-1.37962">
        <ele>10.2</ele>
        <time>2025-06-30T19:41:52Z</time>
      </trkpt>
      <trkpt lat="46.17209" lon="-1.37964">
        <ele>10</ele>
        <time>2025-06-30T19:41:53Z</time>
      </trkpt>
      <trkpt lat="46.17211" lon="-1.37967">
        <ele>9.8</ele>
        <time>2025-06-30T19:41:55Z</time>
      </trkpt>
      <trkpt lat="46.17215" lon="-1.37977">
        <ele>9.4</ele>
        <time>2025-06-30T19:42:01Z</time>
      </trkpt>
      <trkpt lat="46.17218" lon="-1.37985">
        <ele>9.4</ele>
        <time>2025-06-30T19:42:07Z</time>
      </trkpt>
      <trkpt lat="46.17219" lon="-1.37988">
        <ele>9.2</ele>
        <time>2025-06-30T19:42:09Z</time>
      </trkpt>
      <trkpt lat="46.17224" lon="-1.37997">
        <ele>9.4</ele>
        <time>2025-06-30T19:42:16Z</time>
      </trkpt>
      <trkpt lat="46.17231" lon="-1.38007">
        <ele>9.4</ele>
        <time>2025-06-30T19:42:24Z</time>
      </trkpt>
      <trkpt lat="46.17238" lon="-1.38019">
        <ele>9.4</ele>
        <time>2025-06-30T19:42:33Z</time>
      </trkpt>
      <trkpt lat="46.17239" lon="-1.3802">
        <ele>9.4</ele>
        <time>2025-06-30T19:42:34Z</time>
      </trkpt>
      <trkpt lat="46.17245" lon="-1.3803">
        <ele>9.4</ele>
        <time>2025-06-30T19:42:42Z</time>
      </trkpt>
      <trkpt lat="46.17252" lon="-1.38042">
        <ele>9.8</ele>
        <time>2025-06-30T19:42:51Z</time>
      </trkpt>
      <trkpt lat="46.17255" lon="-1.3805">
        <ele>9.8</ele>
        <time>2025-06-30T19:42:59Z</time>
      </trkpt>
      <trkpt lat="46.17258" lon="-1.38055">
        <ele>10</ele>
        <time>2025-06-30T19:43:05Z</time>
      </trkpt>
      <trkpt lat="46.17259" lon="-1.38064">
        <ele>9.8</ele>
        <time>2025-06-30T19:43:11Z</time>
      </trkpt>
      <trkpt lat="46.17265" lon="-1.38072">
        <ele>10</ele>
        <time>2025-06-30T19:43:17Z</time>
      </trkpt>
      <trkpt lat="46.17267" lon="-1.38077">
        <ele>10.2</ele>
        <time>2025-06-30T19:43:22Z</time>
      </trkpt>
      <trkpt lat="46.17269" lon="-1.38079">
        <ele>10.2</ele>
        <time>2025-06-30T19:43:26Z</time>
      </trkpt>
      <trkpt lat="46.17273" lon="-1.38088">
        <ele>10</ele>
        <time>2025-06-30T19:43:32Z</time>
      </trkpt>
      <trkpt lat="46.17276" lon="-1.38092">
        <ele>9.6</ele>
        <time>2025-06-30T19:43:35Z</time>
      </trkpt>
      <trkpt lat="46.17277" lon="-1.38095">
        <ele>9.4</ele>
        <time>2025-06-30T19:43:37Z</time>
      </trkpt>
      <trkpt lat="46.17279" lon="-1.38098">
        <ele>9.2</ele>
        <time>2025-06-30T19:43:39Z</time>
      </trkpt>
      <trkpt lat="46.17284" lon="-1.38106">
        <ele>8.8</ele>
        <time>2025-06-30T19:43:45Z</time>
      </trkpt>
      <trkpt lat="46.17285" lon="-1.38108">
        <ele>8.8</ele>
        <time>2025-06-30T19:43:46Z</time>
      </trkpt>
      <trkpt lat="46.17286" lon="-1.38109">
        <ele>8.6</ele>
        <time>2025-06-30T19:43:47Z</time>
      </trkpt>
      <trkpt lat="46.17293" lon="-1.38117">
        <ele>8.2</ele>
        <time>2025-06-30T19:43:55Z</time>
      </trkpt>
      <trkpt lat="46.173" lon="-1.38123">
        <ele>8</ele>
        <time>2025-06-30T19:44:02Z</time>
      </trkpt>
      <trkpt lat="46.17308" lon="-1.38127">
        <ele>8.2</ele>
        <time>2025-06-30T19:44:11Z</time>
      </trkpt>
      <trkpt lat="46.17308" lon="-1.38128">
        <ele>8.2</ele>
        <time>2025-06-30T19:44:12Z</time>
      </trkpt>
      <trkpt lat="46.17304" lon="-1.38124">
        <ele>8.2</ele>
        <time>2025-06-30T19:44:19Z</time>
      </trkpt>
      <trkpt lat="46.17299" lon="-1.38121">
        <ele>7.8</ele>
        <time>2025-06-30T19:44:23Z</time>
      </trkpt>
      <trkpt lat="46.17296" lon="-1.38121">
        <ele>7.8</ele>
        <time>2025-06-30T19:44:25Z</time>
      </trkpt>
      <trkpt lat="46.17295" lon="-1.38122">
        <ele>7.8</ele>
        <time>2025-06-30T19:44:26Z</time>
      </trkpt>
      <trkpt lat="46.17295" lon="-1.38123">
        <ele>7.8</ele>
        <time>2025-06-30T19:44:27Z</time>
      </trkpt>
      <trkpt lat="46.17296" lon="-1.38124">
        <ele>7.6</ele>
        <time>2025-06-30T19:44:29Z</time>
      </trkpt>
      <trkpt lat="46.17296" lon="-1.38125">
        <ele>8.2</ele>
        <time>2025-06-30T19:44:35Z</time>
      </trkpt>
      <trkpt lat="46.17291" lon="-1.38124">
        <ele>7.8</ele>
        <time>2025-06-30T19:44:41Z</time>
      </trkpt>
      <trkpt lat="46.17285" lon="-1.38131">
        <ele>7.8</ele>
        <time>2025-06-30T19:44:47Z</time>
      </trkpt>
      <trkpt lat="46.17275" lon="-1.38145">
        <ele>8.8</ele>
        <time>2025-06-30T19:44:57Z</time>
      </trkpt>
      <trkpt lat="46.17274" lon="-1.38146">
        <ele>8.8</ele>
        <time>2025-06-30T19:44:58Z</time>
      </trkpt>
      <trkpt lat="46.17271" lon="-1.38149">
        <ele>8.8</ele>
        <time>2025-06-30T19:45:01Z</time>
      </trkpt>
      <trkpt lat="46.17267" lon="-1.38156">
        <ele>9.2</ele>
        <time>2025-06-30T19:45:06Z</time>
      </trkpt>
      <trkpt lat="46.17261" lon="-1.38162">
        <ele>9.2</ele>
        <time>2025-06-30T19:45:12Z</time>
      </trkpt>
      <trkpt lat="46.17255" lon="-1.38168">
        <ele>8.8</ele>
        <time>2025-06-30T19:45:19Z</time>
      </trkpt>
      <trkpt lat="46.17251" lon="-1.38172">
        <ele>8.2</ele>
        <time>2025-06-30T19:45:26Z</time>
      </trkpt>
      <trkpt lat="46.17251" lon="-1.38173">
        <ele>8</ele>
        <time>2025-06-30T19:45:36Z</time>
      </trkpt>
      <trkpt lat="46.1725" lon="-1.38175">
        <ele>7.8</ele>
        <time>2025-06-30T19:45:37Z</time>
      </trkpt>
      <trkpt lat="46.17243" lon="-1.3818">
        <ele>7.2</ele>
        <time>2025-06-30T19:45:43Z</time>
      </trkpt>
      <trkpt lat="46.17241" lon="-1.38183">
        <ele>6.6</ele>
        <time>2025-06-30T19:45:45Z</time>
      </trkpt>
      <trkpt lat="46.1724" lon="-1.38187">
        <ele>6.4</ele>
        <time>2025-06-30T19:45:48Z</time>
      </trkpt>
      <trkpt lat="46.17239" lon="-1.3819">
        <ele>6.2</ele>
        <time>2025-06-30T19:45:50Z</time>
      </trkpt>
      <trkpt lat="46.1724" lon="-1.38195">
        <ele>6</ele>
        <time>2025-06-30T19:45:53Z</time>
      </trkpt>
      <trkpt lat="46.1724" lon="-1.38205">
        <ele>5.8</ele>
        <time>2025-06-30T19:45:59Z</time>
      </trkpt>
      <trkpt lat="46.1724" lon="-1.38208">
        <ele>5.6</ele>
        <time>2025-06-30T19:46:01Z</time>
      </trkpt>
      <trkpt lat="46.17241" lon="-1.38219">
        <ele>5.4</ele>
        <time>2025-06-30T19:46:08Z</time>
      </trkpt>
      <trkpt lat="46.17242" lon="-1.38224">
        <ele>5.2</ele>
        <time>2025-06-30T19:46:11Z</time>
      </trkpt>
      <trkpt lat="46.17244" lon="-1.38229">
        <ele>5.2</ele>
        <time>2025-06-30T19:46:14Z</time>
      </trkpt>
      <trkpt lat="46.17245" lon="-1.38233">
        <ele>5.4</ele>
        <time>2025-06-30T19:46:17Z</time>
      </trkpt>
      <trkpt lat="46.17245" lon="-1.38234">
        <ele>5.6</ele>
        <time>2025-06-30T19:46:18Z</time>
      </trkpt>
      <trkpt lat="46.17248" lon="-1.3824">
        <ele>5.8</ele>
        <time>2025-06-30T19:46:23Z</time>
      </trkpt>
      <trkpt lat="46.17249" lon="-1.38243">
        <ele>5.4</ele>
        <time>2025-06-30T19:46:25Z</time>
      </trkpt>
      <trkpt lat="46.17252" lon="-1.38248">
        <ele>5.2</ele>
        <time>2025-06-30T19:46:28Z</time>
      </trkpt>
      <trkpt lat="46.17257" lon="-1.38262">
        <ele>5</ele>
        <time>2025-06-30T19:46:36Z</time>
      </trkpt>
      <trkpt lat="46.17265" lon="-1.3828">
        <ele>5.2</ele>
        <time>2025-06-30T19:46:46Z</time>
      </trkpt>
      <trkpt lat="46.17272" lon="-1.38298">
        <ele>5.2</ele>
        <time>2025-06-30T19:46:56Z</time>
      </trkpt>
      <trkpt lat="46.17274" lon="-1.38301">
        <ele>5.2</ele>
        <time>2025-06-30T19:46:58Z</time>
      </trkpt>
      <trkpt lat="46.1728" lon="-1.38319">
        <ele>5.4</ele>
        <time>2025-06-30T19:47:09Z</time>
      </trkpt>
      <trkpt lat="46.17289" lon="-1.38338">
        <ele>5.2</ele>
        <time>2025-06-30T19:47:20Z</time>
      </trkpt>
      <trkpt lat="46.17294" lon="-1.38347">
        <ele>5.6</ele>
        <time>2025-06-30T19:47:27Z</time>
      </trkpt>
      <trkpt lat="46.17294" lon="-1.38349">
        <ele>5.6</ele>
        <time>2025-06-30T19:47:28Z</time>
      </trkpt>
      <trkpt lat="46.17296" lon="-1.38353">
        <ele>5.6</ele>
        <time>2025-06-30T19:47:30Z</time>
      </trkpt>
      <trkpt lat="46.17303" lon="-1.38363">
        <ele>5.2</ele>
        <time>2025-06-30T19:47:38Z</time>
      </trkpt>
      <trkpt lat="46.17311" lon="-1.38374">
        <ele>5.4</ele>
        <time>2025-06-30T19:47:47Z</time>
      </trkpt>
      <trkpt lat="46.17319" lon="-1.38383">
        <ele>5.6</ele>
        <time>2025-06-30T19:47:55Z</time>
      </trkpt>
      <trkpt lat="46.17329" lon="-1.38399">
        <ele>5.6</ele>
        <time>2025-06-30T19:48:07Z</time>
      </trkpt>
      <trkpt lat="46.17333" lon="-1.38407">
        <ele>5.8</ele>
        <time>2025-06-30T19:48:14Z</time>
      </trkpt>
      <trkpt lat="46.17337" lon="-1.38414">
        <ele>5.6</ele>
        <time>2025-06-30T19:48:18Z</time>
      </trkpt>
      <trkpt lat="46.17336" lon="-1.38419">
        <ele>5.6</ele>
        <time>2025-06-30T19:48:21Z</time>
      </trkpt>
      <trkpt lat="46.17336" lon="-1.3842">
        <ele>5.6</ele>
        <time>2025-06-30T19:48:22Z</time>
      </trkpt>
      <trkpt lat="46.17337" lon="-1.38422">
        <ele>5.6</ele>
        <time>2025-06-30T19:48:24Z</time>
      </trkpt>
      <trkpt lat="46.17338" lon="-1.38422">
        <ele>5.6</ele>
        <time>2025-06-30T19:48:25Z</time>
      </trkpt>
      <trkpt lat="46.1734" lon="-1.38424">
        <ele>5.4</ele>
        <time>2025-06-30T19:48:29Z</time>
      </trkpt>
      <trkpt lat="46.1734" lon="-1.38427">
        <ele>5.6</ele>
        <time>2025-06-30T19:48:34Z</time>
      </trkpt>
      <trkpt lat="46.17346" lon="-1.38433">
        <ele>5.6</ele>
        <time>2025-06-30T19:48:40Z</time>
      </trkpt>
      <trkpt lat="46.17356" lon="-1.38446">
        <ele>5.8</ele>
        <time>2025-06-30T19:48:50Z</time>
      </trkpt>
      <trkpt lat="46.17362" lon="-1.38456">
        <ele>5.4</ele>
        <time>2025-06-30T19:48:58Z</time>
      </trkpt>
      <trkpt lat="46.17364" lon="-1.38456">
        <ele>5.2</ele>
        <time>2025-06-30T19:49:03Z</time>
      </trkpt>
      <trkpt lat="46.17368" lon="-1.38465">
        <ele>5.6</ele>
        <time>2025-06-30T19:49:09Z</time>
      </trkpt>
      <trkpt lat="46.17375" lon="-1.3848">
        <ele>5.4</ele>
        <time>2025-06-30T19:49:19Z</time>
      </trkpt>
      <trkpt lat="46.17381" lon="-1.38492">
        <ele>5.6</ele>
        <time>2025-06-30T19:49:27Z</time>
      </trkpt>
      <trkpt lat="46.17383" lon="-1.38494">
        <ele>5.6</ele>
        <time>2025-06-30T19:49:29Z</time>
      </trkpt>
      <trkpt lat="46.17384" lon="-1.38497">
        <ele>5.6</ele>
        <time>2025-06-30T19:49:31Z</time>
      </trkpt>
      <trkpt lat="46.17388" lon="-1.38505">
        <ele>5.6</ele>
        <time>2025-06-30T19:49:37Z</time>
      </trkpt>
      <trkpt lat="46.17398" lon="-1.38521">
        <ele>6</ele>
        <time>2025-06-30T19:49:49Z</time>
      </trkpt>
      <trkpt lat="46.17405" lon="-1.38531">
        <ele>6</ele>
        <time>2025-06-30T19:49:57Z</time>
      </trkpt>
      <trkpt lat="46.17412" lon="-1.38541">
        <ele>6.2</ele>
        <time>2025-06-30T19:50:05Z</time>
      </trkpt>
      <trkpt lat="46.17417" lon="-1.38555">
        <ele>6</ele>
        <time>2025-06-30T19:50:14Z</time>
      </trkpt>
      <trkpt lat="46.17419" lon="-1.3856">
        <ele>6</ele>
        <time>2025-06-30T19:50:17Z</time>
      </trkpt>
      <trkpt lat="46.17423" lon="-1.38568">
        <ele>6</ele>
        <time>2025-06-30T19:50:26Z</time>
      </trkpt>
      <trkpt lat="46.17423" lon="-1.38568">
        <ele>6</ele>
        <time>2025-06-30T19:50:27Z</time>
      </trkpt>
      <trkpt lat="46.17422" lon="-1.38568">
        <ele>6</ele>
        <time>2025-06-30T19:50:30Z</time>
      </trkpt>
      <trkpt lat="46.17426" lon="-1.38573">
        <ele>6.2</ele>
        <time>2025-06-30T19:50:40Z</time>
      </trkpt>
      <trkpt lat="46.1743" lon="-1.38581">
        <ele>6</ele>
        <time>2025-06-30T19:50:46Z</time>
      </trkpt>
      <trkpt lat="46.17433" lon="-1.38588">
        <ele>6.2</ele>
        <time>2025-06-30T19:50:53Z</time>
      </trkpt>
      <trkpt lat="46.17434" lon="-1.38588">
        <ele>6</ele>
        <time>2025-06-30T19:51:01Z</time>
      </trkpt>
      <trkpt lat="46.17439" lon="-1.38598">
        <ele>6</ele>
        <time>2025-06-30T19:51:07Z</time>
      </trkpt>
      <trkpt lat="46.17448" lon="-1.38613">
        <ele>6.2</ele>
        <time>2025-06-30T19:51:18Z</time>
      </trkpt>
      <trkpt lat="46.17454" lon="-1.3863">
        <ele>6.2</ele>
        <time>2025-06-30T19:51:29Z</time>
      </trkpt>
      <trkpt lat="46.17458" lon="-1.3864">
        <ele>6</ele>
        <time>2025-06-30T19:51:35Z</time>
      </trkpt>
      <trkpt lat="46.17461" lon="-1.38646">
        <ele>6.2</ele>
        <time>2025-06-30T19:51:39Z</time>
      </trkpt>
      <trkpt lat="46.17471" lon="-1.38666">
        <ele>6</ele>
        <time>2025-06-30T19:51:53Z</time>
      </trkpt>
      <trkpt lat="46.17479" lon="-1.38683">
        <ele>6.2</ele>
        <time>2025-06-30T19:52:05Z</time>
      </trkpt>
      <trkpt lat="46.17486" lon="-1.38697">
        <ele>6.6</ele>
        <time>2025-06-30T19:52:16Z</time>
      </trkpt>
      <trkpt lat="46.17492" lon="-1.3871">
        <ele>6.6</ele>
        <time>2025-06-30T19:52:25Z</time>
      </trkpt>
      <trkpt lat="46.17494" lon="-1.38713">
        <ele>6.6</ele>
        <time>2025-06-30T19:52:27Z</time>
      </trkpt>
      <trkpt lat="46.17497" lon="-1.3872">
        <ele>6.6</ele>
        <time>2025-06-30T19:52:33Z</time>
      </trkpt>
      <trkpt lat="46.17505" lon="-1.38731">
        <ele>6.6</ele>
        <time>2025-06-30T19:52:43Z</time>
      </trkpt>
      <trkpt lat="46.17511" lon="-1.38742">
        <ele>6.6</ele>
        <time>2025-06-30T19:52:54Z</time>
      </trkpt>
      <trkpt lat="46.17512" lon="-1.38744">
        <ele>6.6</ele>
        <time>2025-06-30T19:52:56Z</time>
      </trkpt>
      <trkpt lat="46.17516" lon="-1.38747">
        <ele>6.6</ele>
        <time>2025-06-30T19:53:03Z</time>
      </trkpt>
      <trkpt lat="46.17518" lon="-1.38753">
        <ele>6.6</ele>
        <time>2025-06-30T19:53:11Z</time>
      </trkpt>
      <trkpt lat="46.17519" lon="-1.38751">
        <ele>6.4</ele>
        <time>2025-06-30T19:53:18Z</time>
      </trkpt>
      <trkpt lat="46.17519" lon="-1.38752">
        <ele>6.4</ele>
        <time>2025-06-30T19:53:23Z</time>
      </trkpt>
      <trkpt lat="46.17519" lon="-1.38752">
        <ele>6.4</ele>
        <time>2025-06-30T19:53:29Z</time>
      </trkpt>
      <trkpt lat="46.17522" lon="-1.38758">
        <ele>6.8</ele>
        <time>2025-06-30T19:53:36Z</time>
      </trkpt>
      <trkpt lat="46.17528" lon="-1.38773">
        <ele>7</ele>
        <time>2025-06-30T19:53:43Z</time>
      </trkpt>
      <trkpt lat="46.17532" lon="-1.38785">
        <ele>6.4</ele>
        <time>2025-06-30T19:53:51Z</time>
      </trkpt>
      <trkpt lat="46.17533" lon="-1.38785">
        <ele>6.4</ele>
        <time>2025-06-30T19:53:57Z</time>
      </trkpt>
      <trkpt lat="46.17537" lon="-1.38791">
        <ele>6.4</ele>
        <time>2025-06-30T19:54:05Z</time>
      </trkpt>
      <trkpt lat="46.1754" lon="-1.38804">
        <ele>6.4</ele>
        <time>2025-06-30T19:54:13Z</time>
      </trkpt>
      <trkpt lat="46.1754" lon="-1.38818">
        <ele>6.2</ele>
        <time>2025-06-30T19:54:22Z</time>
      </trkpt>
      <trkpt lat="46.17544" lon="-1.38827">
        <ele>6</ele>
        <time>2025-06-30T19:54:28Z</time>
      </trkpt>
      <trkpt lat="46.17552" lon="-1.38842">
        <ele>6</ele>
        <time>2025-06-30T19:54:38Z</time>
      </trkpt>
      <trkpt lat="46.17553" lon="-1.38843">
        <ele>6</ele>
        <time>2025-06-30T19:54:39Z</time>
      </trkpt>
      <trkpt lat="46.1756" lon="-1.38856">
        <ele>6</ele>
        <time>2025-06-30T19:54:48Z</time>
      </trkpt>
      <trkpt lat="46.17564" lon="-1.38865">
        <ele>6</ele>
        <time>2025-06-30T19:54:54Z</time>
      </trkpt>
      <trkpt lat="46.17566" lon="-1.38871">
        <ele>6</ele>
        <time>2025-06-30T19:54:57Z</time>
      </trkpt>
      <trkpt lat="46.17567" lon="-1.38873">
        <ele>6</ele>
        <time>2025-06-30T19:54:59Z</time>
      </trkpt>
      <trkpt lat="46.17573" lon="-1.38883">
        <ele>6.2</ele>
        <time>2025-06-30T19:55:06Z</time>
      </trkpt>
      <trkpt lat="46.17578" lon="-1.38896">
        <ele>6.2</ele>
        <time>2025-06-30T19:55:14Z</time>
      </trkpt>
      <trkpt lat="46.1758" lon="-1.38903">
        <ele>6.2</ele>
        <time>2025-06-30T19:55:18Z</time>
      </trkpt>
      <trkpt lat="46.17588" lon="-1.38918">
        <ele>6.2</ele>
        <time>2025-06-30T19:55:28Z</time>
      </trkpt>
      <trkpt lat="46.17594" lon="-1.38933">
        <ele>5.8</ele>
        <time>2025-06-30T19:55:38Z</time>
      </trkpt>
      <trkpt lat="46.17597" lon="-1.3894">
        <ele>6</ele>
        <time>2025-06-30T19:55:42Z</time>
      </trkpt>
      <trkpt lat="46.17601" lon="-1.38947">
        <ele>6</ele>
        <time>2025-06-30T19:55:47Z</time>
      </trkpt>
      <trkpt lat="46.17608" lon="-1.3896">
        <ele>6</ele>
        <time>2025-06-30T19:55:56Z</time>
      </trkpt>
      <trkpt lat="46.17613" lon="-1.38971">
        <ele>6</ele>
        <time>2025-06-30T19:56:03Z</time>
      </trkpt>
      <trkpt lat="46.17615" lon="-1.38975">
        <ele>5.8</ele>
        <time>2025-06-30T19:56:06Z</time>
      </trkpt>
      <trkpt lat="46.17618" lon="-1.38983">
        <ele>5.8</ele>
        <time>2025-06-30T19:56:10Z</time>
      </trkpt>
      <trkpt lat="46.1762" lon="-1.38987">
        <ele>5.8</ele>
        <time>2025-06-30T19:56:13Z</time>
      </trkpt>
      <trkpt lat="46.17621" lon="-1.38989">
        <ele>6</ele>
        <time>2025-06-30T19:56:14Z</time>
      </trkpt>
      <trkpt lat="46.17627" lon="-1.39006">
        <ele>6</ele>
        <time>2025-06-30T19:56:24Z</time>
      </trkpt>
      <trkpt lat="46.17634" lon="-1.39022">
        <ele>6</ele>
        <time>2025-06-30T19:56:34Z</time>
      </trkpt>
      <trkpt lat="46.17639" lon="-1.39032">
        <ele>6</ele>
        <time>2025-06-30T19:56:41Z</time>
      </trkpt>
      <trkpt lat="46.17645" lon="-1.39047">
        <ele>6</ele>
        <time>2025-06-30T19:56:50Z</time>
      </trkpt>
      <trkpt lat="46.17649" lon="-1.39063">
        <ele>5.8</ele>
        <time>2025-06-30T19:56:59Z</time>
      </trkpt>
      <trkpt lat="46.17656" lon="-1.39074">
        <ele>6</ele>
        <time>2025-06-30T19:57:07Z</time>
      </trkpt>
      <trkpt lat="46.17661" lon="-1.39086">
        <ele>6</ele>
        <time>2025-06-30T19:57:14Z</time>
      </trkpt>
      <trkpt lat="46.17665" lon="-1.39101">
        <ele>6</ele>
        <time>2025-06-30T19:57:23Z</time>
      </trkpt>
      <trkpt lat="46.17673" lon="-1.39115">
        <ele>6</ele>
        <time>2025-06-30T19:57:33Z</time>
      </trkpt>
      <trkpt lat="46.17676" lon="-1.39126">
        <ele>6</ele>
        <time>2025-06-30T19:57:40Z</time>
      </trkpt>
      <trkpt lat="46.17678" lon="-1.3913">
        <ele>6</ele>
        <time>2025-06-30T19:57:42Z</time>
      </trkpt>
      <trkpt lat="46.17682" lon="-1.39143">
        <ele>6</ele>
        <time>2025-06-30T19:57:51Z</time>
      </trkpt>
      <trkpt lat="46.17688" lon="-1.39159">
        <ele>6</ele>
        <time>2025-06-30T19:58:01Z</time>
      </trkpt>
      <trkpt lat="46.17693" lon="-1.39172">
        <ele>6</ele>
        <time>2025-06-30T19:58:09Z</time>
      </trkpt>
      <trkpt lat="46.177" lon="-1.39187">
        <ele>5.8</ele>
        <time>2025-06-30T19:58:19Z</time>
      </trkpt>
      <trkpt lat="46.17704" lon="-1.39202">
        <ele>6</ele>
        <time>2025-06-30T19:58:29Z</time>
      </trkpt>
      <trkpt lat="46.17706" lon="-1.39207">
        <ele>5.8</ele>
        <time>2025-06-30T19:58:32Z</time>
      </trkpt>
      <trkpt lat="46.17709" lon="-1.39219">
        <ele>5.8</ele>
        <time>2025-06-30T19:58:39Z</time>
      </trkpt>
      <trkpt lat="46.17714" lon="-1.39233">
        <ele>5.8</ele>
        <time>2025-06-30T19:58:48Z</time>
      </trkpt>
      <trkpt lat="46.17716" lon="-1.39238">
        <ele>5.6</ele>
        <time>2025-06-30T19:58:51Z</time>
      </trkpt>
      <trkpt lat="46.17718" lon="-1.39245">
        <ele>5.6</ele>
        <time>2025-06-30T19:58:55Z</time>
      </trkpt>
      <trkpt lat="46.1772" lon="-1.39248">
        <ele>5.6</ele>
        <time>2025-06-30T19:58:58Z</time>
      </trkpt>
      <trkpt lat="46.17721" lon="-1.3925">
        <ele>5.6</ele>
        <time>2025-06-30T19:58:59Z</time>
      </trkpt>
      <trkpt lat="46.17726" lon="-1.39265">
        <ele>5.8</ele>
        <time>2025-06-30T19:59:09Z</time>
      </trkpt>
      <trkpt lat="46.17731" lon="-1.39276">
        <ele>5.8</ele>
        <time>2025-06-30T19:59:19Z</time>
      </trkpt>
      <trkpt lat="46.17732" lon="-1.39282">
        <ele>5.6</ele>
        <time>2025-06-30T19:59:23Z</time>
      </trkpt>
      <trkpt lat="46.17736" lon="-1.39295">
        <ele>5.8</ele>
        <time>2025-06-30T19:59:31Z</time>
      </trkpt>
      <trkpt lat="46.17737" lon="-1.39297">
        <ele>5.8</ele>
        <time>2025-06-30T19:59:32Z</time>
      </trkpt>
      <trkpt lat="46.17742" lon="-1.39314">
        <ele>5.8</ele>
        <time>2025-06-30T19:59:43Z</time>
      </trkpt>
      <trkpt lat="46.17744" lon="-1.39323">
        <ele>5.8</ele>
        <time>2025-06-30T19:59:48Z</time>
      </trkpt>
      <trkpt lat="46.17747" lon="-1.39335">
        <ele>5.8</ele>
        <time>2025-06-30T19:59:55Z</time>
      </trkpt>
      <trkpt lat="46.17753" lon="-1.3935">
        <ele>5.8</ele>
        <time>2025-06-30T20:00:05Z</time>
      </trkpt>
      <trkpt lat="46.17758" lon="-1.39368">
        <ele>5.8</ele>
        <time>2025-06-30T20:00:16Z</time>
      </trkpt>
      <trkpt lat="46.17763" lon="-1.39393">
        <ele>5.8</ele>
        <time>2025-06-30T20:00:31Z</time>
      </trkpt>
      <trkpt lat="46.17767" lon="-1.39407">
        <ele>5.8</ele>
        <time>2025-06-30T20:00:40Z</time>
      </trkpt>
      <trkpt lat="46.17772" lon="-1.39427">
        <ele>5.4</ele>
        <time>2025-06-30T20:00:52Z</time>
      </trkpt>
      <trkpt lat="46.17773" lon="-1.39434">
        <ele>5.6</ele>
        <time>2025-06-30T20:00:56Z</time>
      </trkpt>
      <trkpt lat="46.17774" lon="-1.39439">
        <ele>5.6</ele>
        <time>2025-06-30T20:00:59Z</time>
      </trkpt>
      <trkpt lat="46.17781" lon="-1.3945">
        <ele>5.6</ele>
        <time>2025-06-30T20:01:08Z</time>
      </trkpt>
      <trkpt lat="46.17783" lon="-1.39452">
        <ele>5.6</ele>
        <time>2025-06-30T20:01:10Z</time>
      </trkpt>
      <trkpt lat="46.17788" lon="-1.39455">
        <ele>6</ele>
        <time>2025-06-30T20:01:15Z</time>
      </trkpt>
      <trkpt lat="46.17793" lon="-1.39457">
        <ele>6.2</ele>
        <time>2025-06-30T20:01:20Z</time>
      </trkpt>
      <trkpt lat="46.17794" lon="-1.39458">
        <ele>6.2</ele>
        <time>2025-06-30T20:01:21Z</time>
      </trkpt>
      <trkpt lat="46.17804" lon="-1.39463">
        <ele>6.2</ele>
        <time>2025-06-30T20:01:32Z</time>
      </trkpt>
      <trkpt lat="46.17812" lon="-1.39468">
        <ele>6.6</ele>
        <time>2025-06-30T20:01:41Z</time>
      </trkpt>
      <trkpt lat="46.17814" lon="-1.39469">
        <ele>6.6</ele>
        <time>2025-06-30T20:01:44Z</time>
      </trkpt>
      <trkpt lat="46.17818" lon="-1.39473">
        <ele>7</ele>
        <time>2025-06-30T20:01:50Z</time>
      </trkpt>
      <trkpt lat="46.17821" lon="-1.39476">
        <ele>7</ele>
        <time>2025-06-30T20:01:54Z</time>
      </trkpt>
      <trkpt lat="46.17823" lon="-1.39479">
        <ele>7</ele>
        <time>2025-06-30T20:01:57Z</time>
      </trkpt>
      <trkpt lat="46.17824" lon="-1.3948">
        <ele>7.2</ele>
        <time>2025-06-30T20:01:58Z</time>
      </trkpt>
      <trkpt lat="46.17827" lon="-1.39479">
        <ele>7.2</ele>
        <time>2025-06-30T20:02:02Z</time>
      </trkpt>
      <trkpt lat="46.17829" lon="-1.39478">
        <ele>7.8</ele>
        <time>2025-06-30T20:02:04Z</time>
      </trkpt>
      <trkpt lat="46.17832" lon="-1.39476">
        <ele>8.8</ele>
        <time>2025-06-30T20:02:09Z</time>
      </trkpt>
      <trkpt lat="46.17834" lon="-1.39475">
        <ele>9.2</ele>
        <time>2025-06-30T20:02:12Z</time>
      </trkpt>
      <trkpt lat="46.17837" lon="-1.39473">
        <ele>9.8</ele>
        <time>2025-06-30T20:02:15Z</time>
      </trkpt>
      <trkpt lat="46.17838" lon="-1.39473">
        <ele>9.8</ele>
        <time>2025-06-30T20:02:16Z</time>
      </trkpt>
      <trkpt lat="46.17842" lon="-1.39471">
        <ele>10</ele>
        <time>2025-06-30T20:02:19Z</time>
      </trkpt>
      <trkpt lat="46.17853" lon="-1.39468">
        <ele>10.4</ele>
        <time>2025-06-30T20:02:28Z</time>
      </trkpt>
      <trkpt lat="46.17862" lon="-1.39469">
        <ele>10.6</ele>
        <time>2025-06-30T20:02:37Z</time>
      </trkpt>
      <trkpt lat="46.17866" lon="-1.39473">
        <ele>10.6</ele>
        <time>2025-06-30T20:02:43Z</time>
      </trkpt>
      <trkpt lat="46.17867" lon="-1.39474">
        <ele>10.6</ele>
        <time>2025-06-30T20:02:44Z</time>
      </trkpt>
      <trkpt lat="46.17874" lon="-1.39486">
        <ele>10.8</ele>
        <time>2025-06-30T20:02:53Z</time>
      </trkpt>
      <trkpt lat="46.17875" lon="-1.39491">
        <ele>10.8</ele>
        <time>2025-06-30T20:02:56Z</time>
      </trkpt>
      <trkpt lat="46.17875" lon="-1.39498">
        <ele>11.2</ele>
        <time>2025-06-30T20:03:00Z</time>
      </trkpt>
      <trkpt lat="46.17875" lon="-1.39505">
        <ele>11.8</ele>
        <time>2025-06-30T20:03:05Z</time>
      </trkpt>
      <trkpt lat="46.17875" lon="-1.39507">
        <ele>12</ele>
        <time>2025-06-30T20:03:06Z</time>
      </trkpt>
      <trkpt lat="46.17873" lon="-1.39514">
        <ele>12.4</ele>
        <time>2025-06-30T20:03:10Z</time>
      </trkpt>
      <trkpt lat="46.17873" lon="-1.39515">
        <ele>12.6</ele>
        <time>2025-06-30T20:03:11Z</time>
      </trkpt>
      <trkpt lat="46.17872" lon="-1.39518">
        <ele>13</ele>
        <time>2025-06-30T20:03:13Z</time>
      </trkpt>
      <trkpt lat="46.17869" lon="-1.39531">
        <ele>13.8</ele>
        <time>2025-06-30T20:03:21Z</time>
      </trkpt>
      <trkpt lat="46.17868" lon="-1.39534">
        <ele>14</ele>
        <time>2025-06-30T20:03:23Z</time>
      </trkpt>
      <trkpt lat="46.17868" lon="-1.3955">
        <ele>15</ele>
        <time>2025-06-30T20:03:33Z</time>
      </trkpt>
      <trkpt lat="46.17868" lon="-1.39551">
        <ele>15</ele>
        <time>2025-06-30T20:03:34Z</time>
      </trkpt>
      <trkpt lat="46.17868" lon="-1.39565">
        <ele>14.6</ele>
        <time>2025-06-30T20:03:43Z</time>
      </trkpt>
      <trkpt lat="46.17869" lon="-1.39569">
        <ele>14.4</ele>
        <time>2025-06-30T20:03:45Z</time>
      </trkpt>
      <trkpt lat="46.1787" lon="-1.39574">
        <ele>14.4</ele>
        <time>2025-06-30T20:03:48Z</time>
      </trkpt>
      <trkpt lat="46.17872" lon="-1.39585">
        <ele>14.4</ele>
        <time>2025-06-30T20:03:54Z</time>
      </trkpt>
      <trkpt lat="46.17873" lon="-1.39592">
        <ele>14.6</ele>
        <time>2025-06-30T20:03:58Z</time>
      </trkpt>
      <trkpt lat="46.17877" lon="-1.396">
        <ele>14.8</ele>
        <time>2025-06-30T20:04:04Z</time>
      </trkpt>
      <trkpt lat="46.17882" lon="-1.39611">
        <ele>14.4</ele>
        <time>2025-06-30T20:04:12Z</time>
      </trkpt>
      <trkpt lat="46.17889" lon="-1.39626">
        <ele>15</ele>
        <time>2025-06-30T20:04:22Z</time>
      </trkpt>
      <trkpt lat="46.17897" lon="-1.39642">
        <ele>14.8</ele>
        <time>2025-06-30T20:04:35Z</time>
      </trkpt>
      <trkpt lat="46.17898" lon="-1.39643">
        <ele>14.8</ele>
        <time>2025-06-30T20:04:36Z</time>
      </trkpt>
      <trkpt lat="46.17901" lon="-1.39645">
        <ele>14.8</ele>
        <time>2025-06-30T20:04:40Z</time>
      </trkpt>
      <trkpt lat="46.17904" lon="-1.39647">
        <ele>14.6</ele>
        <time>2025-06-30T20:04:43Z</time>
      </trkpt>
      <trkpt lat="46.17909" lon="-1.39648">
        <ele>14</ele>
        <time>2025-06-30T20:04:49Z</time>
      </trkpt>
      <trkpt lat="46.17912" lon="-1.39646">
        <ele>13.6</ele>
        <time>2025-06-30T20:04:52Z</time>
      </trkpt>
      <trkpt lat="46.17915" lon="-1.39643">
        <ele>12.8</ele>
        <time>2025-06-30T20:04:56Z</time>
      </trkpt>
      <trkpt lat="46.17916" lon="-1.39642">
        <ele>12.6</ele>
        <time>2025-06-30T20:04:57Z</time>
      </trkpt>
      <trkpt lat="46.1792" lon="-1.39642">
        <ele>12.4</ele>
        <time>2025-06-30T20:05:00Z</time>
      </trkpt>
      <trkpt lat="46.17924" lon="-1.39643">
        <ele>11.8</ele>
        <time>2025-06-30T20:05:05Z</time>
      </trkpt>
      <trkpt lat="46.17929" lon="-1.39648">
        <ele>11.2</ele>
        <time>2025-06-30T20:05:09Z</time>
      </trkpt>
      <trkpt lat="46.17936" lon="-1.3966">
        <ele>10.6</ele>
        <time>2025-06-30T20:05:18Z</time>
      </trkpt>
      <trkpt lat="46.17937" lon="-1.39663">
        <ele>10.4</ele>
        <time>2025-06-30T20:05:20Z</time>
      </trkpt>
      <trkpt lat="46.1794" lon="-1.39673">
        <ele>10.2</ele>
        <time>2025-06-30T20:05:26Z</time>
      </trkpt>
      <trkpt lat="46.1794" lon="-1.39676">
        <ele>9.8</ele>
        <time>2025-06-30T20:05:28Z</time>
      </trkpt>
      <trkpt lat="46.17941" lon="-1.39677">
        <ele>9.8</ele>
        <time>2025-06-30T20:05:29Z</time>
      </trkpt>
      <trkpt lat="46.17941" lon="-1.39681">
        <ele>9.6</ele>
        <time>2025-06-30T20:05:31Z</time>
      </trkpt>
      <trkpt lat="46.17943" lon="-1.39689">
        <ele>9.4</ele>
        <time>2025-06-30T20:05:35Z</time>
      </trkpt>
      <trkpt lat="46.17949" lon="-1.39704">
        <ele>9.6</ele>
        <time>2025-06-30T20:05:45Z</time>
      </trkpt>
      <trkpt lat="46.17959" lon="-1.39709">
        <ele>9.8</ele>
        <time>2025-06-30T20:05:53Z</time>
      </trkpt>
      <trkpt lat="46.17966" lon="-1.39708">
        <ele>10</ele>
        <time>2025-06-30T20:05:59Z</time>
      </trkpt>
      <trkpt lat="46.17968" lon="-1.39709">
        <ele>9.8</ele>
        <time>2025-06-30T20:06:01Z</time>
      </trkpt>
      <trkpt lat="46.17969" lon="-1.39711">
        <ele>9.8</ele>
        <time>2025-06-30T20:06:03Z</time>
      </trkpt>
      <trkpt lat="46.17968" lon="-1.39712">
        <ele>9.8</ele>
        <time>2025-06-30T20:06:05Z</time>
      </trkpt>
      <trkpt lat="46.17967" lon="-1.39711">
        <ele>9.8</ele>
        <time>2025-06-30T20:06:37Z</time>
      </trkpt>
      <trkpt lat="46.17968" lon="-1.39711">
        <ele>9.2</ele>
        <time>2025-06-30T20:06:41Z</time>
      </trkpt>
      <trkpt lat="46.17969" lon="-1.3972">
        <ele>9</ele>
        <time>2025-06-30T20:06:45Z</time>
      </trkpt>
      <trkpt lat="46.17973" lon="-1.3973">
        <ele>9</ele>
        <time>2025-06-30T20:06:50Z</time>
      </trkpt>
      <trkpt lat="46.17972" lon="-1.39732">
        <ele>9</ele>
        <time>2025-06-30T20:06:51Z</time>
      </trkpt>
      <trkpt lat="46.17973" lon="-1.3974">
        <ele>9.2</ele>
        <time>2025-06-30T20:06:55Z</time>
      </trkpt>
      <trkpt lat="46.17973" lon="-1.39742">
        <ele>9.4</ele>
        <time>2025-06-30T20:06:57Z</time>
      </trkpt>
      <trkpt lat="46.17973" lon="-1.39748">
        <ele>9.8</ele>
        <time>2025-06-30T20:07:01Z</time>
      </trkpt>
      <trkpt lat="46.17973" lon="-1.39754">
        <ele>9.8</ele>
        <time>2025-06-30T20:07:04Z</time>
      </trkpt>
      <trkpt lat="46.17969" lon="-1.39769">
        <ele>10.2</ele>
        <time>2025-06-30T20:07:13Z</time>
      </trkpt>
      <trkpt lat="46.17968" lon="-1.39785">
        <ele>10.4</ele>
        <time>2025-06-30T20:07:21Z</time>
      </trkpt>
      <trkpt lat="46.17968" lon="-1.39787">
        <ele>10.4</ele>
        <time>2025-06-30T20:07:22Z</time>
      </trkpt>
      <trkpt lat="46.17968" lon="-1.39793">
        <ele>10.6</ele>
        <time>2025-06-30T20:07:26Z</time>
      </trkpt>
      <trkpt lat="46.17968" lon="-1.39795">
        <ele>10.8</ele>
        <time>2025-06-30T20:07:27Z</time>
      </trkpt>
      <trkpt lat="46.17972" lon="-1.39807">
        <ele>11</ele>
        <time>2025-06-30T20:07:33Z</time>
      </trkpt>
      <trkpt lat="46.17974" lon="-1.39809">
        <ele>10.6</ele>
        <time>2025-06-30T20:07:35Z</time>
      </trkpt>
      <trkpt lat="46.17979" lon="-1.39814">
        <ele>10.4</ele>
        <time>2025-06-30T20:07:40Z</time>
      </trkpt>
      <trkpt lat="46.1798" lon="-1.39814">
        <ele>10.2</ele>
        <time>2025-06-30T20:07:42Z</time>
      </trkpt>
      <trkpt lat="46.17983" lon="-1.39813">
        <ele>9.6</ele>
        <time>2025-06-30T20:07:44Z</time>
      </trkpt>
      <trkpt lat="46.17986" lon="-1.39816">
        <ele>8.8</ele>
        <time>2025-06-30T20:07:48Z</time>
      </trkpt>
      <trkpt lat="46.17986" lon="-1.39818">
        <ele>8.4</ele>
        <time>2025-06-30T20:07:49Z</time>
      </trkpt>
      <trkpt lat="46.17991" lon="-1.39826">
        <ele>7.2</ele>
        <time>2025-06-30T20:07:54Z</time>
      </trkpt>
      <trkpt lat="46.17994" lon="-1.39829">
        <ele>7</ele>
        <time>2025-06-30T20:07:56Z</time>
      </trkpt>
      <trkpt lat="46.18001" lon="-1.39837">
        <ele>7.8</ele>
        <time>2025-06-30T20:08:05Z</time>
      </trkpt>
      <trkpt lat="46.18003" lon="-1.39842">
        <ele>8.4</ele>
        <time>2025-06-30T20:08:08Z</time>
      </trkpt>
      <trkpt lat="46.18006" lon="-1.39848">
        <ele>9.2</ele>
        <time>2025-06-30T20:08:12Z</time>
      </trkpt>
      <trkpt lat="46.18007" lon="-1.39852">
        <ele>9.2</ele>
        <time>2025-06-30T20:08:14Z</time>
      </trkpt>
      <trkpt lat="46.18007" lon="-1.39854">
        <ele>9.8</ele>
        <time>2025-06-30T20:08:16Z</time>
      </trkpt>
      <trkpt lat="46.18005" lon="-1.39868">
        <ele>10</ele>
        <time>2025-06-30T20:08:22Z</time>
      </trkpt>
      <trkpt lat="46.18007" lon="-1.39883">
        <ele>10.4</ele>
        <time>2025-06-30T20:08:30Z</time>
      </trkpt>
      <trkpt lat="46.1801" lon="-1.39898">
        <ele>10.4</ele>
        <time>2025-06-30T20:08:37Z</time>
      </trkpt>
      <trkpt lat="46.18016" lon="-1.39904">
        <ele>10.6</ele>
        <time>2025-06-30T20:08:43Z</time>
      </trkpt>
      <trkpt lat="46.18018" lon="-1.3991">
        <ele>10.6</ele>
        <time>2025-06-30T20:08:47Z</time>
      </trkpt>
      <trkpt lat="46.18018" lon="-1.39913">
        <ele>10.6</ele>
        <time>2025-06-30T20:08:48Z</time>
      </trkpt>
      <trkpt lat="46.18022" lon="-1.39931">
        <ele>10.6</ele>
        <time>2025-06-30T20:08:58Z</time>
      </trkpt>
      <trkpt lat="46.18023" lon="-1.39936">
        <ele>11</ele>
        <time>2025-06-30T20:09:00Z</time>
      </trkpt>
      <trkpt lat="46.18024" lon="-1.39947">
        <ele>9.8</ele>
        <time>2025-06-30T20:09:05Z</time>
      </trkpt>
      <trkpt lat="46.18024" lon="-1.3995">
        <ele>9.8</ele>
        <time>2025-06-30T20:09:07Z</time>
      </trkpt>
      <trkpt lat="46.18022" lon="-1.39962">
        <ele>9.8</ele>
        <time>2025-06-30T20:09:15Z</time>
      </trkpt>
      <trkpt lat="46.18022" lon="-1.39964">
        <ele>9.8</ele>
        <time>2025-06-30T20:09:16Z</time>
      </trkpt>
      <trkpt lat="46.1802" lon="-1.39969">
        <ele>9.6</ele>
        <time>2025-06-30T20:09:20Z</time>
      </trkpt>
      <trkpt lat="46.18019" lon="-1.39975">
        <ele>9.8</ele>
        <time>2025-06-30T20:09:25Z</time>
      </trkpt>
      <trkpt lat="46.18017" lon="-1.39984">
        <ele>10</ele>
        <time>2025-06-30T20:09:29Z</time>
      </trkpt>
      <trkpt lat="46.18017" lon="-1.39986">
        <ele>10</ele>
        <time>2025-06-30T20:09:30Z</time>
      </trkpt>
      <trkpt lat="46.18016" lon="-1.39997">
        <ele>10.6</ele>
        <time>2025-06-30T20:09:37Z</time>
      </trkpt>
      <trkpt lat="46.18016" lon="-1.40002">
        <ele>10.6</ele>
        <time>2025-06-30T20:09:40Z</time>
      </trkpt>
      <trkpt lat="46.18018" lon="-1.40006">
        <ele>10.8</ele>
        <time>2025-06-30T20:09:43Z</time>
      </trkpt>
      <trkpt lat="46.18019" lon="-1.40007">
        <ele>11</ele>
        <time>2025-06-30T20:09:44Z</time>
      </trkpt>
      <trkpt lat="46.18021" lon="-1.40013">
        <ele>11.2</ele>
        <time>2025-06-30T20:09:49Z</time>
      </trkpt>
      <trkpt lat="46.18023" lon="-1.40017">
        <ele>11.2</ele>
        <time>2025-06-30T20:09:52Z</time>
      </trkpt>
      <trkpt lat="46.18029" lon="-1.4003">
        <ele>11.4</ele>
        <time>2025-06-30T20:10:01Z</time>
      </trkpt>
      <trkpt lat="46.18032" lon="-1.40039">
        <ele>11.2</ele>
        <time>2025-06-30T20:10:07Z</time>
      </trkpt>
      <trkpt lat="46.18034" lon="-1.40046">
        <ele>10.6</ele>
        <time>2025-06-30T20:10:12Z</time>
      </trkpt>
      <trkpt lat="46.18037" lon="-1.40055">
        <ele>10</ele>
        <time>2025-06-30T20:10:17Z</time>
      </trkpt>
      <trkpt lat="46.18039" lon="-1.40063">
        <ele>10</ele>
        <time>2025-06-30T20:10:20Z</time>
      </trkpt>
      <trkpt lat="46.1804" lon="-1.40064">
        <ele>9.8</ele>
        <time>2025-06-30T20:10:21Z</time>
      </trkpt>
      <trkpt lat="46.18042" lon="-1.40069">
        <ele>9.6</ele>
        <time>2025-06-30T20:10:24Z</time>
      </trkpt>
      <trkpt lat="46.18047" lon="-1.40081">
        <ele>9.8</ele>
        <time>2025-06-30T20:10:31Z</time>
      </trkpt>
      <trkpt lat="46.18048" lon="-1.40088">
        <ele>10.2</ele>
        <time>2025-06-30T20:10:35Z</time>
      </trkpt>
      <trkpt lat="46.18051" lon="-1.40097">
        <ele>10.6</ele>
        <time>2025-06-30T20:10:40Z</time>
      </trkpt>
      <trkpt lat="46.18051" lon="-1.40099">
        <ele>10.8</ele>
        <time>2025-06-30T20:10:42Z</time>
      </trkpt>
      <trkpt lat="46.18053" lon="-1.40112">
        <ele>11</ele>
        <time>2025-06-30T20:10:50Z</time>
      </trkpt>
      <trkpt lat="46.18054" lon="-1.40113">
        <ele>11</ele>
        <time>2025-06-30T20:10:51Z</time>
      </trkpt>
      <trkpt lat="46.18056" lon="-1.40122">
        <ele>11</ele>
        <time>2025-06-30T20:10:56Z</time>
      </trkpt>
      <trkpt lat="46.18058" lon="-1.40128">
        <ele>11</ele>
        <time>2025-06-30T20:11:00Z</time>
      </trkpt>
      <trkpt lat="46.1806" lon="-1.40134">
        <ele>11</ele>
        <time>2025-06-30T20:11:03Z</time>
      </trkpt>
      <trkpt lat="46.18061" lon="-1.40141">
        <ele>11.2</ele>
        <time>2025-06-30T20:11:07Z</time>
      </trkpt>
      <trkpt lat="46.18062" lon="-1.40144">
        <ele>11.4</ele>
        <time>2025-06-30T20:11:09Z</time>
      </trkpt>
      <trkpt lat="46.18065" lon="-1.40154">
        <ele>11.8</ele>
        <time>2025-06-30T20:11:16Z</time>
      </trkpt>
      <trkpt lat="46.18067" lon="-1.40161">
        <ele>11.8</ele>
        <time>2025-06-30T20:11:20Z</time>
      </trkpt>
      <trkpt lat="46.18068" lon="-1.40166">
        <ele>12</ele>
        <time>2025-06-30T20:11:23Z</time>
      </trkpt>
      <trkpt lat="46.18069" lon="-1.4017">
        <ele>12.2</ele>
        <time>2025-06-30T20:11:26Z</time>
      </trkpt>
      <trkpt lat="46.18071" lon="-1.40173">
        <ele>12.4</ele>
        <time>2025-06-30T20:11:29Z</time>
      </trkpt>
      <trkpt lat="46.18079" lon="-1.40181">
        <ele>12.6</ele>
        <time>2025-06-30T20:11:38Z</time>
      </trkpt>
      <trkpt lat="46.18081" lon="-1.40187">
        <ele>12.4</ele>
        <time>2025-06-30T20:11:42Z</time>
      </trkpt>
      <trkpt lat="46.18084" lon="-1.40197">
        <ele>12.4</ele>
        <time>2025-06-30T20:11:49Z</time>
      </trkpt>
      <trkpt lat="46.18086" lon="-1.4021">
        <ele>12.8</ele>
        <time>2025-06-30T20:11:58Z</time>
      </trkpt>
      <trkpt lat="46.18087" lon="-1.40229">
        <ele>12.2</ele>
        <time>2025-06-30T20:12:08Z</time>
      </trkpt>
      <trkpt lat="46.18089" lon="-1.40241">
        <ele>11.4</ele>
        <time>2025-06-30T20:12:15Z</time>
      </trkpt>
      <trkpt lat="46.18089" lon="-1.40252">
        <ele>11.2</ele>
        <time>2025-06-30T20:12:22Z</time>
      </trkpt>
      <trkpt lat="46.18089" lon="-1.40255">
        <ele>11.2</ele>
        <time>2025-06-30T20:12:24Z</time>
      </trkpt>
      <trkpt lat="46.18092" lon="-1.40266">
        <ele>11.4</ele>
        <time>2025-06-30T20:12:33Z</time>
      </trkpt>
      <trkpt lat="46.18094" lon="-1.40273">
        <ele>11.6</ele>
        <time>2025-06-30T20:12:38Z</time>
      </trkpt>
      <trkpt lat="46.18095" lon="-1.40278">
        <ele>11.8</ele>
        <time>2025-06-30T20:12:41Z</time>
      </trkpt>
      <trkpt lat="46.18101" lon="-1.40291">
        <ele>12</ele>
        <time>2025-06-30T20:12:50Z</time>
      </trkpt>
      <trkpt lat="46.18104" lon="-1.40295">
        <ele>12.4</ele>
        <time>2025-06-30T20:12:54Z</time>
      </trkpt>
      <trkpt lat="46.18108" lon="-1.40302">
        <ele>12.6</ele>
        <time>2025-06-30T20:13:00Z</time>
      </trkpt>
      <trkpt lat="46.18109" lon="-1.40303">
        <ele>12.6</ele>
        <time>2025-06-30T20:13:01Z</time>
      </trkpt>
      <trkpt lat="46.18114" lon="-1.40306">
        <ele>12.4</ele>
        <time>2025-06-30T20:13:05Z</time>
      </trkpt>
      <trkpt lat="46.1812" lon="-1.40313">
        <ele>12.4</ele>
        <time>2025-06-30T20:13:11Z</time>
      </trkpt>
      <trkpt lat="46.18122" lon="-1.40316">
        <ele>12.2</ele>
        <time>2025-06-30T20:13:14Z</time>
      </trkpt>
      <trkpt lat="46.18128" lon="-1.40324">
        <ele>12.2</ele>
        <time>2025-06-30T20:13:20Z</time>
      </trkpt>
      <trkpt lat="46.18137" lon="-1.40332">
        <ele>12.4</ele>
        <time>2025-06-30T20:13:29Z</time>
      </trkpt>
      <trkpt lat="46.18146" lon="-1.40342">
        <ele>11.4</ele>
        <time>2025-06-30T20:13:38Z</time>
      </trkpt>
      <trkpt lat="46.18148" lon="-1.40345">
        <ele>11</ele>
        <time>2025-06-30T20:13:40Z</time>
      </trkpt>
      <trkpt lat="46.18149" lon="-1.40346">
        <ele>10.8</ele>
        <time>2025-06-30T20:13:41Z</time>
      </trkpt>
      <trkpt lat="46.18151" lon="-1.40349">
        <ele>10</ele>
        <time>2025-06-30T20:13:44Z</time>
      </trkpt>
      <trkpt lat="46.18152" lon="-1.40353">
        <ele>9.8</ele>
        <time>2025-06-30T20:13:46Z</time>
      </trkpt>
      <trkpt lat="46.18155" lon="-1.4036">
        <ele>9</ele>
        <time>2025-06-30T20:13:51Z</time>
      </trkpt>
      <trkpt lat="46.18156" lon="-1.40361">
        <ele>8.8</ele>
        <time>2025-06-30T20:13:52Z</time>
      </trkpt>
      <trkpt lat="46.18156" lon="-1.40362">
        <ele>8.8</ele>
        <time>2025-06-30T20:13:53Z</time>
      </trkpt>
      <trkpt lat="46.18156" lon="-1.40364">
        <ele>8.6</ele>
        <time>2025-06-30T20:13:54Z</time>
      </trkpt>
      <trkpt lat="46.18161" lon="-1.40377">
        <ele>8.2</ele>
        <time>2025-06-30T20:14:02Z</time>
      </trkpt>
      <trkpt lat="46.18163" lon="-1.40381">
        <ele>8.2</ele>
        <time>2025-06-30T20:14:05Z</time>
      </trkpt>
      <trkpt lat="46.1817" lon="-1.40387">
        <ele>8.2</ele>
        <time>2025-06-30T20:14:11Z</time>
      </trkpt>
      <trkpt lat="46.18175" lon="-1.40397">
        <ele>8.4</ele>
        <time>2025-06-30T20:14:18Z</time>
      </trkpt>
      <trkpt lat="46.18182" lon="-1.40409">
        <ele>8.2</ele>
        <time>2025-06-30T20:14:26Z</time>
      </trkpt>
      <trkpt lat="46.18187" lon="-1.40422">
        <ele>8.4</ele>
        <time>2025-06-30T20:14:34Z</time>
      </trkpt>
      <trkpt lat="46.1819" lon="-1.4043">
        <ele>8.2</ele>
        <time>2025-06-30T20:14:38Z</time>
      </trkpt>
      <trkpt lat="46.18193" lon="-1.40433">
        <ele>8</ele>
        <time>2025-06-30T20:14:41Z</time>
      </trkpt>
      <trkpt lat="46.18197" lon="-1.40443">
        <ele>7.8</ele>
        <time>2025-06-30T20:14:46Z</time>
      </trkpt>
      <trkpt lat="46.182" lon="-1.4045">
        <ele>7.2</ele>
        <time>2025-06-30T20:14:50Z</time>
      </trkpt>
      <trkpt lat="46.18202" lon="-1.40453">
        <ele>7.2</ele>
        <time>2025-06-30T20:14:52Z</time>
      </trkpt>
      <trkpt lat="46.18209" lon="-1.40464">
        <ele>7</ele>
        <time>2025-06-30T20:15:00Z</time>
      </trkpt>
      <trkpt lat="46.18211" lon="-1.40465">
        <ele>6.8</ele>
        <time>2025-06-30T20:15:02Z</time>
      </trkpt>
      <trkpt lat="46.18213" lon="-1.40467">
        <ele>6.8</ele>
        <time>2025-06-30T20:15:04Z</time>
      </trkpt>
      <trkpt lat="46.18216" lon="-1.40468">
        <ele>6.8</ele>
        <time>2025-06-30T20:15:06Z</time>
      </trkpt>
      <trkpt lat="46.1822" lon="-1.40468">
        <ele>6.6</ele>
        <time>2025-06-30T20:15:09Z</time>
      </trkpt>
      <trkpt lat="46.18229" lon="-1.4046">
        <ele>6.2</ele>
        <time>2025-06-30T20:15:17Z</time>
      </trkpt>
      <trkpt lat="46.1823" lon="-1.40456">
        <ele>6.2</ele>
        <time>2025-06-30T20:15:20Z</time>
      </trkpt>
      <trkpt lat="46.18234" lon="-1.40454">
        <ele>6</ele>
        <time>2025-06-30T20:15:23Z</time>
      </trkpt>
      <trkpt lat="46.1824" lon="-1.40448">
        <ele>5.6</ele>
        <time>2025-06-30T20:15:29Z</time>
      </trkpt>
      <trkpt lat="46.18244" lon="-1.40444">
        <ele>5.4</ele>
        <time>2025-06-30T20:15:33Z</time>
      </trkpt>
      <trkpt lat="46.18255" lon="-1.40436">
        <ele>4.8</ele>
        <time>2025-06-30T20:15:42Z</time>
      </trkpt>
      <trkpt lat="46.1826" lon="-1.40434">
        <ele>4.6</ele>
        <time>2025-06-30T20:15:46Z</time>
      </trkpt>
      <trkpt lat="46.18266" lon="-1.40429">
        <ele>4.4</ele>
        <time>2025-06-30T20:15:52Z</time>
      </trkpt>
      <trkpt lat="46.18279" lon="-1.4042">
        <ele>4</ele>
        <time>2025-06-30T20:16:03Z</time>
      </trkpt>
      <trkpt lat="46.18291" lon="-1.40413">
        <ele>3.6</ele>
        <time>2025-06-30T20:16:13Z</time>
      </trkpt>
      <trkpt lat="46.18294" lon="-1.40411">
        <ele>3.2</ele>
        <time>2025-06-30T20:16:16Z</time>
      </trkpt>
      <trkpt lat="46.18309" lon="-1.40404">
        <ele>2.8</ele>
        <time>2025-06-30T20:16:27Z</time>
      </trkpt>
      <trkpt lat="46.18316" lon="-1.40398">
        <ele>2.8</ele>
        <time>2025-06-30T20:16:33Z</time>
      </trkpt>
      <trkpt lat="46.18316" lon="-1.40397">
        <ele>2.8</ele>
        <time>2025-06-30T20:16:34Z</time>
      </trkpt>
      <trkpt lat="46.18323" lon="-1.40389">
        <ele>2.6</ele>
        <time>2025-06-30T20:16:41Z</time>
      </trkpt>
      <trkpt lat="46.18324" lon="-1.40387">
        <ele>2.6</ele>
        <time>2025-06-30T20:16:42Z</time>
      </trkpt>
      <trkpt lat="46.1833" lon="-1.40374">
        <ele>2.6</ele>
        <time>2025-06-30T20:16:50Z</time>
      </trkpt>
      <trkpt lat="46.18338" lon="-1.4036">
        <ele>2.4</ele>
        <time>2025-06-30T20:16:59Z</time>
      </trkpt>
      <trkpt lat="46.18343" lon="-1.40348">
        <ele>2.6</ele>
        <time>2025-06-30T20:17:06Z</time>
      </trkpt>
      <trkpt lat="46.18349" lon="-1.40337">
        <ele>2.6</ele>
        <time>2025-06-30T20:17:13Z</time>
      </trkpt>
      <trkpt lat="46.18354" lon="-1.40325">
        <ele>2.2</ele>
        <time>2025-06-30T20:17:20Z</time>
      </trkpt>
      <trkpt lat="46.18359" lon="-1.40311">
        <ele>2.4</ele>
        <time>2025-06-30T20:17:29Z</time>
      </trkpt>
      <trkpt lat="46.18365" lon="-1.403">
        <ele>2.4</ele>
        <time>2025-06-30T20:17:36Z</time>
      </trkpt>
      <trkpt lat="46.18365" lon="-1.40298">
        <ele>2.4</ele>
        <time>2025-06-30T20:17:37Z</time>
      </trkpt>
      <trkpt lat="46.18369" lon="-1.40289">
        <ele>2.6</ele>
        <time>2025-06-30T20:17:42Z</time>
      </trkpt>
      <trkpt lat="46.18372" lon="-1.40284">
        <ele>2.8</ele>
        <time>2025-06-30T20:17:45Z</time>
      </trkpt>
      <trkpt lat="46.18373" lon="-1.40283">
        <ele>2.8</ele>
        <time>2025-06-30T20:17:46Z</time>
      </trkpt>
      <trkpt lat="46.18378" lon="-1.40276">
        <ele>3</ele>
        <time>2025-06-30T20:17:52Z</time>
      </trkpt>
      <trkpt lat="46.1839" lon="-1.40263">
        <ele>3</ele>
        <time>2025-06-30T20:18:02Z</time>
      </trkpt>
      <trkpt lat="46.18397" lon="-1.40251">
        <ele>3</ele>
        <time>2025-06-30T20:18:10Z</time>
      </trkpt>
      <trkpt lat="46.18404" lon="-1.40243">
        <ele>2.8</ele>
        <time>2025-06-30T20:18:16Z</time>
      </trkpt>
      <trkpt lat="46.18406" lon="-1.40238">
        <ele>3</ele>
        <time>2025-06-30T20:18:19Z</time>
      </trkpt>
      <trkpt lat="46.18412" lon="-1.40227">
        <ele>3.4</ele>
        <time>2025-06-30T20:18:27Z</time>
      </trkpt>
      <trkpt lat="46.18421" lon="-1.40213">
        <ele>3.2</ele>
        <time>2025-06-30T20:18:37Z</time>
      </trkpt>
      <trkpt lat="46.18428" lon="-1.40201">
        <ele>3.4</ele>
        <time>2025-06-30T20:18:45Z</time>
      </trkpt>
      <trkpt lat="46.18435" lon="-1.40192">
        <ele>3.2</ele>
        <time>2025-06-30T20:18:52Z</time>
      </trkpt>
      <trkpt lat="46.18443" lon="-1.40178">
        <ele>3.4</ele>
        <time>2025-06-30T20:19:01Z</time>
      </trkpt>
      <trkpt lat="46.18445" lon="-1.40174">
        <ele>3.6</ele>
        <time>2025-06-30T20:19:04Z</time>
      </trkpt>
      <trkpt lat="46.18454" lon="-1.40161">
        <ele>3.8</ele>
        <time>2025-06-30T20:19:13Z</time>
      </trkpt>
      <trkpt lat="46.18462" lon="-1.40145">
        <ele>3.8</ele>
        <time>2025-06-30T20:19:23Z</time>
      </trkpt>
      <trkpt lat="46.18471" lon="-1.40124">
        <ele>3.6</ele>
        <time>2025-06-30T20:19:35Z</time>
      </trkpt>
      <trkpt lat="46.18478" lon="-1.40111">
        <ele>3.4</ele>
        <time>2025-06-30T20:19:44Z</time>
      </trkpt>
      <trkpt lat="46.18485" lon="-1.401">
        <ele>3.2</ele>
        <time>2025-06-30T20:19:52Z</time>
      </trkpt>
      <trkpt lat="46.18494" lon="-1.40086">
        <ele>3.2</ele>
        <time>2025-06-30T20:20:02Z</time>
      </trkpt>
      <trkpt lat="46.18499" lon="-1.4008">
        <ele>3</ele>
        <time>2025-06-30T20:20:07Z</time>
      </trkpt>
      <trkpt lat="46.18501" lon="-1.40078">
        <ele>3</ele>
        <time>2025-06-30T20:20:09Z</time>
      </trkpt>
      <trkpt lat="46.1851" lon="-1.40063">
        <ele>3.2</ele>
        <time>2025-06-30T20:20:20Z</time>
      </trkpt>
      <trkpt lat="46.18515" lon="-1.40052">
        <ele>3.2</ele>
        <time>2025-06-30T20:20:26Z</time>
      </trkpt>
      <trkpt lat="46.18516" lon="-1.40048">
        <ele>3.2</ele>
        <time>2025-06-30T20:20:28Z</time>
      </trkpt>
      <trkpt lat="46.18519" lon="-1.40029">
        <ele>3.2</ele>
        <time>2025-06-30T20:20:37Z</time>
      </trkpt>
      <trkpt lat="46.18518" lon="-1.40009">
        <ele>3</ele>
        <time>2025-06-30T20:20:48Z</time>
      </trkpt>
      <trkpt lat="46.18517" lon="-1.39982">
        <ele>3.2</ele>
        <time>2025-06-30T20:21:02Z</time>
      </trkpt>
      <trkpt lat="46.18517" lon="-1.39981">
        <ele>3.2</ele>
        <time>2025-06-30T20:21:03Z</time>
      </trkpt>
      <trkpt lat="46.18517" lon="-1.39964">
        <ele>3.2</ele>
        <time>2025-06-30T20:21:11Z</time>
      </trkpt>
      <trkpt lat="46.18518" lon="-1.39963">
        <ele>3.2</ele>
        <time>2025-06-30T20:21:12Z</time>
      </trkpt>
      <trkpt lat="46.18519" lon="-1.39948">
        <ele>3.2</ele>
        <time>2025-06-30T20:21:19Z</time>
      </trkpt>
      <trkpt lat="46.18519" lon="-1.39945">
        <ele>3.2</ele>
        <time>2025-06-30T20:21:21Z</time>
      </trkpt>
      <trkpt lat="46.18523" lon="-1.39936">
        <ele>3.4</ele>
        <time>2025-06-30T20:21:27Z</time>
      </trkpt>
      <trkpt lat="46.1853" lon="-1.39923">
        <ele>3.6</ele>
        <time>2025-06-30T20:21:36Z</time>
      </trkpt>
      <trkpt lat="46.18531" lon="-1.3992">
        <ele>3.6</ele>
        <time>2025-06-30T20:21:38Z</time>
      </trkpt>
      <trkpt lat="46.18535" lon="-1.39915">
        <ele>3.4</ele>
        <time>2025-06-30T20:21:42Z</time>
      </trkpt>
      <trkpt lat="46.18545" lon="-1.39899">
        <ele>3.4</ele>
        <time>2025-06-30T20:21:53Z</time>
      </trkpt>
      <trkpt lat="46.18547" lon="-1.39897">
        <ele>3.4</ele>
        <time>2025-06-30T20:21:55Z</time>
      </trkpt>
      <trkpt lat="46.18555" lon="-1.39886">
        <ele>3.4</ele>
        <time>2025-06-30T20:22:02Z</time>
      </trkpt>
      <trkpt lat="46.18563" lon="-1.39876">
        <ele>3.4</ele>
        <time>2025-06-30T20:22:11Z</time>
      </trkpt>
      <trkpt lat="46.18571" lon="-1.39862">
        <ele>3.4</ele>
        <time>2025-06-30T20:22:20Z</time>
      </trkpt>
      <trkpt lat="46.18574" lon="-1.39858">
        <ele>3.4</ele>
        <time>2025-06-30T20:22:23Z</time>
      </trkpt>
      <trkpt lat="46.18581" lon="-1.3985">
        <ele>3.2</ele>
        <time>2025-06-30T20:22:29Z</time>
      </trkpt>
      <trkpt lat="46.18589" lon="-1.39836">
        <ele>3.2</ele>
        <time>2025-06-30T20:22:39Z</time>
      </trkpt>
      <trkpt lat="46.18599" lon="-1.39827">
        <ele>3.2</ele>
        <time>2025-06-30T20:22:48Z</time>
      </trkpt>
      <trkpt lat="46.18609" lon="-1.39817">
        <ele>3</ele>
        <time>2025-06-30T20:22:57Z</time>
      </trkpt>
      <trkpt lat="46.18619" lon="-1.39804">
        <ele>3</ele>
        <time>2025-06-30T20:23:07Z</time>
      </trkpt>
      <trkpt lat="46.1862" lon="-1.39803">
        <ele>3</ele>
        <time>2025-06-30T20:23:08Z</time>
      </trkpt>
      <trkpt lat="46.18621" lon="-1.39796">
        <ele>3</ele>
        <time>2025-06-30T20:23:12Z</time>
      </trkpt>
      <trkpt lat="46.18619" lon="-1.39788">
        <ele>3</ele>
        <time>2025-06-30T20:23:16Z</time>
      </trkpt>
      <trkpt lat="46.18618" lon="-1.39783">
        <ele>3</ele>
        <time>2025-06-30T20:23:18Z</time>
      </trkpt>
      <trkpt lat="46.18618" lon="-1.39779">
        <ele>3</ele>
        <time>2025-06-30T20:23:20Z</time>
      </trkpt>
      <trkpt lat="46.18618" lon="-1.39773">
        <ele>2.6</ele>
        <time>2025-06-30T20:23:23Z</time>
      </trkpt>
      <trkpt lat="46.18618" lon="-1.39769">
        <ele>2.6</ele>
        <time>2025-06-30T20:23:25Z</time>
      </trkpt>
      <trkpt lat="46.18617" lon="-1.39765">
        <ele>2.6</ele>
        <time>2025-06-30T20:23:27Z</time>
      </trkpt>
      <trkpt lat="46.18616" lon="-1.39761">
        <ele>2.6</ele>
        <time>2025-06-30T20:23:29Z</time>
      </trkpt>
      <trkpt lat="46.18616" lon="-1.39752">
        <ele>2.6</ele>
        <time>2025-06-30T20:23:33Z</time>
      </trkpt>
      <trkpt lat="46.18616" lon="-1.39747">
        <ele>2.6</ele>
        <time>2025-06-30T20:23:36Z</time>
      </trkpt>
      <trkpt lat="46.18616" lon="-1.39745">
        <ele>2.6</ele>
        <time>2025-06-30T20:23:37Z</time>
      </trkpt>
      <trkpt lat="46.18617" lon="-1.39737">
        <ele>2.6</ele>
        <time>2025-06-30T20:23:41Z</time>
      </trkpt>
      <trkpt lat="46.18617" lon="-1.39734">
        <ele>2.6</ele>
        <time>2025-06-30T20:23:42Z</time>
      </trkpt>
      <trkpt lat="46.18617" lon="-1.39727">
        <ele>2.6</ele>
        <time>2025-06-30T20:23:46Z</time>
      </trkpt>
      <trkpt lat="46.18615" lon="-1.39712">
        <ele>2.6</ele>
        <time>2025-06-30T20:23:54Z</time>
      </trkpt>
      <trkpt lat="46.18615" lon="-1.39709">
        <ele>2.6</ele>
        <time>2025-06-30T20:23:56Z</time>
      </trkpt>
      <trkpt lat="46.18615" lon="-1.39708">
        <ele>2.6</ele>
        <time>2025-06-30T20:23:57Z</time>
      </trkpt>
      <trkpt lat="46.18614" lon="-1.39702">
        <ele>2.6</ele>
        <time>2025-06-30T20:24:00Z</time>
      </trkpt>
      <trkpt lat="46.18613" lon="-1.39701">
        <ele>2.6</ele>
        <time>2025-06-30T20:24:01Z</time>
      </trkpt>
      <trkpt lat="46.1861" lon="-1.39698">
        <ele>2.6</ele>
        <time>2025-06-30T20:24:03Z</time>
      </trkpt>
      <trkpt lat="46.1861" lon="-1.39697">
        <ele>2.6</ele>
        <time>2025-06-30T20:24:04Z</time>
      </trkpt>
      <trkpt lat="46.18611" lon="-1.3968">
        <ele>2.4</ele>
        <time>2025-06-30T20:24:12Z</time>
      </trkpt>
      <trkpt lat="46.18613" lon="-1.39662">
        <ele>2.4</ele>
        <time>2025-06-30T20:24:21Z</time>
      </trkpt>
      <trkpt lat="46.18613" lon="-1.39655">
        <ele>2.6</ele>
        <time>2025-06-30T20:24:24Z</time>
      </trkpt>
      <trkpt lat="46.18614" lon="-1.39651">
        <ele>2.6</ele>
        <time>2025-06-30T20:24:26Z</time>
      </trkpt>
      <trkpt lat="46.18615" lon="-1.39649">
        <ele>2.6</ele>
        <time>2025-06-30T20:24:27Z</time>
      </trkpt>
      <trkpt lat="46.18614" lon="-1.39647">
        <ele>2.6</ele>
        <time>2025-06-30T20:24:28Z</time>
      </trkpt>
      <trkpt lat="46.1861" lon="-1.3964">
        <ele>2.6</ele>
        <time>2025-06-30T20:24:32Z</time>
      </trkpt>
      <trkpt lat="46.1861" lon="-1.39638">
        <ele>2.6</ele>
        <time>2025-06-30T20:24:33Z</time>
      </trkpt>
      <trkpt lat="46.18612" lon="-1.3963">
        <ele>2.6</ele>
        <time>2025-06-30T20:24:37Z</time>
      </trkpt>
      <trkpt lat="46.18613" lon="-1.39624">
        <ele>2.6</ele>
        <time>2025-06-30T20:24:40Z</time>
      </trkpt>
      <trkpt lat="46.18614" lon="-1.3962">
        <ele>2.4</ele>
        <time>2025-06-30T20:24:42Z</time>
      </trkpt>
      <trkpt lat="46.18614" lon="-1.39618">
        <ele>2.4</ele>
        <time>2025-06-30T20:24:43Z</time>
      </trkpt>
      <trkpt lat="46.18617" lon="-1.39606">
        <ele>2.4</ele>
        <time>2025-06-30T20:24:49Z</time>
      </trkpt>
      <trkpt lat="46.18619" lon="-1.39592">
        <ele>2.4</ele>
        <time>2025-06-30T20:24:56Z</time>
      </trkpt>
      <trkpt lat="46.1862" lon="-1.39575">
        <ele>2.4</ele>
        <time>2025-06-30T20:25:05Z</time>
      </trkpt>
      <trkpt lat="46.18621" lon="-1.39572">
        <ele>2.4</ele>
        <time>2025-06-30T20:25:07Z</time>
      </trkpt>
      <trkpt lat="46.18623" lon="-1.39568">
        <ele>2.4</ele>
        <time>2025-06-30T20:25:09Z</time>
      </trkpt>
      <trkpt lat="46.18625" lon="-1.39564">
        <ele>2.4</ele>
        <time>2025-06-30T20:25:11Z</time>
      </trkpt>
      <trkpt lat="46.18626" lon="-1.39556">
        <ele>2.6</ele>
        <time>2025-06-30T20:25:16Z</time>
      </trkpt>
      <trkpt lat="46.18626" lon="-1.39549">
        <ele>2.6</ele>
        <time>2025-06-30T20:25:19Z</time>
      </trkpt>
      <trkpt lat="46.18626" lon="-1.39544">
        <ele>2.4</ele>
        <time>2025-06-30T20:25:22Z</time>
      </trkpt>
      <trkpt lat="46.18625" lon="-1.39542">
        <ele>2.4</ele>
        <time>2025-06-30T20:25:23Z</time>
      </trkpt>
      <trkpt lat="46.18624" lon="-1.39537">
        <ele>2.4</ele>
        <time>2025-06-30T20:25:26Z</time>
      </trkpt>
      <trkpt lat="46.18624" lon="-1.39533">
        <ele>2.4</ele>
        <time>2025-06-30T20:25:28Z</time>
      </trkpt>
      <trkpt lat="46.18622" lon="-1.39525">
        <ele>2.4</ele>
        <time>2025-06-30T20:25:32Z</time>
      </trkpt>
      <trkpt lat="46.1862" lon="-1.39511">
        <ele>2.4</ele>
        <time>2025-06-30T20:25:39Z</time>
      </trkpt>
      <trkpt lat="46.1862" lon="-1.39504">
        <ele>2.4</ele>
        <time>2025-06-30T20:25:43Z</time>
      </trkpt>
      <trkpt lat="46.18621" lon="-1.39501">
        <ele>2.4</ele>
        <time>2025-06-30T20:25:45Z</time>
      </trkpt>
      <trkpt lat="46.18621" lon="-1.39497">
        <ele>2.4</ele>
        <time>2025-06-30T20:25:47Z</time>
      </trkpt>
      <trkpt lat="46.18621" lon="-1.39489">
        <ele>2.4</ele>
        <time>2025-06-30T20:25:51Z</time>
      </trkpt>
      <trkpt lat="46.18621" lon="-1.39485">
        <ele>2.4</ele>
        <time>2025-06-30T20:25:53Z</time>
      </trkpt>
      <trkpt lat="46.1862" lon="-1.39481">
        <ele>2.4</ele>
        <time>2025-06-30T20:25:55Z</time>
      </trkpt>
      <trkpt lat="46.18619" lon="-1.39477">
        <ele>2.4</ele>
        <time>2025-06-30T20:25:57Z</time>
      </trkpt>
      <trkpt lat="46.18619" lon="-1.39476">
        <ele>2.4</ele>
        <time>2025-06-30T20:25:58Z</time>
      </trkpt>
      <trkpt lat="46.18619" lon="-1.39471">
        <ele>2.4</ele>
        <time>2025-06-30T20:26:01Z</time>
      </trkpt>
      <trkpt lat="46.1862" lon="-1.39462">
        <ele>2.4</ele>
        <time>2025-06-30T20:26:05Z</time>
      </trkpt>
      <trkpt lat="46.1862" lon="-1.39461">
        <ele>2.6</ele>
        <time>2025-06-30T20:26:06Z</time>
      </trkpt>
      <trkpt lat="46.1862" lon="-1.39459">
        <ele>2.6</ele>
        <time>2025-06-30T20:26:07Z</time>
      </trkpt>
      <trkpt lat="46.18621" lon="-1.39455">
        <ele>2.6</ele>
        <time>2025-06-30T20:26:09Z</time>
      </trkpt>
      <trkpt lat="46.1862" lon="-1.3945">
        <ele>2.6</ele>
        <time>2025-06-30T20:26:11Z</time>
      </trkpt>
      <trkpt lat="46.1862" lon="-1.39448">
        <ele>2.6</ele>
        <time>2025-06-30T20:26:12Z</time>
      </trkpt>
      <trkpt lat="46.18622" lon="-1.39443">
        <ele>2.6</ele>
        <time>2025-06-30T20:26:15Z</time>
      </trkpt>
      <trkpt lat="46.18623" lon="-1.39429">
        <ele>2.4</ele>
        <time>2025-06-30T20:26:23Z</time>
      </trkpt>
      <trkpt lat="46.18624" lon="-1.39415">
        <ele>2.4</ele>
        <time>2025-06-30T20:26:30Z</time>
      </trkpt>
      <trkpt lat="46.18625" lon="-1.39408">
        <ele>2.4</ele>
        <time>2025-06-30T20:26:33Z</time>
      </trkpt>
      <trkpt lat="46.18627" lon="-1.39402">
        <ele>2.4</ele>
        <time>2025-06-30T20:26:36Z</time>
      </trkpt>
      <trkpt lat="46.18626" lon="-1.39391">
        <ele>2.4</ele>
        <time>2025-06-30T20:26:42Z</time>
      </trkpt>
      <trkpt lat="46.18627" lon="-1.39389">
        <ele>2.4</ele>
        <time>2025-06-30T20:26:43Z</time>
      </trkpt>
      <trkpt lat="46.18627" lon="-1.39373">
        <ele>2.6</ele>
        <time>2025-06-30T20:26:52Z</time>
      </trkpt>
      <trkpt lat="46.18627" lon="-1.39363">
        <ele>2.4</ele>
        <time>2025-06-30T20:26:57Z</time>
      </trkpt>
      <trkpt lat="46.18628" lon="-1.39357">
        <ele>2.4</ele>
        <time>2025-06-30T20:27:00Z</time>
      </trkpt>
      <trkpt lat="46.1863" lon="-1.39345">
        <ele>2.6</ele>
        <time>2025-06-30T20:27:07Z</time>
      </trkpt>
      <trkpt lat="46.18631" lon="-1.39326">
        <ele>2.6</ele>
        <time>2025-06-30T20:27:17Z</time>
      </trkpt>
      <trkpt lat="46.18629" lon="-1.39315">
        <ele>2.8</ele>
        <time>2025-06-30T20:27:23Z</time>
      </trkpt>
      <trkpt lat="46.18628" lon="-1.39313">
        <ele>2.8</ele>
        <time>2025-06-30T20:27:24Z</time>
      </trkpt>
      <trkpt lat="46.18628" lon="-1.39311">
        <ele>2.8</ele>
        <time>2025-06-30T20:27:25Z</time>
      </trkpt>
      <trkpt lat="46.18627" lon="-1.39304">
        <ele>2.8</ele>
        <time>2025-06-30T20:27:29Z</time>
      </trkpt>
      <trkpt lat="46.18626" lon="-1.39302">
        <ele>2.8</ele>
        <time>2025-06-30T20:27:30Z</time>
      </trkpt>
      <trkpt lat="46.18625" lon="-1.39297">
        <ele>2.8</ele>
        <time>2025-06-30T20:27:32Z</time>
      </trkpt>
      <trkpt lat="46.18626" lon="-1.39292">
        <ele>2.8</ele>
        <time>2025-06-30T20:27:35Z</time>
      </trkpt>
      <trkpt lat="46.18626" lon="-1.39289">
        <ele>2.8</ele>
        <time>2025-06-30T20:27:37Z</time>
      </trkpt>
      <trkpt lat="46.18626" lon="-1.39285">
        <ele>2.8</ele>
        <time>2025-06-30T20:27:39Z</time>
      </trkpt>
      <trkpt lat="46.18629" lon="-1.39271">
        <ele>2.8</ele>
        <time>2025-06-30T20:27:46Z</time>
      </trkpt>
      <trkpt lat="46.18629" lon="-1.39269">
        <ele>2.8</ele>
        <time>2025-06-30T20:27:47Z</time>
      </trkpt>
      <trkpt lat="46.18629" lon="-1.39259">
        <ele>2.8</ele>
        <time>2025-06-30T20:27:52Z</time>
      </trkpt>
      <trkpt lat="46.1863" lon="-1.39257">
        <ele>2.8</ele>
        <time>2025-06-30T20:27:53Z</time>
      </trkpt>
      <trkpt lat="46.1863" lon="-1.3925">
        <ele>2.8</ele>
        <time>2025-06-30T20:27:57Z</time>
      </trkpt>
      <trkpt lat="46.18631" lon="-1.3924">
        <ele>2.8</ele>
        <time>2025-06-30T20:28:03Z</time>
      </trkpt>
      <trkpt lat="46.18632" lon="-1.39236">
        <ele>3</ele>
        <time>2025-06-30T20:28:05Z</time>
      </trkpt>
      <trkpt lat="46.18635" lon="-1.39229">
        <ele>3</ele>
        <time>2025-06-30T20:28:09Z</time>
      </trkpt>
      <trkpt lat="46.18636" lon="-1.39225">
        <ele>3.2</ele>
        <time>2025-06-30T20:28:11Z</time>
      </trkpt>
      <trkpt lat="46.18637" lon="-1.39214">
        <ele>2.8</ele>
        <time>2025-06-30T20:28:18Z</time>
      </trkpt>
      <trkpt lat="46.18637" lon="-1.39211">
        <ele>2.8</ele>
        <time>2025-06-30T20:28:20Z</time>
      </trkpt>
      <trkpt lat="46.18636" lon="-1.39203">
        <ele>2.8</ele>
        <time>2025-06-30T20:28:25Z</time>
      </trkpt>
      <trkpt lat="46.18636" lon="-1.3919">
        <ele>3</ele>
        <time>2025-06-30T20:28:32Z</time>
      </trkpt>
      <trkpt lat="46.18636" lon="-1.39189">
        <ele>3</ele>
        <time>2025-06-30T20:28:33Z</time>
      </trkpt>
      <trkpt lat="46.18636" lon="-1.39184">
        <ele>3</ele>
        <time>2025-06-30T20:28:35Z</time>
      </trkpt>
      <trkpt lat="46.18636" lon="-1.39179">
        <ele>3</ele>
        <time>2025-06-30T20:28:38Z</time>
      </trkpt>
      <trkpt lat="46.18635" lon="-1.39173">
        <ele>3</ele>
        <time>2025-06-30T20:28:41Z</time>
      </trkpt>
      <trkpt lat="46.18636" lon="-1.39163">
        <ele>3</ele>
        <time>2025-06-30T20:28:46Z</time>
      </trkpt>
      <trkpt lat="46.18632" lon="-1.3915">
        <ele>3.2</ele>
        <time>2025-06-30T20:28:53Z</time>
      </trkpt>
      <trkpt lat="46.18633" lon="-1.39148">
        <ele>3.2</ele>
        <time>2025-06-30T20:28:54Z</time>
      </trkpt>
      <trkpt lat="46.18634" lon="-1.39142">
        <ele>3.2</ele>
        <time>2025-06-30T20:28:57Z</time>
      </trkpt>
      <trkpt lat="46.18634" lon="-1.39139">
        <ele>3.2</ele>
        <time>2025-06-30T20:28:58Z</time>
      </trkpt>
      <trkpt lat="46.18633" lon="-1.39134">
        <ele>3.2</ele>
        <time>2025-06-30T20:29:00Z</time>
      </trkpt>
      <trkpt lat="46.18632" lon="-1.3913">
        <ele>3.2</ele>
        <time>2025-06-30T20:29:02Z</time>
      </trkpt>
      <trkpt lat="46.1863" lon="-1.39125">
        <ele>3.4</ele>
        <time>2025-06-30T20:29:05Z</time>
      </trkpt>
      <trkpt lat="46.1863" lon="-1.39121">
        <ele>3.4</ele>
        <time>2025-06-30T20:29:07Z</time>
      </trkpt>
      <trkpt lat="46.18629" lon="-1.39118">
        <ele>3.4</ele>
        <time>2025-06-30T20:29:09Z</time>
      </trkpt>
      <trkpt lat="46.18628" lon="-1.39115">
        <ele>3.4</ele>
        <time>2025-06-30T20:29:11Z</time>
      </trkpt>
      <trkpt lat="46.18627" lon="-1.39111">
        <ele>3.4</ele>
        <time>2025-06-30T20:29:14Z</time>
      </trkpt>
      <trkpt lat="46.18627" lon="-1.39112">
        <ele>3.4</ele>
        <time>2025-06-30T20:29:19Z</time>
      </trkpt>
      <trkpt lat="46.18625" lon="-1.39103">
        <ele>3.6</ele>
        <time>2025-06-30T20:29:24Z</time>
      </trkpt>
      <trkpt lat="46.18625" lon="-1.39101">
        <ele>3.6</ele>
        <time>2025-06-30T20:29:25Z</time>
      </trkpt>
      <trkpt lat="46.18626" lon="-1.39088">
        <ele>3.6</ele>
        <time>2025-06-30T20:29:31Z</time>
      </trkpt>
      <trkpt lat="46.18622" lon="-1.39078">
        <ele>3.6</ele>
        <time>2025-06-30T20:29:37Z</time>
      </trkpt>
      <trkpt lat="46.18621" lon="-1.3907">
        <ele>3.6</ele>
        <time>2025-06-30T20:29:41Z</time>
      </trkpt>
      <trkpt lat="46.18621" lon="-1.39065">
        <ele>3.6</ele>
        <time>2025-06-30T20:29:44Z</time>
      </trkpt>
      <trkpt lat="46.18619" lon="-1.39052">
        <ele>3.6</ele>
        <time>2025-06-30T20:29:50Z</time>
      </trkpt>
      <trkpt lat="46.1862" lon="-1.39047">
        <ele>3.4</ele>
        <time>2025-06-30T20:29:53Z</time>
      </trkpt>
      <trkpt lat="46.1862" lon="-1.39042">
        <ele>3.4</ele>
        <time>2025-06-30T20:29:55Z</time>
      </trkpt>
      <trkpt lat="46.18621" lon="-1.3904">
        <ele>3.4</ele>
        <time>2025-06-30T20:29:56Z</time>
      </trkpt>
      <trkpt lat="46.18624" lon="-1.39026">
        <ele>3.4</ele>
        <time>2025-06-30T20:30:03Z</time>
      </trkpt>
      <trkpt lat="46.18628" lon="-1.39012">
        <ele>3.6</ele>
        <time>2025-06-30T20:30:10Z</time>
      </trkpt>
      <trkpt lat="46.18631" lon="-1.39006">
        <ele>3.4</ele>
        <time>2025-06-30T20:30:14Z</time>
      </trkpt>
      <trkpt lat="46.1863" lon="-1.39004">
        <ele>3.6</ele>
        <time>2025-06-30T20:30:15Z</time>
      </trkpt>
      <trkpt lat="46.1863" lon="-1.39002">
        <ele>3.6</ele>
        <time>2025-06-30T20:30:16Z</time>
      </trkpt>
      <trkpt lat="46.18631" lon="-1.38998">
        <ele>3.6</ele>
        <time>2025-06-30T20:30:18Z</time>
      </trkpt>
      <trkpt lat="46.18632" lon="-1.38994">
        <ele>3.6</ele>
        <time>2025-06-30T20:30:20Z</time>
      </trkpt>
      <trkpt lat="46.18636" lon="-1.38981">
        <ele>3.4</ele>
        <time>2025-06-30T20:30:27Z</time>
      </trkpt>
      <trkpt lat="46.18636" lon="-1.38979">
        <ele>3.6</ele>
        <time>2025-06-30T20:30:28Z</time>
      </trkpt>
      <trkpt lat="46.1864" lon="-1.38963">
        <ele>3.6</ele>
        <time>2025-06-30T20:30:36Z</time>
      </trkpt>
      <trkpt lat="46.1864" lon="-1.3896">
        <ele>3.6</ele>
        <time>2025-06-30T20:30:37Z</time>
      </trkpt>
      <trkpt lat="46.18639" lon="-1.38959">
        <ele>3.6</ele>
        <time>2025-06-30T20:30:38Z</time>
      </trkpt>
      <trkpt lat="46.1864" lon="-1.38951">
        <ele>3.4</ele>
        <time>2025-06-30T20:30:42Z</time>
      </trkpt>
      <trkpt lat="46.18641" lon="-1.38941">
        <ele>3.2</ele>
        <time>2025-06-30T20:30:48Z</time>
      </trkpt>
      <trkpt lat="46.18641" lon="-1.38939">
        <ele>3.2</ele>
        <time>2025-06-30T20:30:49Z</time>
      </trkpt>
      <trkpt lat="46.18641" lon="-1.3893">
        <ele>3.2</ele>
        <time>2025-06-30T20:30:54Z</time>
      </trkpt>
      <trkpt lat="46.18641" lon="-1.3891">
        <ele>3.2</ele>
        <time>2025-06-30T20:31:04Z</time>
      </trkpt>
      <trkpt lat="46.1864" lon="-1.38909">
        <ele>3.2</ele>
        <time>2025-06-30T20:31:05Z</time>
      </trkpt>
      <trkpt lat="46.18637" lon="-1.38901">
        <ele>3</ele>
        <time>2025-06-30T20:31:09Z</time>
      </trkpt>
      <trkpt lat="46.18637" lon="-1.38884">
        <ele>3.2</ele>
        <time>2025-06-30T20:31:17Z</time>
      </trkpt>
      <trkpt lat="46.18637" lon="-1.38876">
        <ele>3</ele>
        <time>2025-06-30T20:31:21Z</time>
      </trkpt>
      <trkpt lat="46.18637" lon="-1.38874">
        <ele>3</ele>
        <time>2025-06-30T20:31:22Z</time>
      </trkpt>
      <trkpt lat="46.18637" lon="-1.38866">
        <ele>3.2</ele>
        <time>2025-06-30T20:31:26Z</time>
      </trkpt>
      <trkpt lat="46.18635" lon="-1.3886">
        <ele>3</ele>
        <time>2025-06-30T20:31:29Z</time>
      </trkpt>
      <trkpt lat="46.18634" lon="-1.38853">
        <ele>3</ele>
        <time>2025-06-30T20:31:33Z</time>
      </trkpt>
      <trkpt lat="46.18634" lon="-1.38848">
        <ele>3</ele>
        <time>2025-06-30T20:31:35Z</time>
      </trkpt>
      <trkpt lat="46.18633" lon="-1.38844">
        <ele>3</ele>
        <time>2025-06-30T20:31:37Z</time>
      </trkpt>
      <trkpt lat="46.18631" lon="-1.38836">
        <ele>3</ele>
        <time>2025-06-30T20:31:41Z</time>
      </trkpt>
      <trkpt lat="46.18631" lon="-1.38832">
        <ele>3</ele>
        <time>2025-06-30T20:31:43Z</time>
      </trkpt>
      <trkpt lat="46.1863" lon="-1.38828">
        <ele>2.8</ele>
        <time>2025-06-30T20:31:45Z</time>
      </trkpt>
      <trkpt lat="46.1863" lon="-1.38826">
        <ele>2.8</ele>
        <time>2025-06-30T20:31:46Z</time>
      </trkpt>
      <trkpt lat="46.18627" lon="-1.38809">
        <ele>3</ele>
        <time>2025-06-30T20:31:54Z</time>
      </trkpt>
      <trkpt lat="46.18626" lon="-1.38802">
        <ele>3</ele>
        <time>2025-06-30T20:31:57Z</time>
      </trkpt>
      <trkpt lat="46.18627" lon="-1.38797">
        <ele>2.8</ele>
        <time>2025-06-30T20:31:59Z</time>
      </trkpt>
      <trkpt lat="46.18626" lon="-1.38791">
        <ele>2.8</ele>
        <time>2025-06-30T20:32:02Z</time>
      </trkpt>
      <trkpt lat="46.18627" lon="-1.38789">
        <ele>2.8</ele>
        <time>2025-06-30T20:32:03Z</time>
      </trkpt>
      <trkpt lat="46.18626" lon="-1.38776">
        <ele>2.8</ele>
        <time>2025-06-30T20:32:09Z</time>
      </trkpt>
      <trkpt lat="46.18626" lon="-1.38767">
        <ele>2.8</ele>
        <time>2025-06-30T20:32:14Z</time>
      </trkpt>
      <trkpt lat="46.18626" lon="-1.38764">
        <ele>2.6</ele>
        <time>2025-06-30T20:32:15Z</time>
      </trkpt>
      <trkpt lat="46.18628" lon="-1.3875">
        <ele>2.6</ele>
        <time>2025-06-30T20:32:22Z</time>
      </trkpt>
      <trkpt lat="46.18628" lon="-1.38729">
        <ele>2.8</ele>
        <time>2025-06-30T20:32:33Z</time>
      </trkpt>
      <trkpt lat="46.18628" lon="-1.38724">
        <ele>2.8</ele>
        <time>2025-06-30T20:32:35Z</time>
      </trkpt>
      <trkpt lat="46.18628" lon="-1.38717">
        <ele>2.8</ele>
        <time>2025-06-30T20:32:39Z</time>
      </trkpt>
      <trkpt lat="46.18631" lon="-1.38698">
        <ele>3.6</ele>
        <time>2025-06-30T20:32:48Z</time>
      </trkpt>
      <trkpt lat="46.18633" lon="-1.38691">
        <ele>3.6</ele>
        <time>2025-06-30T20:32:52Z</time>
      </trkpt>
      <trkpt lat="46.18634" lon="-1.38687">
        <ele>3.6</ele>
        <time>2025-06-30T20:32:54Z</time>
      </trkpt>
      <trkpt lat="46.18638" lon="-1.38673">
        <ele>4.2</ele>
        <time>2025-06-30T20:33:01Z</time>
      </trkpt>
      <trkpt lat="46.18639" lon="-1.38666">
        <ele>4.2</ele>
        <time>2025-06-30T20:33:04Z</time>
      </trkpt>
      <trkpt lat="46.1864" lon="-1.38661">
        <ele>4.2</ele>
        <time>2025-06-30T20:33:07Z</time>
      </trkpt>
      <trkpt lat="46.18642" lon="-1.38651">
        <ele>4.6</ele>
        <time>2025-06-30T20:33:12Z</time>
      </trkpt>
      <trkpt lat="46.18643" lon="-1.38647">
        <ele>4.6</ele>
        <time>2025-06-30T20:33:14Z</time>
      </trkpt>
      <trkpt lat="46.18643" lon="-1.38641">
        <ele>4.8</ele>
        <time>2025-06-30T20:33:17Z</time>
      </trkpt>
      <trkpt lat="46.18643" lon="-1.38636">
        <ele>5</ele>
        <time>2025-06-30T20:33:20Z</time>
      </trkpt>
      <trkpt lat="46.18644" lon="-1.3863">
        <ele>5</ele>
        <time>2025-06-30T20:33:23Z</time>
      </trkpt>
      <trkpt lat="46.18644" lon="-1.38627">
        <ele>5</ele>
        <time>2025-06-30T20:33:25Z</time>
      </trkpt>
      <trkpt lat="46.18644" lon="-1.38623">
        <ele>4.8</ele>
        <time>2025-06-30T20:33:27Z</time>
      </trkpt>
      <trkpt lat="46.18644" lon="-1.38614">
        <ele>4.8</ele>
        <time>2025-06-30T20:33:31Z</time>
      </trkpt>
      <trkpt lat="46.18643" lon="-1.38608">
        <ele>4.6</ele>
        <time>2025-06-30T20:33:34Z</time>
      </trkpt>
      <trkpt lat="46.18643" lon="-1.38605">
        <ele>4.6</ele>
        <time>2025-06-30T20:33:36Z</time>
      </trkpt>
      <trkpt lat="46.18643" lon="-1.38596">
        <ele>4.6</ele>
        <time>2025-06-30T20:33:40Z</time>
      </trkpt>
      <trkpt lat="46.18644" lon="-1.38593">
        <ele>4.4</ele>
        <time>2025-06-30T20:33:42Z</time>
      </trkpt>
      <trkpt lat="46.18645" lon="-1.3858">
        <ele>4.4</ele>
        <time>2025-06-30T20:33:49Z</time>
      </trkpt>
      <trkpt lat="46.18646" lon="-1.3856">
        <ele>4.4</ele>
        <time>2025-06-30T20:33:58Z</time>
      </trkpt>
      <trkpt lat="46.18648" lon="-1.38548">
        <ele>4.2</ele>
        <time>2025-06-30T20:34:04Z</time>
      </trkpt>
      <trkpt lat="46.18649" lon="-1.38546">
        <ele>4.2</ele>
        <time>2025-06-30T20:34:05Z</time>
      </trkpt>
      <trkpt lat="46.18652" lon="-1.3853">
        <ele>4.6</ele>
        <time>2025-06-30T20:34:13Z</time>
      </trkpt>
      <trkpt lat="46.18654" lon="-1.38521">
        <ele>4.4</ele>
        <time>2025-06-30T20:34:18Z</time>
      </trkpt>
      <trkpt lat="46.18655" lon="-1.38519">
        <ele>4.2</ele>
        <time>2025-06-30T20:34:19Z</time>
      </trkpt>
      <trkpt lat="46.18655" lon="-1.38515">
        <ele>4.2</ele>
        <time>2025-06-30T20:34:21Z</time>
      </trkpt>
      <trkpt lat="46.18656" lon="-1.38509">
        <ele>4.2</ele>
        <time>2025-06-30T20:34:24Z</time>
      </trkpt>
      <trkpt lat="46.18656" lon="-1.38507">
        <ele>4.2</ele>
        <time>2025-06-30T20:34:25Z</time>
      </trkpt>
      <trkpt lat="46.18656" lon="-1.38496">
        <ele>4</ele>
        <time>2025-06-30T20:34:30Z</time>
      </trkpt>
      <trkpt lat="46.18658" lon="-1.38479">
        <ele>4</ele>
        <time>2025-06-30T20:34:38Z</time>
      </trkpt>
      <trkpt lat="46.18662" lon="-1.38464">
        <ele>4</ele>
        <time>2025-06-30T20:34:47Z</time>
      </trkpt>
      <trkpt lat="46.18666" lon="-1.38447">
        <ele>4.2</ele>
        <time>2025-06-30T20:34:56Z</time>
      </trkpt>
      <trkpt lat="46.1867" lon="-1.38434">
        <ele>4</ele>
        <time>2025-06-30T20:35:03Z</time>
      </trkpt>
      <trkpt lat="46.18676" lon="-1.38421">
        <ele>3.8</ele>
        <time>2025-06-30T20:35:11Z</time>
      </trkpt>
      <trkpt lat="46.18682" lon="-1.38407">
        <ele>3.8</ele>
        <time>2025-06-30T20:35:19Z</time>
      </trkpt>
      <trkpt lat="46.18683" lon="-1.38406">
        <ele>3.8</ele>
        <time>2025-06-30T20:35:20Z</time>
      </trkpt>
      <trkpt lat="46.18686" lon="-1.38394">
        <ele>4</ele>
        <time>2025-06-30T20:35:26Z</time>
      </trkpt>
      <trkpt lat="46.18688" lon="-1.38389">
        <ele>4.2</ele>
        <time>2025-06-30T20:35:29Z</time>
      </trkpt>
      <trkpt lat="46.18696" lon="-1.38373">
        <ele>4.2</ele>
        <time>2025-06-30T20:35:39Z</time>
      </trkpt>
      <trkpt lat="46.18702" lon="-1.38365">
        <ele>4</ele>
        <time>2025-06-30T20:35:45Z</time>
      </trkpt>
      <trkpt lat="46.18705" lon="-1.38362">
        <ele>4</ele>
        <time>2025-06-30T20:35:48Z</time>
      </trkpt>
      <trkpt lat="46.18708" lon="-1.38361">
        <ele>4</ele>
        <time>2025-06-30T20:35:50Z</time>
      </trkpt>
      <trkpt lat="46.18714" lon="-1.38349">
        <ele>4</ele>
        <time>2025-06-30T20:35:57Z</time>
      </trkpt>
      <trkpt lat="46.18721" lon="-1.38335">
        <ele>4</ele>
        <time>2025-06-30T20:36:04Z</time>
      </trkpt>
      <trkpt lat="46.18726" lon="-1.3833">
        <ele>4</ele>
        <time>2025-06-30T20:36:08Z</time>
      </trkpt>
      <trkpt lat="46.18728" lon="-1.38328">
        <ele>4</ele>
        <time>2025-06-30T20:36:10Z</time>
      </trkpt>
      <trkpt lat="46.1873" lon="-1.38324">
        <ele>4</ele>
        <time>2025-06-30T20:36:12Z</time>
      </trkpt>
      <trkpt lat="46.18733" lon="-1.38321">
        <ele>3.8</ele>
        <time>2025-06-30T20:36:19Z</time>
      </trkpt>
      <trkpt lat="46.18733" lon="-1.38323">
        <ele>3.8</ele>
        <time>2025-06-30T20:36:21Z</time>
      </trkpt>
      <trkpt lat="46.18734" lon="-1.3832">
        <ele>3.8</ele>
        <time>2025-06-30T20:36:23Z</time>
      </trkpt>
      <trkpt lat="46.1874" lon="-1.38308">
        <ele>3.8</ele>
        <time>2025-06-30T20:36:30Z</time>
      </trkpt>
      <trkpt lat="46.18746" lon="-1.38293">
        <ele>3.8</ele>
        <time>2025-06-30T20:36:38Z</time>
      </trkpt>
      <trkpt lat="46.1875" lon="-1.38278">
        <ele>3.8</ele>
        <time>2025-06-30T20:36:46Z</time>
      </trkpt>
      <trkpt lat="46.18753" lon="-1.38269">
        <ele>3.8</ele>
        <time>2025-06-30T20:36:51Z</time>
      </trkpt>
      <trkpt lat="46.18754" lon="-1.38265">
        <ele>3.8</ele>
        <time>2025-06-30T20:36:53Z</time>
      </trkpt>
      <trkpt lat="46.18755" lon="-1.38259">
        <ele>3.8</ele>
        <time>2025-06-30T20:36:56Z</time>
      </trkpt>
      <trkpt lat="46.18756" lon="-1.38256">
        <ele>3.8</ele>
        <time>2025-06-30T20:36:57Z</time>
      </trkpt>
      <trkpt lat="46.18756" lon="-1.38255">
        <ele>3.8</ele>
        <time>2025-06-30T20:36:58Z</time>
      </trkpt>
      <trkpt lat="46.18761" lon="-1.38237">
        <ele>3.8</ele>
        <time>2025-06-30T20:37:07Z</time>
      </trkpt>
      <trkpt lat="46.18761" lon="-1.38234">
        <ele>3.8</ele>
        <time>2025-06-30T20:37:09Z</time>
      </trkpt>
      <trkpt lat="46.18762" lon="-1.38226">
        <ele>3.8</ele>
        <time>2025-06-30T20:37:13Z</time>
      </trkpt>
      <trkpt lat="46.18767" lon="-1.38208">
        <ele>3.8</ele>
        <time>2025-06-30T20:37:22Z</time>
      </trkpt>
      <trkpt lat="46.1877" lon="-1.38191">
        <ele>4</ele>
        <time>2025-06-30T20:37:30Z</time>
      </trkpt>
      <trkpt lat="46.1877" lon="-1.38177">
        <ele>4</ele>
        <time>2025-06-30T20:37:37Z</time>
      </trkpt>
      <trkpt lat="46.18772" lon="-1.38162">
        <ele>4.2</ele>
        <time>2025-06-30T20:37:45Z</time>
      </trkpt>
      <trkpt lat="46.18771" lon="-1.38144">
        <ele>4.2</ele>
        <time>2025-06-30T20:37:54Z</time>
      </trkpt>
      <trkpt lat="46.18769" lon="-1.38125">
        <ele>4</ele>
        <time>2025-06-30T20:38:04Z</time>
      </trkpt>
      <trkpt lat="46.18764" lon="-1.3812">
        <ele>3.8</ele>
        <time>2025-06-30T20:38:09Z</time>
      </trkpt>
      <trkpt lat="46.18761" lon="-1.38118">
        <ele>4</ele>
        <time>2025-06-30T20:38:11Z</time>
      </trkpt>
      <trkpt lat="46.18749" lon="-1.38109">
        <ele>4.4</ele>
        <time>2025-06-30T20:38:21Z</time>
      </trkpt>
      <trkpt lat="46.18743" lon="-1.381">
        <ele>4.2</ele>
        <time>2025-06-30T20:38:28Z</time>
      </trkpt>
      <trkpt lat="46.18735" lon="-1.38082">
        <ele>4.6</ele>
        <time>2025-06-30T20:38:38Z</time>
      </trkpt>
      <trkpt lat="46.18735" lon="-1.3808">
        <ele>5</ele>
        <time>2025-06-30T20:38:39Z</time>
      </trkpt>
      <trkpt lat="46.18729" lon="-1.38065">
        <ele>4.8</ele>
        <time>2025-06-30T20:38:48Z</time>
      </trkpt>
      <trkpt lat="46.18723" lon="-1.38051">
        <ele>4.6</ele>
        <time>2025-06-30T20:38:56Z</time>
      </trkpt>
      <trkpt lat="46.18716" lon="-1.3804">
        <ele>4.4</ele>
        <time>2025-06-30T20:39:03Z</time>
      </trkpt>
      <trkpt lat="46.1871" lon="-1.38029">
        <ele>4.2</ele>
        <time>2025-06-30T20:39:09Z</time>
      </trkpt>
      <trkpt lat="46.18703" lon="-1.38016">
        <ele>4.2</ele>
        <time>2025-06-30T20:39:17Z</time>
      </trkpt>
      <trkpt lat="46.18695" lon="-1.38">
        <ele>4.4</ele>
        <time>2025-06-30T20:39:27Z</time>
      </trkpt>
      <trkpt lat="46.18688" lon="-1.37985">
        <ele>4</ele>
        <time>2025-06-30T20:39:36Z</time>
      </trkpt>
      <trkpt lat="46.18687" lon="-1.37983">
        <ele>3.8</ele>
        <time>2025-06-30T20:39:37Z</time>
      </trkpt>
      <trkpt lat="46.18687" lon="-1.37978">
        <ele>3.6</ele>
        <time>2025-06-30T20:39:39Z</time>
      </trkpt>
      <trkpt lat="46.18686" lon="-1.37975">
        <ele>3.4</ele>
        <time>2025-06-30T20:39:41Z</time>
      </trkpt>
      <trkpt lat="46.18683" lon="-1.37967">
        <ele>3.4</ele>
        <time>2025-06-30T20:39:45Z</time>
      </trkpt>
      <trkpt lat="46.18673" lon="-1.37951">
        <ele>3</ele>
        <time>2025-06-30T20:39:54Z</time>
      </trkpt>
      <trkpt lat="46.18672" lon="-1.3795">
        <ele>3</ele>
        <time>2025-06-30T20:39:55Z</time>
      </trkpt>
      <trkpt lat="46.18669" lon="-1.37944">
        <ele>3</ele>
        <time>2025-06-30T20:39:59Z</time>
      </trkpt>
      <trkpt lat="46.18668" lon="-1.37941">
        <ele>2.8</ele>
        <time>2025-06-30T20:40:01Z</time>
      </trkpt>
      <trkpt lat="46.1866" lon="-1.3793">
        <ele>2.8</ele>
        <time>2025-06-30T20:40:08Z</time>
      </trkpt>
      <trkpt lat="46.18658" lon="-1.37927">
        <ele>2.8</ele>
        <time>2025-06-30T20:40:10Z</time>
      </trkpt>
      <trkpt lat="46.18657" lon="-1.37924">
        <ele>2.8</ele>
        <time>2025-06-30T20:40:12Z</time>
      </trkpt>
      <trkpt lat="46.18654" lon="-1.37919">
        <ele>2.6</ele>
        <time>2025-06-30T20:40:15Z</time>
      </trkpt>
      <trkpt lat="46.18646" lon="-1.37906">
        <ele>2.6</ele>
        <time>2025-06-30T20:40:23Z</time>
      </trkpt>
      <trkpt lat="46.18638" lon="-1.37893">
        <ele>2.6</ele>
        <time>2025-06-30T20:40:31Z</time>
      </trkpt>
      <trkpt lat="46.18632" lon="-1.37884">
        <ele>2.6</ele>
        <time>2025-06-30T20:40:36Z</time>
      </trkpt>
      <trkpt lat="46.18625" lon="-1.37873">
        <ele>2.6</ele>
        <time>2025-06-30T20:40:44Z</time>
      </trkpt>
      <trkpt lat="46.18619" lon="-1.37868">
        <ele>3</ele>
        <time>2025-06-30T20:40:51Z</time>
      </trkpt>
      <trkpt lat="46.18613" lon="-1.37862">
        <ele>2.8</ele>
        <time>2025-06-30T20:40:57Z</time>
      </trkpt>
      <trkpt lat="46.18607" lon="-1.37851">
        <ele>3</ele>
        <time>2025-06-30T20:41:02Z</time>
      </trkpt>
      <trkpt lat="46.18605" lon="-1.37848">
        <ele>3</ele>
        <time>2025-06-30T20:41:04Z</time>
      </trkpt>
      <trkpt lat="46.18602" lon="-1.37846">
        <ele>3</ele>
        <time>2025-06-30T20:41:06Z</time>
      </trkpt>
      <trkpt lat="46.18598" lon="-1.37841">
        <ele>3.2</ele>
        <time>2025-06-30T20:41:10Z</time>
      </trkpt>
      <trkpt lat="46.18592" lon="-1.37837">
        <ele>3.4</ele>
        <time>2025-06-30T20:41:14Z</time>
      </trkpt>
      <trkpt lat="46.18589" lon="-1.37833">
        <ele>3.6</ele>
        <time>2025-06-30T20:41:17Z</time>
      </trkpt>
      <trkpt lat="46.18588" lon="-1.37832">
        <ele>3.6</ele>
        <time>2025-06-30T20:41:18Z</time>
      </trkpt>
      <trkpt lat="46.18581" lon="-1.37826">
        <ele>4.2</ele>
        <time>2025-06-30T20:41:24Z</time>
      </trkpt>
      <trkpt lat="46.18577" lon="-1.3782">
        <ele>4.4</ele>
        <time>2025-06-30T20:41:28Z</time>
      </trkpt>
      <trkpt lat="46.18575" lon="-1.37819">
        <ele>4.6</ele>
        <time>2025-06-30T20:41:30Z</time>
      </trkpt>
      <trkpt lat="46.18564" lon="-1.3781">
        <ele>5.2</ele>
        <time>2025-06-30T20:41:38Z</time>
      </trkpt>
      <trkpt lat="46.18556" lon="-1.37802">
        <ele>5.6</ele>
        <time>2025-06-30T20:41:44Z</time>
      </trkpt>
      <trkpt lat="46.18553" lon="-1.378">
        <ele>5.6</ele>
        <time>2025-06-30T20:41:46Z</time>
      </trkpt>
      <trkpt lat="46.18552" lon="-1.37799">
        <ele>5.6</ele>
        <time>2025-06-30T20:41:47Z</time>
      </trkpt>
      <trkpt lat="46.18543" lon="-1.37788">
        <ele>5.8</ele>
        <time>2025-06-30T20:41:55Z</time>
      </trkpt>
      <trkpt lat="46.18535" lon="-1.37782">
        <ele>5.8</ele>
        <time>2025-06-30T20:42:01Z</time>
      </trkpt>
      <trkpt lat="46.18529" lon="-1.37779">
        <ele>5.8</ele>
        <time>2025-06-30T20:42:05Z</time>
      </trkpt>
      <trkpt lat="46.18522" lon="-1.37773">
        <ele>6</ele>
        <time>2025-06-30T20:42:11Z</time>
      </trkpt>
      <trkpt lat="46.18518" lon="-1.37769">
        <ele>6</ele>
        <time>2025-06-30T20:42:14Z</time>
      </trkpt>
      <trkpt lat="46.18507" lon="-1.37759">
        <ele>6</ele>
        <time>2025-06-30T20:42:21Z</time>
      </trkpt>
      <trkpt lat="46.18505" lon="-1.37758">
        <ele>6</ele>
        <time>2025-06-30T20:42:23Z</time>
      </trkpt>
      <trkpt lat="46.18496" lon="-1.37753">
        <ele>6.2</ele>
        <time>2025-06-30T20:42:31Z</time>
      </trkpt>
      <trkpt lat="46.18484" lon="-1.37748">
        <ele>6.6</ele>
        <time>2025-06-30T20:42:38Z</time>
      </trkpt>
      <trkpt lat="46.18483" lon="-1.37747">
        <ele>6.6</ele>
        <time>2025-06-30T20:42:40Z</time>
      </trkpt>
      <trkpt lat="46.18478" lon="-1.37744">
        <ele>6.4</ele>
        <time>2025-06-30T20:42:44Z</time>
      </trkpt>
      <trkpt lat="46.18477" lon="-1.37743">
        <ele>6.4</ele>
        <time>2025-06-30T20:42:45Z</time>
      </trkpt>
      <trkpt lat="46.18464" lon="-1.37735">
        <ele>6.6</ele>
        <time>2025-06-30T20:42:53Z</time>
      </trkpt>
      <trkpt lat="46.18455" lon="-1.37729">
        <ele>6.8</ele>
        <time>2025-06-30T20:43:01Z</time>
      </trkpt>
      <trkpt lat="46.18444" lon="-1.37725">
        <ele>7</ele>
        <time>2025-06-30T20:43:08Z</time>
      </trkpt>
      <trkpt lat="46.18433" lon="-1.3772">
        <ele>6.8</ele>
        <time>2025-06-30T20:43:16Z</time>
      </trkpt>
      <trkpt lat="46.18425" lon="-1.37717">
        <ele>6.6</ele>
        <time>2025-06-30T20:43:22Z</time>
      </trkpt>
      <trkpt lat="46.18412" lon="-1.37707">
        <ele>6.6</ele>
        <time>2025-06-30T20:43:31Z</time>
      </trkpt>
      <trkpt lat="46.18398" lon="-1.37702">
        <ele>6.4</ele>
        <time>2025-06-30T20:43:41Z</time>
      </trkpt>
      <trkpt lat="46.18387" lon="-1.37697">
        <ele>6.2</ele>
        <time>2025-06-30T20:43:49Z</time>
      </trkpt>
      <trkpt lat="46.18374" lon="-1.37698">
        <ele>6.4</ele>
        <time>2025-06-30T20:43:57Z</time>
      </trkpt>
      <trkpt lat="46.1837" lon="-1.37697">
        <ele>6.4</ele>
        <time>2025-06-30T20:44:01Z</time>
      </trkpt>
      <trkpt lat="46.18365" lon="-1.37696">
        <ele>6.6</ele>
        <time>2025-06-30T20:44:04Z</time>
      </trkpt>
      <trkpt lat="46.18364" lon="-1.37695">
        <ele>6.4</ele>
        <time>2025-06-30T20:44:05Z</time>
      </trkpt>
      <trkpt lat="46.18361" lon="-1.37695">
        <ele>6.4</ele>
        <time>2025-06-30T20:44:08Z</time>
      </trkpt>
      <trkpt lat="46.18359" lon="-1.37696">
        <ele>6.4</ele>
        <time>2025-06-30T20:44:10Z</time>
      </trkpt>
      <trkpt lat="46.18357" lon="-1.37695">
        <ele>6.4</ele>
        <time>2025-06-30T20:44:11Z</time>
      </trkpt>
      <trkpt lat="46.18356" lon="-1.37695">
        <ele>6.4</ele>
        <time>2025-06-30T20:44:12Z</time>
      </trkpt>
      <trkpt lat="46.18351" lon="-1.37694">
        <ele>6.6</ele>
        <time>2025-06-30T20:44:15Z</time>
      </trkpt>
      <trkpt lat="46.18341" lon="-1.37686">
        <ele>6.4</ele>
        <time>2025-06-30T20:44:24Z</time>
      </trkpt>
      <trkpt lat="46.18339" lon="-1.37672">
        <ele>6</ele>
        <time>2025-06-30T20:44:31Z</time>
      </trkpt>
      <trkpt lat="46.1834" lon="-1.3767">
        <ele>6.2</ele>
        <time>2025-06-30T20:44:32Z</time>
      </trkpt>
      <trkpt lat="46.18341" lon="-1.37663">
        <ele>6.2</ele>
        <time>2025-06-30T20:44:36Z</time>
      </trkpt>
      <trkpt lat="46.18342" lon="-1.37661">
        <ele>6.2</ele>
        <time>2025-06-30T20:44:37Z</time>
      </trkpt>
      <trkpt lat="46.18339" lon="-1.37644">
        <ele>6.4</ele>
        <time>2025-06-30T20:44:45Z</time>
      </trkpt>
      <trkpt lat="46.18338" lon="-1.37642">
        <ele>6.4</ele>
        <time>2025-06-30T20:44:46Z</time>
      </trkpt>
      <trkpt lat="46.18337" lon="-1.37639">
        <ele>6.4</ele>
        <time>2025-06-30T20:44:48Z</time>
      </trkpt>
      <trkpt lat="46.18336" lon="-1.37638">
        <ele>6.4</ele>
        <time>2025-06-30T20:44:49Z</time>
      </trkpt>
      <trkpt lat="46.18331" lon="-1.37623">
        <ele>6.6</ele>
        <time>2025-06-30T20:44:58Z</time>
      </trkpt>
      <trkpt lat="46.18327" lon="-1.37608">
        <ele>6.8</ele>
        <time>2025-06-30T20:45:05Z</time>
      </trkpt>
      <trkpt lat="46.18327" lon="-1.37599">
        <ele>6.8</ele>
        <time>2025-06-30T20:45:09Z</time>
      </trkpt>
      <trkpt lat="46.18327" lon="-1.37595">
        <ele>6.8</ele>
        <time>2025-06-30T20:45:11Z</time>
      </trkpt>
      <trkpt lat="46.18327" lon="-1.37592">
        <ele>6.6</ele>
        <time>2025-06-30T20:45:13Z</time>
      </trkpt>
      <trkpt lat="46.18325" lon="-1.3759">
        <ele>6.6</ele>
        <time>2025-06-30T20:45:14Z</time>
      </trkpt>
      <trkpt lat="46.18324" lon="-1.37589">
        <ele>6.8</ele>
        <time>2025-06-30T20:45:15Z</time>
      </trkpt>
      <trkpt lat="46.18319" lon="-1.37581">
        <ele>6.8</ele>
        <time>2025-06-30T20:45:19Z</time>
      </trkpt>
      <trkpt lat="46.18317" lon="-1.37577">
        <ele>6.6</ele>
        <time>2025-06-30T20:45:21Z</time>
      </trkpt>
      <trkpt lat="46.18315" lon="-1.37571">
        <ele>6.4</ele>
        <time>2025-06-30T20:45:24Z</time>
      </trkpt>
      <trkpt lat="46.18315" lon="-1.37568">
        <ele>6.6</ele>
        <time>2025-06-30T20:45:26Z</time>
      </trkpt>
      <trkpt lat="46.18315" lon="-1.37562">
        <ele>6.6</ele>
        <time>2025-06-30T20:45:29Z</time>
      </trkpt>
      <trkpt lat="46.18312" lon="-1.37554">
        <ele>6.8</ele>
        <time>2025-06-30T20:45:34Z</time>
      </trkpt>
      <trkpt lat="46.18312" lon="-1.37553">
        <ele>6.8</ele>
        <time>2025-06-30T20:45:35Z</time>
      </trkpt>
      <trkpt lat="46.1831" lon="-1.37536">
        <ele>6.8</ele>
        <time>2025-06-30T20:45:43Z</time>
      </trkpt>
      <trkpt lat="46.18308" lon="-1.37523">
        <ele>7.4</ele>
        <time>2025-06-30T20:45:50Z</time>
      </trkpt>
      <trkpt lat="46.18308" lon="-1.37522">
        <ele>7.4</ele>
        <time>2025-06-30T20:45:51Z</time>
      </trkpt>
      <trkpt lat="46.18307" lon="-1.37516">
        <ele>7.2</ele>
        <time>2025-06-30T20:45:54Z</time>
      </trkpt>
      <trkpt lat="46.18305" lon="-1.37513">
        <ele>7.2</ele>
        <time>2025-06-30T20:45:56Z</time>
      </trkpt>
      <trkpt lat="46.183" lon="-1.37501">
        <ele>7.2</ele>
        <time>2025-06-30T20:46:03Z</time>
      </trkpt>
      <trkpt lat="46.18299" lon="-1.37499">
        <ele>7.2</ele>
        <time>2025-06-30T20:46:04Z</time>
      </trkpt>
      <trkpt lat="46.18292" lon="-1.37478">
        <ele>7.2</ele>
        <time>2025-06-30T20:46:14Z</time>
      </trkpt>
      <trkpt lat="46.1829" lon="-1.37464">
        <ele>7.2</ele>
        <time>2025-06-30T20:46:21Z</time>
      </trkpt>
      <trkpt lat="46.1829" lon="-1.37461">
        <ele>7.2</ele>
        <time>2025-06-30T20:46:23Z</time>
      </trkpt>
      <trkpt lat="46.18289" lon="-1.37455">
        <ele>7.2</ele>
        <time>2025-06-30T20:46:26Z</time>
      </trkpt>
      <trkpt lat="46.18289" lon="-1.37452">
        <ele>7.2</ele>
        <time>2025-06-30T20:46:27Z</time>
      </trkpt>
      <trkpt lat="46.18289" lon="-1.37445">
        <ele>7</ele>
        <time>2025-06-30T20:46:30Z</time>
      </trkpt>
      <trkpt lat="46.18289" lon="-1.37441">
        <ele>7</ele>
        <time>2025-06-30T20:46:32Z</time>
      </trkpt>
      <trkpt lat="46.18288" lon="-1.37437">
        <ele>7.2</ele>
        <time>2025-06-30T20:46:34Z</time>
      </trkpt>
      <trkpt lat="46.18287" lon="-1.37432">
        <ele>7.2</ele>
        <time>2025-06-30T20:46:36Z</time>
      </trkpt>
      <trkpt lat="46.18288" lon="-1.37426">
        <ele>7</ele>
        <time>2025-06-30T20:46:39Z</time>
      </trkpt>
      <trkpt lat="46.1829" lon="-1.3742">
        <ele>7</ele>
        <time>2025-06-30T20:46:42Z</time>
      </trkpt>
      <trkpt lat="46.18291" lon="-1.37413">
        <ele>7</ele>
        <time>2025-06-30T20:46:45Z</time>
      </trkpt>
      <trkpt lat="46.18291" lon="-1.3741">
        <ele>7</ele>
        <time>2025-06-30T20:46:47Z</time>
      </trkpt>
      <trkpt lat="46.1829" lon="-1.37405">
        <ele>7</ele>
        <time>2025-06-30T20:46:50Z</time>
      </trkpt>
      <trkpt lat="46.18284" lon="-1.37393">
        <ele>7.2</ele>
        <time>2025-06-30T20:46:58Z</time>
      </trkpt>
      <trkpt lat="46.18283" lon="-1.37386">
        <ele>7.2</ele>
        <time>2025-06-30T20:47:01Z</time>
      </trkpt>
      <trkpt lat="46.18283" lon="-1.37381">
        <ele>7.2</ele>
        <time>2025-06-30T20:47:04Z</time>
      </trkpt>
      <trkpt lat="46.18281" lon="-1.37376">
        <ele>7.2</ele>
        <time>2025-06-30T20:47:07Z</time>
      </trkpt>
      <trkpt lat="46.1828" lon="-1.37371">
        <ele>7.2</ele>
        <time>2025-06-30T20:47:09Z</time>
      </trkpt>
      <trkpt lat="46.18278" lon="-1.3737">
        <ele>7.2</ele>
        <time>2025-06-30T20:47:10Z</time>
      </trkpt>
      <trkpt lat="46.18274" lon="-1.37357">
        <ele>7</ele>
        <time>2025-06-30T20:47:17Z</time>
      </trkpt>
      <trkpt lat="46.18271" lon="-1.37348">
        <ele>7</ele>
        <time>2025-06-30T20:47:21Z</time>
      </trkpt>
      <trkpt lat="46.18267" lon="-1.37339">
        <ele>6.8</ele>
        <time>2025-06-30T20:47:25Z</time>
      </trkpt>
      <trkpt lat="46.18262" lon="-1.37327">
        <ele>6.8</ele>
        <time>2025-06-30T20:47:32Z</time>
      </trkpt>
      <trkpt lat="46.18253" lon="-1.37315">
        <ele>6.8</ele>
        <time>2025-06-30T20:47:40Z</time>
      </trkpt>
      <trkpt lat="46.18252" lon="-1.37314">
        <ele>7</ele>
        <time>2025-06-30T20:47:41Z</time>
      </trkpt>
      <trkpt lat="46.18252" lon="-1.37311">
        <ele>7</ele>
        <time>2025-06-30T20:47:43Z</time>
      </trkpt>
      <trkpt lat="46.18253" lon="-1.37308">
        <ele>7.2</ele>
        <time>2025-06-30T20:47:45Z</time>
      </trkpt>
      <trkpt lat="46.18261" lon="-1.37305">
        <ele>7.4</ele>
        <time>2025-06-30T20:47:51Z</time>
      </trkpt>
      <trkpt lat="46.18262" lon="-1.37304">
        <ele>7.4</ele>
        <time>2025-06-30T20:47:52Z</time>
      </trkpt>
      <trkpt lat="46.18263" lon="-1.37303">
        <ele>7.4</ele>
        <time>2025-06-30T20:47:53Z</time>
      </trkpt>
      <trkpt lat="46.18268" lon="-1.373">
        <ele>7.4</ele>
        <time>2025-06-30T20:47:57Z</time>
      </trkpt>
      <trkpt lat="46.1827" lon="-1.37297">
        <ele>7.4</ele>
        <time>2025-06-30T20:47:59Z</time>
      </trkpt>
      <trkpt lat="46.1827" lon="-1.37294">
        <ele>7.6</ele>
        <time>2025-06-30T20:48:01Z</time>
      </trkpt>
      <trkpt lat="46.18269" lon="-1.37292">
        <ele>7.6</ele>
        <time>2025-06-30T20:48:02Z</time>
      </trkpt>
      <trkpt lat="46.18268" lon="-1.37291">
        <ele>7.6</ele>
        <time>2025-06-30T20:48:03Z</time>
      </trkpt>
      <trkpt lat="46.18264" lon="-1.3729">
        <ele>7.8</ele>
        <time>2025-06-30T20:48:07Z</time>
      </trkpt>
      <trkpt lat="46.18264" lon="-1.3729">
        <ele>8</ele>
        <time>2025-06-30T20:48:10Z</time>
      </trkpt>
      <trkpt lat="46.1826" lon="-1.37286">
        <ele>7.6</ele>
        <time>2025-06-30T20:48:14Z</time>
      </trkpt>
      <trkpt lat="46.18258" lon="-1.37285">
        <ele>7.6</ele>
        <time>2025-06-30T20:48:15Z</time>
      </trkpt>
      <trkpt lat="46.18248" lon="-1.37288">
        <ele>7.4</ele>
        <time>2025-06-30T20:48:22Z</time>
      </trkpt>
      <trkpt lat="46.18239" lon="-1.37283">
        <ele>7.2</ele>
        <time>2025-06-30T20:48:29Z</time>
      </trkpt>
      <trkpt lat="46.18231" lon="-1.3727">
        <ele>6.8</ele>
        <time>2025-06-30T20:48:38Z</time>
      </trkpt>
      <trkpt lat="46.18228" lon="-1.37252">
        <ele>6.8</ele>
        <time>2025-06-30T20:48:47Z</time>
      </trkpt>
      <trkpt lat="46.18228" lon="-1.37238">
        <ele>7.2</ele>
        <time>2025-06-30T20:48:54Z</time>
      </trkpt>
      <trkpt lat="46.18227" lon="-1.37218">
        <ele>7.4</ele>
        <time>2025-06-30T20:49:03Z</time>
      </trkpt>
      <trkpt lat="46.18226" lon="-1.37212">
        <ele>7.4</ele>
        <time>2025-06-30T20:49:06Z</time>
      </trkpt>
      <trkpt lat="46.18226" lon="-1.37203">
        <ele>7.4</ele>
        <time>2025-06-30T20:49:10Z</time>
      </trkpt>
      <trkpt lat="46.18225" lon="-1.37183">
        <ele>7.6</ele>
        <time>2025-06-30T20:49:20Z</time>
      </trkpt>
      <trkpt lat="46.18226" lon="-1.37169">
        <ele>7.6</ele>
        <time>2025-06-30T20:49:27Z</time>
      </trkpt>
      <trkpt lat="46.18223" lon="-1.3715">
        <ele>7.8</ele>
        <time>2025-06-30T20:49:35Z</time>
      </trkpt>
      <trkpt lat="46.18221" lon="-1.37144">
        <ele>7.8</ele>
        <time>2025-06-30T20:49:38Z</time>
      </trkpt>
      <trkpt lat="46.1822" lon="-1.3714">
        <ele>7.8</ele>
        <time>2025-06-30T20:49:40Z</time>
      </trkpt>
      <trkpt lat="46.18218" lon="-1.37128">
        <ele>7.8</ele>
        <time>2025-06-30T20:49:46Z</time>
      </trkpt>
      <trkpt lat="46.18218" lon="-1.37125">
        <ele>7.8</ele>
        <time>2025-06-30T20:49:48Z</time>
      </trkpt>
      <trkpt lat="46.18217" lon="-1.37119">
        <ele>7.8</ele>
        <time>2025-06-30T20:49:51Z</time>
      </trkpt>
      <trkpt lat="46.18217" lon="-1.37117">
        <ele>7.8</ele>
        <time>2025-06-30T20:49:52Z</time>
      </trkpt>
      <trkpt lat="46.18219" lon="-1.37106">
        <ele>7.8</ele>
        <time>2025-06-30T20:49:57Z</time>
      </trkpt>
      <trkpt lat="46.18217" lon="-1.371">
        <ele>8</ele>
        <time>2025-06-30T20:50:00Z</time>
      </trkpt>
      <trkpt lat="46.18216" lon="-1.37095">
        <ele>8</ele>
        <time>2025-06-30T20:50:03Z</time>
      </trkpt>
      <trkpt lat="46.18213" lon="-1.37079">
        <ele>7.8</ele>
        <time>2025-06-30T20:50:11Z</time>
      </trkpt>
      <trkpt lat="46.1821" lon="-1.37061">
        <ele>8</ele>
        <time>2025-06-30T20:50:19Z</time>
      </trkpt>
      <trkpt lat="46.1821" lon="-1.3706">
        <ele>8</ele>
        <time>2025-06-30T20:50:20Z</time>
      </trkpt>
      <trkpt lat="46.1821" lon="-1.37057">
        <ele>8</ele>
        <time>2025-06-30T20:50:22Z</time>
      </trkpt>
      <trkpt lat="46.18209" lon="-1.37055">
        <ele>8.2</ele>
        <time>2025-06-30T20:50:23Z</time>
      </trkpt>
      <trkpt lat="46.18209" lon="-1.37053">
        <ele>8.2</ele>
        <time>2025-06-30T20:50:24Z</time>
      </trkpt>
      <trkpt lat="46.18209" lon="-1.37045">
        <ele>8.4</ele>
        <time>2025-06-30T20:50:28Z</time>
      </trkpt>
      <trkpt lat="46.18208" lon="-1.37037">
        <ele>8.4</ele>
        <time>2025-06-30T20:50:33Z</time>
      </trkpt>
      <trkpt lat="46.1821" lon="-1.37034">
        <ele>8.4</ele>
        <time>2025-06-30T20:50:35Z</time>
      </trkpt>
      <trkpt lat="46.18213" lon="-1.37023">
        <ele>8.6</ele>
        <time>2025-06-30T20:50:40Z</time>
      </trkpt>
      <trkpt lat="46.18215" lon="-1.37021">
        <ele>8.6</ele>
        <time>2025-06-30T20:50:42Z</time>
      </trkpt>
      <trkpt lat="46.18216" lon="-1.37019">
        <ele>8.6</ele>
        <time>2025-06-30T20:50:43Z</time>
      </trkpt>
      <trkpt lat="46.18223" lon="-1.37006">
        <ele>8.8</ele>
        <time>2025-06-30T20:50:51Z</time>
      </trkpt>
      <trkpt lat="46.18226" lon="-1.36996">
        <ele>9.4</ele>
        <time>2025-06-30T20:50:57Z</time>
      </trkpt>
      <trkpt lat="46.18226" lon="-1.36994">
        <ele>9.2</ele>
        <time>2025-06-30T20:50:58Z</time>
      </trkpt>
      <trkpt lat="46.18227" lon="-1.36988">
        <ele>9</ele>
        <time>2025-06-30T20:51:02Z</time>
      </trkpt>
      <trkpt lat="46.18229" lon="-1.36987">
        <ele>8.8</ele>
        <time>2025-06-30T20:51:04Z</time>
      </trkpt>
      <trkpt lat="46.18239" lon="-1.36988">
        <ele>9</ele>
        <time>2025-06-30T20:51:12Z</time>
      </trkpt>
      <trkpt lat="46.18251" lon="-1.3699">
        <ele>9</ele>
        <time>2025-06-30T20:51:21Z</time>
      </trkpt>
      <trkpt lat="46.18261" lon="-1.36983">
        <ele>9.4</ele>
        <time>2025-06-30T20:51:30Z</time>
      </trkpt>
      <trkpt lat="46.18264" lon="-1.36978">
        <ele>9.2</ele>
        <time>2025-06-30T20:51:33Z</time>
      </trkpt>
      <trkpt lat="46.18265" lon="-1.36973">
        <ele>9.2</ele>
        <time>2025-06-30T20:51:35Z</time>
      </trkpt>
      <trkpt lat="46.18266" lon="-1.36971">
        <ele>9.4</ele>
        <time>2025-06-30T20:51:36Z</time>
      </trkpt>
      <trkpt lat="46.18267" lon="-1.36957">
        <ele>9.2</ele>
        <time>2025-06-30T20:51:44Z</time>
      </trkpt>
      <trkpt lat="46.18267" lon="-1.36947">
        <ele>9.2</ele>
        <time>2025-06-30T20:51:51Z</time>
      </trkpt>
      <trkpt lat="46.18267" lon="-1.36945">
        <ele>9.2</ele>
        <time>2025-06-30T20:51:52Z</time>
      </trkpt>
      <trkpt lat="46.18269" lon="-1.36935">
        <ele>9.2</ele>
        <time>2025-06-30T20:51:57Z</time>
      </trkpt>
      <trkpt lat="46.18271" lon="-1.36928">
        <ele>9.2</ele>
        <time>2025-06-30T20:52:00Z</time>
      </trkpt>
      <trkpt lat="46.18272" lon="-1.36925">
        <ele>9.2</ele>
        <time>2025-06-30T20:52:02Z</time>
      </trkpt>
      <trkpt lat="46.18272" lon="-1.36921">
        <ele>9.2</ele>
        <time>2025-06-30T20:52:04Z</time>
      </trkpt>
      <trkpt lat="46.18272" lon="-1.36918">
        <ele>9.2</ele>
        <time>2025-06-30T20:52:05Z</time>
      </trkpt>
      <trkpt lat="46.18274" lon="-1.36911">
        <ele>9</ele>
        <time>2025-06-30T20:52:08Z</time>
      </trkpt>
      <trkpt lat="46.18276" lon="-1.36906">
        <ele>9</ele>
        <time>2025-06-30T20:52:12Z</time>
      </trkpt>
      <trkpt lat="46.18276" lon="-1.36904">
        <ele>9</ele>
        <time>2025-06-30T20:52:13Z</time>
      </trkpt>
      <trkpt lat="46.18277" lon="-1.36895">
        <ele>9.2</ele>
        <time>2025-06-30T20:52:19Z</time>
      </trkpt>
      <trkpt lat="46.18276" lon="-1.36893">
        <ele>9.2</ele>
        <time>2025-06-30T20:52:20Z</time>
      </trkpt>
    </trkseg>
  </trk>
</gpx>